<?xml version="1.0" encoding="UTF-8" standalone="no" ?>
<gpx xmlns="http://www.topografix.com/GPX/1/1" xmlns:xsi="http://www.w3.org/2001/XMLSchema-instance" xsi:schemaLocation="http://www.topografix.com/GPX/1/1 http://www.topografix.com/GPX/1/1/gpx.xsd" version="1.1" creator="VisuGPX - https://www.visugpx.com">
  <metadata>
    <name>montromant tour </name>
    <desc><![CDATA[46.5 md  670 M]]></desc>
  </metadata>
  <trk>
    <name><![CDATA[montromant route 69]]></name>
    <trkseg>
      <trkpt lat="45.63459" lon="4.3965">
        <ele>613.59997558594</ele>
        <time>2013-08-16T06:17:20.000Z</time>
      </trkpt>
      <trkpt lat="45.63474" lon="4.3964">
        <ele>615</ele>
        <time>2013-08-16T06:17:26.000Z</time>
      </trkpt>
      <trkpt lat="45.63496" lon="4.39629">
        <ele>617</ele>
        <time>2013-08-16T06:17:34.000Z</time>
      </trkpt>
      <trkpt lat="45.63507" lon="4.39624">
        <ele>617.59997558594</ele>
        <time>2013-08-16T06:17:37.000Z</time>
      </trkpt>
      <trkpt lat="45.63522" lon="4.39618">
        <ele>618.40002441406</ele>
        <time>2013-08-16T06:17:42.000Z</time>
      </trkpt>
      <trkpt lat="45.63537" lon="4.39612">
        <ele>619.20001220703</ele>
        <time>2013-08-16T06:17:47.000Z</time>
      </trkpt>
      <trkpt lat="45.63554" lon="4.39609">
        <ele>620</ele>
        <time>2013-08-16T06:17:53.000Z</time>
      </trkpt>
      <trkpt lat="45.63574" lon="4.39604">
        <ele>621</ele>
        <time>2013-08-16T06:17:59.000Z</time>
      </trkpt>
      <trkpt lat="45.63599" lon="4.39592">
        <ele>622.20001220703</ele>
        <time>2013-08-16T06:18:07.000Z</time>
      </trkpt>
      <trkpt lat="45.63619" lon="4.39578">
        <ele>623.40002441406</ele>
        <time>2013-08-16T06:18:16.000Z</time>
      </trkpt>
      <trkpt lat="45.63632" lon="4.39574">
        <ele>624</ele>
        <time>2013-08-16T06:18:23.000Z</time>
      </trkpt>
      <trkpt lat="45.63638" lon="4.39573">
        <ele>624.20001220703</ele>
        <time>2013-08-16T06:18:29.000Z</time>
      </trkpt>
      <trkpt lat="45.63642" lon="4.39575">
        <ele>624.20001220703</ele>
        <time>2013-08-16T06:18:38.000Z</time>
      </trkpt>
      <trkpt lat="45.63648" lon="4.39563">
        <ele>624.79998779297</ele>
        <time>2013-08-16T06:18:43.000Z</time>
      </trkpt>
      <trkpt lat="45.63656" lon="4.39552">
        <ele>625.20001220703</ele>
        <time>2013-08-16T06:18:47.000Z</time>
      </trkpt>
      <trkpt lat="45.63671" lon="4.39545">
        <ele>625.59997558594</ele>
        <time>2013-08-16T06:18:53.000Z</time>
      </trkpt>
      <trkpt lat="45.6369" lon="4.39535">
        <ele>625.20001220703</ele>
        <time>2013-08-16T06:18:59.000Z</time>
      </trkpt>
      <trkpt lat="45.63707" lon="4.39527">
        <ele>625.20001220703</ele>
        <time>2013-08-16T06:19:04.000Z</time>
      </trkpt>
      <trkpt lat="45.63741" lon="4.3951">
        <ele>625.40002441406</ele>
        <time>2013-08-16T06:19:15.000Z</time>
      </trkpt>
      <trkpt lat="45.63766" lon="4.39498">
        <ele>626</ele>
        <time>2013-08-16T06:19:23.000Z</time>
      </trkpt>
      <trkpt lat="45.63793" lon="4.39486">
        <ele>626</ele>
        <time>2013-08-16T06:19:32.000Z</time>
      </trkpt>
      <trkpt lat="45.63809" lon="4.39477">
        <ele>626</ele>
        <time>2013-08-16T06:19:39.000Z</time>
      </trkpt>
      <trkpt lat="45.63817" lon="4.39463">
        <ele>626</ele>
        <time>2013-08-16T06:19:43.000Z</time>
      </trkpt>
      <trkpt lat="45.63823" lon="4.39439">
        <ele>626</ele>
        <time>2013-08-16T06:19:49.000Z</time>
      </trkpt>
      <trkpt lat="45.63827" lon="4.39417">
        <ele>626</ele>
        <time>2013-08-16T06:19:55.000Z</time>
      </trkpt>
      <trkpt lat="45.6383" lon="4.39397">
        <ele>626</ele>
        <time>2013-08-16T06:20:00.000Z</time>
      </trkpt>
      <trkpt lat="45.63833" lon="4.39371">
        <ele>626</ele>
        <time>2013-08-16T06:20:06.000Z</time>
      </trkpt>
      <trkpt lat="45.63838" lon="4.39351">
        <ele>625.79998779297</ele>
        <time>2013-08-16T06:20:11.000Z</time>
      </trkpt>
      <trkpt lat="45.63839" lon="4.39334">
        <ele>625.59997558594</ele>
        <time>2013-08-16T06:20:16.000Z</time>
      </trkpt>
      <trkpt lat="45.63843" lon="4.39319">
        <ele>625.20001220703</ele>
        <time>2013-08-16T06:20:21.000Z</time>
      </trkpt>
      <trkpt lat="45.63852" lon="4.39316">
        <ele>624.79998779297</ele>
        <time>2013-08-16T06:20:25.000Z</time>
      </trkpt>
      <trkpt lat="45.63869" lon="4.39305">
        <ele>623.79998779297</ele>
        <time>2013-08-16T06:20:31.000Z</time>
      </trkpt>
      <trkpt lat="45.63883" lon="4.39294">
        <ele>622.79998779297</ele>
        <time>2013-08-16T06:20:37.000Z</time>
      </trkpt>
      <trkpt lat="45.63893" lon="4.39292">
        <ele>622.40002441406</ele>
        <time>2013-08-16T06:20:43.000Z</time>
      </trkpt>
      <trkpt lat="45.63895" lon="4.39293">
        <ele>622.40002441406</ele>
        <time>2013-08-16T06:20:44.000Z</time>
      </trkpt>
      <trkpt lat="45.63907" lon="4.39322">
        <ele>622.79998779297</ele>
        <time>2013-08-16T06:20:51.000Z</time>
      </trkpt>
      <trkpt lat="45.63919" lon="4.3935">
        <ele>623</ele>
        <time>2013-08-16T06:20:57.000Z</time>
      </trkpt>
      <trkpt lat="45.63932" lon="4.39367">
        <ele>622.79998779297</ele>
        <time>2013-08-16T06:21:02.000Z</time>
      </trkpt>
      <trkpt lat="45.63945" lon="4.39385">
        <ele>622.79998779297</ele>
        <time>2013-08-16T06:21:07.000Z</time>
      </trkpt>
      <trkpt lat="45.63951" lon="4.39392">
        <ele>622.59997558594</ele>
        <time>2013-08-16T06:21:09.000Z</time>
      </trkpt>
      <trkpt lat="45.63972" lon="4.39418">
        <ele>622.59997558594</ele>
        <time>2013-08-16T06:21:16.000Z</time>
      </trkpt>
      <trkpt lat="45.63985" lon="4.39438">
        <ele>622.40002441406</ele>
        <time>2013-08-16T06:21:21.000Z</time>
      </trkpt>
      <trkpt lat="45.63991" lon="4.39451">
        <ele>622.40002441406</ele>
        <time>2013-08-16T06:21:25.000Z</time>
      </trkpt>
      <trkpt lat="45.63999" lon="4.39448">
        <ele>622.20001220703</ele>
        <time>2013-08-16T06:21:30.000Z</time>
      </trkpt>
      <trkpt lat="45.64002" lon="4.39446">
        <ele>622.20001220703</ele>
        <time>2013-08-16T06:21:31.000Z</time>
      </trkpt>
      <trkpt lat="45.64018" lon="4.39428">
        <ele>622</ele>
        <time>2013-08-16T06:21:37.000Z</time>
      </trkpt>
      <trkpt lat="45.64023" lon="4.39423">
        <ele>621.79998779297</ele>
        <time>2013-08-16T06:21:41.000Z</time>
      </trkpt>
      <trkpt lat="45.64024" lon="4.39422">
        <ele>621.79998779297</ele>
        <time>2013-08-16T06:21:42.000Z</time>
      </trkpt>
      <trkpt lat="45.64032" lon="4.39427">
        <ele>621.79998779297</ele>
        <time>2013-08-16T06:21:47.000Z</time>
      </trkpt>
      <trkpt lat="45.64048" lon="4.39449">
        <ele>622.40002441406</ele>
        <time>2013-08-16T06:21:54.000Z</time>
      </trkpt>
      <trkpt lat="45.64073" lon="4.39484">
        <ele>624</ele>
        <time>2013-08-16T06:22:05.000Z</time>
      </trkpt>
      <trkpt lat="45.64102" lon="4.39523">
        <ele>625.79998779297</ele>
        <time>2013-08-16T06:22:17.000Z</time>
      </trkpt>
      <trkpt lat="45.64123" lon="4.39551">
        <ele>627</ele>
        <time>2013-08-16T06:22:25.000Z</time>
      </trkpt>
      <trkpt lat="45.64142" lon="4.3958">
        <ele>628.20001220703</ele>
        <time>2013-08-16T06:22:33.000Z</time>
      </trkpt>
      <trkpt lat="45.64161" lon="4.39605">
        <ele>629.20001220703</ele>
        <time>2013-08-16T06:22:40.000Z</time>
      </trkpt>
      <trkpt lat="45.64184" lon="4.39636">
        <ele>630.40002441406</ele>
        <time>2013-08-16T06:22:48.000Z</time>
      </trkpt>
      <trkpt lat="45.64213" lon="4.39675">
        <ele>630.79998779297</ele>
        <time>2013-08-16T06:22:58.000Z</time>
      </trkpt>
      <trkpt lat="45.64236" lon="4.39708">
        <ele>629.79998779297</ele>
        <time>2013-08-16T06:23:05.000Z</time>
      </trkpt>
      <trkpt lat="45.64262" lon="4.39744">
        <ele>627.79998779297</ele>
        <time>2013-08-16T06:23:12.000Z</time>
      </trkpt>
      <trkpt lat="45.64295" lon="4.39791">
        <ele>624.40002441406</ele>
        <time>2013-08-16T06:23:19.000Z</time>
      </trkpt>
      <trkpt lat="45.64346" lon="4.39864">
        <ele>622.40002441406</ele>
        <time>2013-08-16T06:23:29.000Z</time>
      </trkpt>
      <trkpt lat="45.64378" lon="4.39906">
        <ele>623.79998779297</ele>
        <time>2013-08-16T06:23:36.000Z</time>
      </trkpt>
      <trkpt lat="45.644" lon="4.39935">
        <ele>624.79998779297</ele>
        <time>2013-08-16T06:23:42.000Z</time>
      </trkpt>
      <trkpt lat="45.64425" lon="4.39967">
        <ele>626.20001220703</ele>
        <time>2013-08-16T06:23:50.000Z</time>
      </trkpt>
      <trkpt lat="45.64447" lon="4.39997">
        <ele>627.20001220703</ele>
        <time>2013-08-16T06:23:58.000Z</time>
      </trkpt>
      <trkpt lat="45.64463" lon="4.40018">
        <ele>628.79998779297</ele>
        <time>2013-08-16T06:24:04.000Z</time>
      </trkpt>
      <trkpt lat="45.64475" lon="4.40036">
        <ele>630.40002441406</ele>
        <time>2013-08-16T06:24:09.000Z</time>
      </trkpt>
      <trkpt lat="45.64493" lon="4.4006">
        <ele>633</ele>
        <time>2013-08-16T06:24:16.000Z</time>
      </trkpt>
      <trkpt lat="45.64505" lon="4.40076">
        <ele>634.59997558594</ele>
        <time>2013-08-16T06:24:21.000Z</time>
      </trkpt>
      <trkpt lat="45.6452" lon="4.40096">
        <ele>635.79998779297</ele>
        <time>2013-08-16T06:24:27.000Z</time>
      </trkpt>
      <trkpt lat="45.64533" lon="4.40115">
        <ele>637</ele>
        <time>2013-08-16T06:24:33.000Z</time>
      </trkpt>
      <trkpt lat="45.6455" lon="4.40139">
        <ele>638.40002441406</ele>
        <time>2013-08-16T06:24:41.000Z</time>
      </trkpt>
      <trkpt lat="45.64571" lon="4.40167">
        <ele>640.59997558594</ele>
        <time>2013-08-16T06:24:51.000Z</time>
      </trkpt>
      <trkpt lat="45.64588" lon="4.4019">
        <ele>642.20001220703</ele>
        <time>2013-08-16T06:24:59.000Z</time>
      </trkpt>
      <trkpt lat="45.64611" lon="4.40222">
        <ele>643.79998779297</ele>
        <time>2013-08-16T06:25:10.000Z</time>
      </trkpt>
      <trkpt lat="45.64629" lon="4.40246">
        <ele>645.20001220703</ele>
        <time>2013-08-16T06:25:19.000Z</time>
      </trkpt>
      <trkpt lat="45.64648" lon="4.40274">
        <ele>645.20001220703</ele>
        <time>2013-08-16T06:25:29.000Z</time>
      </trkpt>
      <trkpt lat="45.64671" lon="4.40304">
        <ele>645.59997558594</ele>
        <time>2013-08-16T06:25:40.000Z</time>
      </trkpt>
      <trkpt lat="45.64688" lon="4.40328">
        <ele>646.59997558594</ele>
        <time>2013-08-16T06:25:49.000Z</time>
      </trkpt>
      <trkpt lat="45.64703" lon="4.4035">
        <ele>647.79998779297</ele>
        <time>2013-08-16T06:25:57.000Z</time>
      </trkpt>
      <trkpt lat="45.6473" lon="4.40386">
        <ele>650</ele>
        <time>2013-08-16T06:26:10.000Z</time>
      </trkpt>
      <trkpt lat="45.64748" lon="4.40412">
        <ele>651.59997558594</ele>
        <time>2013-08-16T06:26:20.000Z</time>
      </trkpt>
      <trkpt lat="45.64759" lon="4.40426">
        <ele>653</ele>
        <time>2013-08-16T06:26:26.000Z</time>
      </trkpt>
      <trkpt lat="45.64783" lon="4.40457">
        <ele>656</ele>
        <time>2013-08-16T06:26:38.000Z</time>
      </trkpt>
      <trkpt lat="45.64803" lon="4.40485">
        <ele>659</ele>
        <time>2013-08-16T06:26:49.000Z</time>
      </trkpt>
      <trkpt lat="45.64821" lon="4.40511">
        <ele>661</ele>
        <time>2013-08-16T06:26:59.000Z</time>
      </trkpt>
      <trkpt lat="45.64835" lon="4.4053">
        <ele>661.59997558594</ele>
        <time>2013-08-16T06:27:07.000Z</time>
      </trkpt>
      <trkpt lat="45.64848" lon="4.40549">
        <ele>661.20001220703</ele>
        <time>2013-08-16T06:27:15.000Z</time>
      </trkpt>
      <trkpt lat="45.64862" lon="4.4057">
        <ele>661</ele>
        <time>2013-08-16T06:27:22.000Z</time>
      </trkpt>
      <trkpt lat="45.64885" lon="4.40606">
        <ele>660.20001220703</ele>
        <time>2013-08-16T06:27:33.000Z</time>
      </trkpt>
      <trkpt lat="45.64909" lon="4.40643">
        <ele>659.79998779297</ele>
        <time>2013-08-16T06:27:44.000Z</time>
      </trkpt>
      <trkpt lat="45.64938" lon="4.40689">
        <ele>660.59997558594</ele>
        <time>2013-08-16T06:27:58.000Z</time>
      </trkpt>
      <trkpt lat="45.64971" lon="4.4074">
        <ele>662.20001220703</ele>
        <time>2013-08-16T06:28:13.000Z</time>
      </trkpt>
      <trkpt lat="45.64991" lon="4.4077">
        <ele>662.20001220703</ele>
        <time>2013-08-16T06:28:21.000Z</time>
      </trkpt>
      <trkpt lat="45.65011" lon="4.40803">
        <ele>661</ele>
        <time>2013-08-16T06:28:29.000Z</time>
      </trkpt>
      <trkpt lat="45.65039" lon="4.40845">
        <ele>659</ele>
        <time>2013-08-16T06:28:37.000Z</time>
      </trkpt>
      <trkpt lat="45.6507" lon="4.40895">
        <ele>655.79998779297</ele>
        <time>2013-08-16T06:28:45.000Z</time>
      </trkpt>
      <trkpt lat="45.65117" lon="4.40968">
        <ele>652.20001220703</ele>
        <time>2013-08-16T06:28:55.000Z</time>
      </trkpt>
      <trkpt lat="45.65153" lon="4.41021">
        <ele>651</ele>
        <time>2013-08-16T06:29:02.000Z</time>
      </trkpt>
      <trkpt lat="45.6518" lon="4.41063">
        <ele>651.20001220703</ele>
        <time>2013-08-16T06:29:08.000Z</time>
      </trkpt>
      <trkpt lat="45.65192" lon="4.41085">
        <ele>651</ele>
        <time>2013-08-16T06:29:11.000Z</time>
      </trkpt>
      <trkpt lat="45.65221" lon="4.41129">
        <ele>652.40002441406</ele>
        <time>2013-08-16T06:29:18.000Z</time>
      </trkpt>
      <trkpt lat="45.65251" lon="4.41176">
        <ele>653.40002441406</ele>
        <time>2013-08-16T06:29:26.000Z</time>
      </trkpt>
      <trkpt lat="45.65287" lon="4.41234">
        <ele>649.79998779297</ele>
        <time>2013-08-16T06:29:35.000Z</time>
      </trkpt>
      <trkpt lat="45.65326" lon="4.41294">
        <ele>648.79998779297</ele>
        <time>2013-08-16T06:29:44.000Z</time>
      </trkpt>
      <trkpt lat="45.65354" lon="4.41336">
        <ele>649.20001220703</ele>
        <time>2013-08-16T06:29:51.000Z</time>
      </trkpt>
      <trkpt lat="45.65381" lon="4.41378">
        <ele>651</ele>
        <time>2013-08-16T06:29:59.000Z</time>
      </trkpt>
      <trkpt lat="45.65405" lon="4.41415">
        <ele>654</ele>
        <time>2013-08-16T06:30:07.000Z</time>
      </trkpt>
      <trkpt lat="45.65421" lon="4.4144">
        <ele>656</ele>
        <time>2013-08-16T06:30:13.000Z</time>
      </trkpt>
      <trkpt lat="45.65442" lon="4.41473">
        <ele>657.59997558594</ele>
        <time>2013-08-16T06:30:21.000Z</time>
      </trkpt>
      <trkpt lat="45.65461" lon="4.41504">
        <ele>658.79998779297</ele>
        <time>2013-08-16T06:30:29.000Z</time>
      </trkpt>
      <trkpt lat="45.65488" lon="4.41545">
        <ele>657.79998779297</ele>
        <time>2013-08-16T06:30:39.000Z</time>
      </trkpt>
      <trkpt lat="45.65516" lon="4.41588">
        <ele>656</ele>
        <time>2013-08-16T06:30:48.000Z</time>
      </trkpt>
      <trkpt lat="45.65546" lon="4.41635">
        <ele>655.20001220703</ele>
        <time>2013-08-16T06:30:57.000Z</time>
      </trkpt>
      <trkpt lat="45.65575" lon="4.41683">
        <ele>656.59997558594</ele>
        <time>2013-08-16T06:31:06.000Z</time>
      </trkpt>
      <trkpt lat="45.65591" lon="4.41706">
        <ele>658</ele>
        <time>2013-08-16T06:31:12.000Z</time>
      </trkpt>
      <trkpt lat="45.65611" lon="4.41736">
        <ele>659.59997558594</ele>
        <time>2013-08-16T06:31:20.000Z</time>
      </trkpt>
      <trkpt lat="45.65628" lon="4.41769">
        <ele>661.59997558594</ele>
        <time>2013-08-16T06:31:28.000Z</time>
      </trkpt>
      <trkpt lat="45.65636" lon="4.418">
        <ele>663.59997558594</ele>
        <time>2013-08-16T06:31:35.000Z</time>
      </trkpt>
      <trkpt lat="45.65636" lon="4.41832">
        <ele>665.79998779297</ele>
        <time>2013-08-16T06:31:42.000Z</time>
      </trkpt>
      <trkpt lat="45.65634" lon="4.41864">
        <ele>667</ele>
        <time>2013-08-16T06:31:49.000Z</time>
      </trkpt>
      <trkpt lat="45.6563" lon="4.41907">
        <ele>668.59997558594</ele>
        <time>2013-08-16T06:31:59.000Z</time>
      </trkpt>
      <trkpt lat="45.65628" lon="4.41932">
        <ele>668.79998779297</ele>
        <time>2013-08-16T06:32:05.000Z</time>
      </trkpt>
      <trkpt lat="45.65627" lon="4.41959">
        <ele>668.59997558594</ele>
        <time>2013-08-16T06:32:12.000Z</time>
      </trkpt>
      <trkpt lat="45.6563" lon="4.41993">
        <ele>668.40002441406</ele>
        <time>2013-08-16T06:32:19.000Z</time>
      </trkpt>
      <trkpt lat="45.6564" lon="4.4203">
        <ele>667.59997558594</ele>
        <time>2013-08-16T06:32:26.000Z</time>
      </trkpt>
      <trkpt lat="45.65656" lon="4.42077">
        <ele>666</ele>
        <time>2013-08-16T06:32:35.000Z</time>
      </trkpt>
      <trkpt lat="45.65671" lon="4.42123">
        <ele>665.20001220703</ele>
        <time>2013-08-16T06:32:42.000Z</time>
      </trkpt>
      <trkpt lat="45.65689" lon="4.42176">
        <ele>664.59997558594</ele>
        <time>2013-08-16T06:32:50.000Z</time>
      </trkpt>
      <trkpt lat="45.65709" lon="4.42237">
        <ele>665.20001220703</ele>
        <time>2013-08-16T06:32:59.000Z</time>
      </trkpt>
      <trkpt lat="45.65722" lon="4.42278">
        <ele>665.40002441406</ele>
        <time>2013-08-16T06:33:06.000Z</time>
      </trkpt>
      <trkpt lat="45.65744" lon="4.42347">
        <ele>665.59997558594</ele>
        <time>2013-08-16T06:33:18.000Z</time>
      </trkpt>
      <trkpt lat="45.65765" lon="4.42411">
        <ele>663.79998779297</ele>
        <time>2013-08-16T06:33:29.000Z</time>
      </trkpt>
      <trkpt lat="45.65786" lon="4.4248">
        <ele>664.40002441406</ele>
        <time>2013-08-16T06:33:40.000Z</time>
      </trkpt>
      <trkpt lat="45.65804" lon="4.42533">
        <ele>666.79998779297</ele>
        <time>2013-08-16T06:33:49.000Z</time>
      </trkpt>
      <trkpt lat="45.65818" lon="4.42577">
        <ele>668.79998779297</ele>
        <time>2013-08-16T06:33:57.000Z</time>
      </trkpt>
      <trkpt lat="45.65827" lon="4.42606">
        <ele>669.79998779297</ele>
        <time>2013-08-16T06:34:03.000Z</time>
      </trkpt>
      <trkpt lat="45.65839" lon="4.42644">
        <ele>670.59997558594</ele>
        <time>2013-08-16T06:34:11.000Z</time>
      </trkpt>
      <trkpt lat="45.65851" lon="4.42683">
        <ele>671.40002441406</ele>
        <time>2013-08-16T06:34:19.000Z</time>
      </trkpt>
      <trkpt lat="45.65865" lon="4.42722">
        <ele>672.20001220703</ele>
        <time>2013-08-16T06:34:27.000Z</time>
      </trkpt>
      <trkpt lat="45.65879" lon="4.42765">
        <ele>673</ele>
        <time>2013-08-16T06:34:36.000Z</time>
      </trkpt>
      <trkpt lat="45.65898" lon="4.4282">
        <ele>673.59997558594</ele>
        <time>2013-08-16T06:34:48.000Z</time>
      </trkpt>
      <trkpt lat="45.65915" lon="4.42874">
        <ele>674.40002441406</ele>
        <time>2013-08-16T06:35:00.000Z</time>
      </trkpt>
      <trkpt lat="45.65933" lon="4.42927">
        <ele>675.79998779297</ele>
        <time>2013-08-16T06:35:12.000Z</time>
      </trkpt>
      <trkpt lat="45.65948" lon="4.42975">
        <ele>676.79998779297</ele>
        <time>2013-08-16T06:35:23.000Z</time>
      </trkpt>
      <trkpt lat="45.65963" lon="4.43019">
        <ele>678.20001220703</ele>
        <time>2013-08-16T06:35:33.000Z</time>
      </trkpt>
      <trkpt lat="45.65976" lon="4.43059">
        <ele>679.59997558594</ele>
        <time>2013-08-16T06:35:42.000Z</time>
      </trkpt>
      <trkpt lat="45.65993" lon="4.43112">
        <ele>681.40002441406</ele>
        <time>2013-08-16T06:35:54.000Z</time>
      </trkpt>
      <trkpt lat="45.6601" lon="4.43159">
        <ele>683.20001220703</ele>
        <time>2013-08-16T06:36:05.000Z</time>
      </trkpt>
      <trkpt lat="45.66024" lon="4.43203">
        <ele>685.79998779297</ele>
        <time>2013-08-16T06:36:16.000Z</time>
      </trkpt>
      <trkpt lat="45.66032" lon="4.43229">
        <ele>687.40002441406</ele>
        <time>2013-08-16T06:36:23.000Z</time>
      </trkpt>
      <trkpt lat="45.66041" lon="4.43258">
        <ele>689</ele>
        <time>2013-08-16T06:36:31.000Z</time>
      </trkpt>
      <trkpt lat="45.66048" lon="4.4328">
        <ele>689.40002441406</ele>
        <time>2013-08-16T06:36:37.000Z</time>
      </trkpt>
      <trkpt lat="45.66057" lon="4.43304">
        <ele>690</ele>
        <time>2013-08-16T06:36:44.000Z</time>
      </trkpt>
      <trkpt lat="45.66062" lon="4.43323">
        <ele>690.59997558594</ele>
        <time>2013-08-16T06:36:49.000Z</time>
      </trkpt>
      <trkpt lat="45.66069" lon="4.43346">
        <ele>691.20001220703</ele>
        <time>2013-08-16T06:36:55.000Z</time>
      </trkpt>
      <trkpt lat="45.66077" lon="4.43372">
        <ele>692.40002441406</ele>
        <time>2013-08-16T06:37:02.000Z</time>
      </trkpt>
      <trkpt lat="45.66085" lon="4.43397">
        <ele>693.40002441406</ele>
        <time>2013-08-16T06:37:09.000Z</time>
      </trkpt>
      <trkpt lat="45.66094" lon="4.43422">
        <ele>694</ele>
        <time>2013-08-16T06:37:16.000Z</time>
      </trkpt>
      <trkpt lat="45.66109" lon="4.4347">
        <ele>693.40002441406</ele>
        <time>2013-08-16T06:37:28.000Z</time>
      </trkpt>
      <trkpt lat="45.66121" lon="4.43518">
        <ele>693.40002441406</ele>
        <time>2013-08-16T06:37:38.000Z</time>
      </trkpt>
      <trkpt lat="45.66132" lon="4.43562">
        <ele>693.59997558594</ele>
        <time>2013-08-16T06:37:46.000Z</time>
      </trkpt>
      <trkpt lat="45.66141" lon="4.43612">
        <ele>694.20001220703</ele>
        <time>2013-08-16T06:37:54.000Z</time>
      </trkpt>
      <trkpt lat="45.66149" lon="4.43672">
        <ele>695.20001220703</ele>
        <time>2013-08-16T06:38:04.000Z</time>
      </trkpt>
      <trkpt lat="45.66161" lon="4.43731">
        <ele>694.79998779297</ele>
        <time>2013-08-16T06:38:14.000Z</time>
      </trkpt>
      <trkpt lat="45.6618" lon="4.43793">
        <ele>693.20001220703</ele>
        <time>2013-08-16T06:38:25.000Z</time>
      </trkpt>
      <trkpt lat="45.662" lon="4.43824">
        <ele>692.40002441406</ele>
        <time>2013-08-16T06:38:31.000Z</time>
      </trkpt>
      <trkpt lat="45.66233" lon="4.43859">
        <ele>692.59997558594</ele>
        <time>2013-08-16T06:38:38.000Z</time>
      </trkpt>
      <trkpt lat="45.66272" lon="4.43899">
        <ele>692.20001220703</ele>
        <time>2013-08-16T06:38:46.000Z</time>
      </trkpt>
      <trkpt lat="45.66301" lon="4.43933">
        <ele>692.40002441406</ele>
        <time>2013-08-16T06:38:53.000Z</time>
      </trkpt>
      <trkpt lat="45.66332" lon="4.43978">
        <ele>693.79998779297</ele>
        <time>2013-08-16T06:39:02.000Z</time>
      </trkpt>
      <trkpt lat="45.66347" lon="4.44013">
        <ele>694.79998779297</ele>
        <time>2013-08-16T06:39:08.000Z</time>
      </trkpt>
      <trkpt lat="45.6636" lon="4.44069">
        <ele>696.79998779297</ele>
        <time>2013-08-16T06:39:18.000Z</time>
      </trkpt>
      <trkpt lat="45.66368" lon="4.4411">
        <ele>698.40002441406</ele>
        <time>2013-08-16T06:39:26.000Z</time>
      </trkpt>
      <trkpt lat="45.66375" lon="4.44147">
        <ele>699.79998779297</ele>
        <time>2013-08-16T06:39:34.000Z</time>
      </trkpt>
      <trkpt lat="45.66385" lon="4.44175">
        <ele>700.59997558594</ele>
        <time>2013-08-16T06:39:41.000Z</time>
      </trkpt>
      <trkpt lat="45.66401" lon="4.44201">
        <ele>701.40002441406</ele>
        <time>2013-08-16T06:39:49.000Z</time>
      </trkpt>
      <trkpt lat="45.66426" lon="4.44229">
        <ele>703</ele>
        <time>2013-08-16T06:39:59.000Z</time>
      </trkpt>
      <trkpt lat="45.66455" lon="4.44259">
        <ele>704.20001220703</ele>
        <time>2013-08-16T06:40:10.000Z</time>
      </trkpt>
      <trkpt lat="45.66488" lon="4.44292">
        <ele>704.79998779297</ele>
        <time>2013-08-16T06:40:22.000Z</time>
      </trkpt>
      <trkpt lat="45.66512" lon="4.44316">
        <ele>705.79998779297</ele>
        <time>2013-08-16T06:40:30.000Z</time>
      </trkpt>
      <trkpt lat="45.66544" lon="4.44349">
        <ele>708</ele>
        <time>2013-08-16T06:40:41.000Z</time>
      </trkpt>
      <trkpt lat="45.66569" lon="4.44378">
        <ele>710.79998779297</ele>
        <time>2013-08-16T06:40:50.000Z</time>
      </trkpt>
      <trkpt lat="45.66583" lon="4.4441">
        <ele>712</ele>
        <time>2013-08-16T06:40:57.000Z</time>
      </trkpt>
      <trkpt lat="45.66589" lon="4.44453">
        <ele>712.59997558594</ele>
        <time>2013-08-16T06:41:05.000Z</time>
      </trkpt>
      <trkpt lat="45.66594" lon="4.44498">
        <ele>713.40002441406</ele>
        <time>2013-08-16T06:41:14.000Z</time>
      </trkpt>
      <trkpt lat="45.66603" lon="4.44536">
        <ele>712.20001220703</ele>
        <time>2013-08-16T06:41:22.000Z</time>
      </trkpt>
      <trkpt lat="45.66618" lon="4.44562">
        <ele>712.59997558594</ele>
        <time>2013-08-16T06:41:28.000Z</time>
      </trkpt>
      <trkpt lat="45.66647" lon="4.44588">
        <ele>714.20001220703</ele>
        <time>2013-08-16T06:41:36.000Z</time>
      </trkpt>
      <trkpt lat="45.6668" lon="4.44619">
        <ele>713</ele>
        <time>2013-08-16T06:41:44.000Z</time>
      </trkpt>
      <trkpt lat="45.66722" lon="4.44662">
        <ele>712.20001220703</ele>
        <time>2013-08-16T06:41:53.000Z</time>
      </trkpt>
      <trkpt lat="45.66755" lon="4.44707">
        <ele>712</ele>
        <time>2013-08-16T06:42:01.000Z</time>
      </trkpt>
      <trkpt lat="45.66776" lon="4.44755">
        <ele>709.79998779297</ele>
        <time>2013-08-16T06:42:08.000Z</time>
      </trkpt>
      <trkpt lat="45.66809" lon="4.44818">
        <ele>710.20001220703</ele>
        <time>2013-08-16T06:42:18.000Z</time>
      </trkpt>
      <trkpt lat="45.66847" lon="4.44878">
        <ele>711</ele>
        <time>2013-08-16T06:42:28.000Z</time>
      </trkpt>
      <trkpt lat="45.66854" lon="4.44891">
        <ele>711</ele>
        <time>2013-08-16T06:42:30.000Z</time>
      </trkpt>
      <trkpt lat="45.66864" lon="4.44935">
        <ele>711</ele>
        <time>2013-08-16T06:42:36.000Z</time>
      </trkpt>
      <trkpt lat="45.66864" lon="4.44942">
        <ele>711</ele>
        <time>2013-08-16T06:42:37.000Z</time>
      </trkpt>
      <trkpt lat="45.66861" lon="4.45002">
        <ele>710.59997558594</ele>
        <time>2013-08-16T06:42:46.000Z</time>
      </trkpt>
      <trkpt lat="45.66857" lon="4.45051">
        <ele>712.79998779297</ele>
        <time>2013-08-16T06:42:55.000Z</time>
      </trkpt>
      <trkpt lat="45.66855" lon="4.45095">
        <ele>714.79998779297</ele>
        <time>2013-08-16T06:43:04.000Z</time>
      </trkpt>
      <trkpt lat="45.66853" lon="4.4513">
        <ele>716.59997558594</ele>
        <time>2013-08-16T06:43:12.000Z</time>
      </trkpt>
      <trkpt lat="45.6685" lon="4.45164">
        <ele>718.20001220703</ele>
        <time>2013-08-16T06:43:20.000Z</time>
      </trkpt>
      <trkpt lat="45.66848" lon="4.45188">
        <ele>718.79998779297</ele>
        <time>2013-08-16T06:43:25.000Z</time>
      </trkpt>
      <trkpt lat="45.66846" lon="4.45232">
        <ele>719.40002441406</ele>
        <time>2013-08-16T06:43:35.000Z</time>
      </trkpt>
      <trkpt lat="45.66843" lon="4.45277">
        <ele>720.59997558594</ele>
        <time>2013-08-16T06:43:46.000Z</time>
      </trkpt>
      <trkpt lat="45.66842" lon="4.45314">
        <ele>721.79998779297</ele>
        <time>2013-08-16T06:43:55.000Z</time>
      </trkpt>
      <trkpt lat="45.66839" lon="4.45358">
        <ele>723.79998779297</ele>
        <time>2013-08-16T06:44:06.000Z</time>
      </trkpt>
      <trkpt lat="45.66836" lon="4.45392">
        <ele>725.59997558594</ele>
        <time>2013-08-16T06:44:15.000Z</time>
      </trkpt>
      <trkpt lat="45.66834" lon="4.45426">
        <ele>727</ele>
        <time>2013-08-16T06:44:23.000Z</time>
      </trkpt>
      <trkpt lat="45.66834" lon="4.45459">
        <ele>727.40002441406</ele>
        <time>2013-08-16T06:44:30.000Z</time>
      </trkpt>
      <trkpt lat="45.66835" lon="4.45489">
        <ele>728</ele>
        <time>2013-08-16T06:44:37.000Z</time>
      </trkpt>
      <trkpt lat="45.66834" lon="4.45538">
        <ele>730.20001220703</ele>
        <time>2013-08-16T06:44:47.000Z</time>
      </trkpt>
      <trkpt lat="45.66827" lon="4.45577">
        <ele>730.79998779297</ele>
        <time>2013-08-16T06:44:55.000Z</time>
      </trkpt>
      <trkpt lat="45.6682" lon="4.45626">
        <ele>730.59997558594</ele>
        <time>2013-08-16T06:45:05.000Z</time>
      </trkpt>
      <trkpt lat="45.66824" lon="4.45668">
        <ele>733</ele>
        <time>2013-08-16T06:45:13.000Z</time>
      </trkpt>
      <trkpt lat="45.66835" lon="4.45718">
        <ele>734</ele>
        <time>2013-08-16T06:45:23.000Z</time>
      </trkpt>
      <trkpt lat="45.66856" lon="4.45769">
        <ele>737.59997558594</ele>
        <time>2013-08-16T06:45:34.000Z</time>
      </trkpt>
      <trkpt lat="45.66875" lon="4.4582">
        <ele>739.79998779297</ele>
        <time>2013-08-16T06:45:44.000Z</time>
      </trkpt>
      <trkpt lat="45.6688" lon="4.45866">
        <ele>738.59997558594</ele>
        <time>2013-08-16T06:45:52.000Z</time>
      </trkpt>
      <trkpt lat="45.66887" lon="4.45914">
        <ele>738.20001220703</ele>
        <time>2013-08-16T06:46:01.000Z</time>
      </trkpt>
      <trkpt lat="45.66902" lon="4.45946">
        <ele>739.79998779297</ele>
        <time>2013-08-16T06:46:08.000Z</time>
      </trkpt>
      <trkpt lat="45.66927" lon="4.45978">
        <ele>743.79998779297</ele>
        <time>2013-08-16T06:46:17.000Z</time>
      </trkpt>
      <trkpt lat="45.66954" lon="4.4601">
        <ele>747</ele>
        <time>2013-08-16T06:46:26.000Z</time>
      </trkpt>
      <trkpt lat="45.66993" lon="4.46062">
        <ele>747.79998779297</ele>
        <time>2013-08-16T06:46:40.000Z</time>
      </trkpt>
      <trkpt lat="45.67033" lon="4.4611">
        <ele>749.79998779297</ele>
        <time>2013-08-16T06:46:53.000Z</time>
      </trkpt>
      <trkpt lat="45.67064" lon="4.46155">
        <ele>750.40002441406</ele>
        <time>2013-08-16T06:47:04.000Z</time>
      </trkpt>
      <trkpt lat="45.67086" lon="4.462">
        <ele>748</ele>
        <time>2013-08-16T06:47:14.000Z</time>
      </trkpt>
      <trkpt lat="45.67107" lon="4.46222">
        <ele>747.79998779297</ele>
        <time>2013-08-16T06:47:21.000Z</time>
      </trkpt>
      <trkpt lat="45.67136" lon="4.46237">
        <ele>749.79998779297</ele>
        <time>2013-08-16T06:47:29.000Z</time>
      </trkpt>
      <trkpt lat="45.67159" lon="4.46245">
        <ele>751.79998779297</ele>
        <time>2013-08-16T06:47:36.000Z</time>
      </trkpt>
      <trkpt lat="45.67156" lon="4.46238">
        <ele>753</ele>
        <time>2013-08-16T06:47:40.000Z</time>
      </trkpt>
      <trkpt lat="45.67124" lon="4.46226">
        <ele>750</ele>
        <time>2013-08-16T06:47:48.000Z</time>
      </trkpt>
      <trkpt lat="45.67097" lon="4.46207">
        <ele>748.79998779297</ele>
        <time>2013-08-16T06:47:56.000Z</time>
      </trkpt>
      <trkpt lat="45.67094" lon="4.46206">
        <ele>748.59997558594</ele>
        <time>2013-08-16T06:47:57.000Z</time>
      </trkpt>
      <trkpt lat="45.6709" lon="4.46206">
        <ele>747.59997558594</ele>
        <time>2013-08-16T06:48:02.000Z</time>
      </trkpt>
      <trkpt lat="45.67089" lon="4.46207">
        <ele>747.40002441406</ele>
        <time>2013-08-16T06:48:43.000Z</time>
      </trkpt>
      <trkpt lat="45.6709" lon="4.46207">
        <ele>747.59997558594</ele>
        <time>2013-08-16T06:51:28.000Z</time>
      </trkpt>
      <trkpt lat="45.671" lon="4.46213">
        <ele>748.20001220703</ele>
        <time>2013-08-16T06:51:34.000Z</time>
      </trkpt>
      <trkpt lat="45.67117" lon="4.46229">
        <ele>748.40002441406</ele>
        <time>2013-08-16T06:51:43.000Z</time>
      </trkpt>
      <trkpt lat="45.67136" lon="4.46236">
        <ele>750</ele>
        <time>2013-08-16T06:51:50.000Z</time>
      </trkpt>
      <trkpt lat="45.67165" lon="4.46244">
        <ele>753.20001220703</ele>
        <time>2013-08-16T06:51:58.000Z</time>
      </trkpt>
      <trkpt lat="45.67208" lon="4.46253">
        <ele>757.79998779297</ele>
        <time>2013-08-16T06:52:09.000Z</time>
      </trkpt>
      <trkpt lat="45.67232" lon="4.46261">
        <ele>759.79998779297</ele>
        <time>2013-08-16T06:52:15.000Z</time>
      </trkpt>
      <trkpt lat="45.67264" lon="4.46289">
        <ele>759</ele>
        <time>2013-08-16T06:52:24.000Z</time>
      </trkpt>
      <trkpt lat="45.67281" lon="4.46307">
        <ele>758.79998779297</ele>
        <time>2013-08-16T06:52:30.000Z</time>
      </trkpt>
      <trkpt lat="45.67304" lon="4.46335">
        <ele>758.59997558594</ele>
        <time>2013-08-16T06:52:38.000Z</time>
      </trkpt>
      <trkpt lat="45.67326" lon="4.46358">
        <ele>759.59997558594</ele>
        <time>2013-08-16T06:52:45.000Z</time>
      </trkpt>
      <trkpt lat="45.67375" lon="4.46413">
        <ele>759</ele>
        <time>2013-08-16T06:53:01.000Z</time>
      </trkpt>
      <trkpt lat="45.67414" lon="4.4646">
        <ele>759</ele>
        <time>2013-08-16T06:53:14.000Z</time>
      </trkpt>
      <trkpt lat="45.67449" lon="4.46504">
        <ele>759.59997558594</ele>
        <time>2013-08-16T06:53:26.000Z</time>
      </trkpt>
      <trkpt lat="45.67465" lon="4.46528">
        <ele>760.79998779297</ele>
        <time>2013-08-16T06:53:32.000Z</time>
      </trkpt>
      <trkpt lat="45.6749" lon="4.46579">
        <ele>761.20001220703</ele>
        <time>2013-08-16T06:53:42.000Z</time>
      </trkpt>
      <trkpt lat="45.67515" lon="4.46644">
        <ele>760.79998779297</ele>
        <time>2013-08-16T06:53:54.000Z</time>
      </trkpt>
      <trkpt lat="45.67539" lon="4.46704">
        <ele>761.40002441406</ele>
        <time>2013-08-16T06:54:04.000Z</time>
      </trkpt>
      <trkpt lat="45.67567" lon="4.46766">
        <ele>761</ele>
        <time>2013-08-16T06:54:15.000Z</time>
      </trkpt>
      <trkpt lat="45.67602" lon="4.46833">
        <ele>760.59997558594</ele>
        <time>2013-08-16T06:54:27.000Z</time>
      </trkpt>
      <trkpt lat="45.67637" lon="4.46901">
        <ele>760.59997558594</ele>
        <time>2013-08-16T06:54:39.000Z</time>
      </trkpt>
      <trkpt lat="45.67674" lon="4.46958">
        <ele>761.20001220703</ele>
        <time>2013-08-16T06:54:50.000Z</time>
      </trkpt>
      <trkpt lat="45.67702" lon="4.47009">
        <ele>762.59997558594</ele>
        <time>2013-08-16T06:55:00.000Z</time>
      </trkpt>
      <trkpt lat="45.67724" lon="4.47066">
        <ele>763.59997558594</ele>
        <time>2013-08-16T06:55:10.000Z</time>
      </trkpt>
      <trkpt lat="45.67735" lon="4.47116">
        <ele>764</ele>
        <time>2013-08-16T06:55:18.000Z</time>
      </trkpt>
      <trkpt lat="45.67746" lon="4.47171">
        <ele>764.40002441406</ele>
        <time>2013-08-16T06:55:27.000Z</time>
      </trkpt>
      <trkpt lat="45.67759" lon="4.47241">
        <ele>765.59997558594</ele>
        <time>2013-08-16T06:55:38.000Z</time>
      </trkpt>
      <trkpt lat="45.67772" lon="4.47308">
        <ele>766.20001220703</ele>
        <time>2013-08-16T06:55:49.000Z</time>
      </trkpt>
      <trkpt lat="45.67783" lon="4.47358">
        <ele>766.40002441406</ele>
        <time>2013-08-16T06:55:58.000Z</time>
      </trkpt>
      <trkpt lat="45.67799" lon="4.47404">
        <ele>767</ele>
        <time>2013-08-16T06:56:07.000Z</time>
      </trkpt>
      <trkpt lat="45.67816" lon="4.47438">
        <ele>766.79998779297</ele>
        <time>2013-08-16T06:56:14.000Z</time>
      </trkpt>
      <trkpt lat="45.67829" lon="4.47462">
        <ele>766.40002441406</ele>
        <time>2013-08-16T06:56:20.000Z</time>
      </trkpt>
      <trkpt lat="45.67852" lon="4.47498">
        <ele>765.20001220703</ele>
        <time>2013-08-16T06:56:28.000Z</time>
      </trkpt>
      <trkpt lat="45.67884" lon="4.47546">
        <ele>764.59997558594</ele>
        <time>2013-08-16T06:56:37.000Z</time>
      </trkpt>
      <trkpt lat="45.67928" lon="4.47607">
        <ele>764.59997558594</ele>
        <time>2013-08-16T06:56:48.000Z</time>
      </trkpt>
      <trkpt lat="45.67974" lon="4.47679">
        <ele>766.20001220703</ele>
        <time>2013-08-16T06:57:01.000Z</time>
      </trkpt>
      <trkpt lat="45.67977" lon="4.47685">
        <ele>766.59997558594</ele>
        <time>2013-08-16T06:57:02.000Z</time>
      </trkpt>
      <trkpt lat="45.67981" lon="4.47721">
        <ele>767.20001220703</ele>
        <time>2013-08-16T06:57:07.000Z</time>
      </trkpt>
      <trkpt lat="45.67974" lon="4.47746">
        <ele>766.59997558594</ele>
        <time>2013-08-16T06:57:11.000Z</time>
      </trkpt>
      <trkpt lat="45.67958" lon="4.47781">
        <ele>769</ele>
        <time>2013-08-16T06:57:19.000Z</time>
      </trkpt>
      <trkpt lat="45.67943" lon="4.47812">
        <ele>771.20001220703</ele>
        <time>2013-08-16T06:57:27.000Z</time>
      </trkpt>
      <trkpt lat="45.67929" lon="4.47843">
        <ele>772.59997558594</ele>
        <time>2013-08-16T06:57:35.000Z</time>
      </trkpt>
      <trkpt lat="45.67923" lon="4.47866">
        <ele>773.20001220703</ele>
        <time>2013-08-16T06:57:41.000Z</time>
      </trkpt>
      <trkpt lat="45.67922" lon="4.47886">
        <ele>774.20001220703</ele>
        <time>2013-08-16T06:57:46.000Z</time>
      </trkpt>
      <trkpt lat="45.67922" lon="4.47911">
        <ele>775.40002441406</ele>
        <time>2013-08-16T06:57:52.000Z</time>
      </trkpt>
      <trkpt lat="45.67924" lon="4.47944">
        <ele>776.59997558594</ele>
        <time>2013-08-16T06:58:00.000Z</time>
      </trkpt>
      <trkpt lat="45.67927" lon="4.47972">
        <ele>777.79998779297</ele>
        <time>2013-08-16T06:58:07.000Z</time>
      </trkpt>
      <trkpt lat="45.67931" lon="4.48008">
        <ele>779.59997558594</ele>
        <time>2013-08-16T06:58:16.000Z</time>
      </trkpt>
      <trkpt lat="45.67937" lon="4.48048">
        <ele>782.79998779297</ele>
        <time>2013-08-16T06:58:26.000Z</time>
      </trkpt>
      <trkpt lat="45.67942" lon="4.48093">
        <ele>785.20001220703</ele>
        <time>2013-08-16T06:58:37.000Z</time>
      </trkpt>
      <trkpt lat="45.67945" lon="4.48136">
        <ele>784.59997558594</ele>
        <time>2013-08-16T06:58:47.000Z</time>
      </trkpt>
      <trkpt lat="45.67952" lon="4.48185">
        <ele>784.40002441406</ele>
        <time>2013-08-16T06:58:58.000Z</time>
      </trkpt>
      <trkpt lat="45.67963" lon="4.48222">
        <ele>785</ele>
        <time>2013-08-16T06:59:07.000Z</time>
      </trkpt>
      <trkpt lat="45.67977" lon="4.48257">
        <ele>786</ele>
        <time>2013-08-16T06:59:16.000Z</time>
      </trkpt>
      <trkpt lat="45.67996" lon="4.48297">
        <ele>787.20001220703</ele>
        <time>2013-08-16T06:59:27.000Z</time>
      </trkpt>
      <trkpt lat="45.68015" lon="4.48331">
        <ele>787.79998779297</ele>
        <time>2013-08-16T06:59:36.000Z</time>
      </trkpt>
      <trkpt lat="45.68024" lon="4.48365">
        <ele>789.59997558594</ele>
        <time>2013-08-16T06:59:44.000Z</time>
      </trkpt>
      <trkpt lat="45.68027" lon="4.48406">
        <ele>790.59997558594</ele>
        <time>2013-08-16T06:59:53.000Z</time>
      </trkpt>
      <trkpt lat="45.68031" lon="4.48457">
        <ele>791.59997558594</ele>
        <time>2013-08-16T07:00:04.000Z</time>
      </trkpt>
      <trkpt lat="45.68039" lon="4.48495">
        <ele>793.59997558594</ele>
        <time>2013-08-16T07:00:13.000Z</time>
      </trkpt>
      <trkpt lat="45.68051" lon="4.48538">
        <ele>795.40002441406</ele>
        <time>2013-08-16T07:00:23.000Z</time>
      </trkpt>
      <trkpt lat="45.68068" lon="4.4859">
        <ele>796.79998779297</ele>
        <time>2013-08-16T07:00:35.000Z</time>
      </trkpt>
      <trkpt lat="45.68084" lon="4.48632">
        <ele>797.59997558594</ele>
        <time>2013-08-16T07:00:45.000Z</time>
      </trkpt>
      <trkpt lat="45.68104" lon="4.48672">
        <ele>798.79998779297</ele>
        <time>2013-08-16T07:00:55.000Z</time>
      </trkpt>
      <trkpt lat="45.68126" lon="4.48711">
        <ele>799.79998779297</ele>
        <time>2013-08-16T07:01:05.000Z</time>
      </trkpt>
      <trkpt lat="45.6814" lon="4.48744">
        <ele>799</ele>
        <time>2013-08-16T07:01:12.000Z</time>
      </trkpt>
      <trkpt lat="45.68155" lon="4.48787">
        <ele>798.79998779297</ele>
        <time>2013-08-16T07:01:21.000Z</time>
      </trkpt>
      <trkpt lat="45.68167" lon="4.48838">
        <ele>798</ele>
        <time>2013-08-16T07:01:31.000Z</time>
      </trkpt>
      <trkpt lat="45.68176" lon="4.48896">
        <ele>798.20001220703</ele>
        <time>2013-08-16T07:01:41.000Z</time>
      </trkpt>
      <trkpt lat="45.68178" lon="4.48942">
        <ele>798.20001220703</ele>
        <time>2013-08-16T07:01:49.000Z</time>
      </trkpt>
      <trkpt lat="45.68178" lon="4.49004">
        <ele>799</ele>
        <time>2013-08-16T07:02:00.000Z</time>
      </trkpt>
      <trkpt lat="45.68177" lon="4.49071">
        <ele>799.79998779297</ele>
        <time>2013-08-16T07:02:12.000Z</time>
      </trkpt>
      <trkpt lat="45.68177" lon="4.49152">
        <ele>801</ele>
        <time>2013-08-16T07:02:26.000Z</time>
      </trkpt>
      <trkpt lat="45.68176" lon="4.4922">
        <ele>801.40002441406</ele>
        <time>2013-08-16T07:02:38.000Z</time>
      </trkpt>
      <trkpt lat="45.68176" lon="4.49278">
        <ele>802</ele>
        <time>2013-08-16T07:02:48.000Z</time>
      </trkpt>
      <trkpt lat="45.68175" lon="4.49342">
        <ele>803.59997558594</ele>
        <time>2013-08-16T07:02:59.000Z</time>
      </trkpt>
      <trkpt lat="45.68174" lon="4.49368">
        <ele>804.20001220703</ele>
        <time>2013-08-16T07:03:04.000Z</time>
      </trkpt>
      <trkpt lat="45.68179" lon="4.4939">
        <ele>804</ele>
        <time>2013-08-16T07:03:10.000Z</time>
      </trkpt>
      <trkpt lat="45.68183" lon="4.4942">
        <ele>804</ele>
        <time>2013-08-16T07:03:16.000Z</time>
      </trkpt>
      <trkpt lat="45.68187" lon="4.4945">
        <ele>805.40002441406</ele>
        <time>2013-08-16T07:03:22.000Z</time>
      </trkpt>
      <trkpt lat="45.6819" lon="4.4948">
        <ele>806.59997558594</ele>
        <time>2013-08-16T07:03:28.000Z</time>
      </trkpt>
      <trkpt lat="45.68194" lon="4.49518">
        <ele>808.59997558594</ele>
        <time>2013-08-16T07:03:35.000Z</time>
      </trkpt>
      <trkpt lat="45.68198" lon="4.49541">
        <ele>809.20001220703</ele>
        <time>2013-08-16T07:03:40.000Z</time>
      </trkpt>
      <trkpt lat="45.68204" lon="4.4958">
        <ele>809.79998779297</ele>
        <time>2013-08-16T07:03:48.000Z</time>
      </trkpt>
      <trkpt lat="45.68206" lon="4.49604">
        <ele>811.20001220703</ele>
        <time>2013-08-16T07:03:53.000Z</time>
      </trkpt>
      <trkpt lat="45.68211" lon="4.49643">
        <ele>812.79998779297</ele>
        <time>2013-08-16T07:04:00.000Z</time>
      </trkpt>
      <trkpt lat="45.68218" lon="4.49685">
        <ele>814.59997558594</ele>
        <time>2013-08-16T07:04:07.000Z</time>
      </trkpt>
      <trkpt lat="45.68224" lon="4.49721">
        <ele>816.59997558594</ele>
        <time>2013-08-16T07:04:13.000Z</time>
      </trkpt>
      <trkpt lat="45.6824" lon="4.49763">
        <ele>815.59997558594</ele>
        <time>2013-08-16T07:04:20.000Z</time>
      </trkpt>
      <trkpt lat="45.68256" lon="4.49807">
        <ele>815.79998779297</ele>
        <time>2013-08-16T07:04:27.000Z</time>
      </trkpt>
      <trkpt lat="45.68261" lon="4.4982">
        <ele>815.79998779297</ele>
        <time>2013-08-16T07:04:29.000Z</time>
      </trkpt>
      <trkpt lat="45.6828" lon="4.49856">
        <ele>815.40002441406</ele>
        <time>2013-08-16T07:04:35.000Z</time>
      </trkpt>
      <trkpt lat="45.68309" lon="4.49908">
        <ele>814.59997558594</ele>
        <time>2013-08-16T07:04:44.000Z</time>
      </trkpt>
      <trkpt lat="45.68335" lon="4.49964">
        <ele>814.40002441406</ele>
        <time>2013-08-16T07:04:53.000Z</time>
      </trkpt>
      <trkpt lat="45.6836" lon="4.50022">
        <ele>814.20001220703</ele>
        <time>2013-08-16T07:05:02.000Z</time>
      </trkpt>
      <trkpt lat="45.68365" lon="4.50035">
        <ele>814.40002441406</ele>
        <time>2013-08-16T07:05:04.000Z</time>
      </trkpt>
      <trkpt lat="45.68373" lon="4.50054">
        <ele>814.20001220703</ele>
        <time>2013-08-16T07:05:07.000Z</time>
      </trkpt>
      <trkpt lat="45.68392" lon="4.50109">
        <ele>813</ele>
        <time>2013-08-16T07:05:15.000Z</time>
      </trkpt>
      <trkpt lat="45.68401" lon="4.50148">
        <ele>811.79998779297</ele>
        <time>2013-08-16T07:05:20.000Z</time>
      </trkpt>
      <trkpt lat="45.68401" lon="4.50171">
        <ele>813</ele>
        <time>2013-08-16T07:05:23.000Z</time>
      </trkpt>
      <trkpt lat="45.68398" lon="4.50194">
        <ele>815.40002441406</ele>
        <time>2013-08-16T07:05:26.000Z</time>
      </trkpt>
      <trkpt lat="45.68394" lon="4.50224">
        <ele>818.59997558594</ele>
        <time>2013-08-16T07:05:30.000Z</time>
      </trkpt>
      <trkpt lat="45.68394" lon="4.50247">
        <ele>819.79998779297</ele>
        <time>2013-08-16T07:05:33.000Z</time>
      </trkpt>
      <trkpt lat="45.68394" lon="4.50261">
        <ele>819.59997558594</ele>
        <time>2013-08-16T07:05:35.000Z</time>
      </trkpt>
      <trkpt lat="45.68397" lon="4.50283">
        <ele>818.59997558594</ele>
        <time>2013-08-16T07:05:38.000Z</time>
      </trkpt>
      <trkpt lat="45.68398" lon="4.50314">
        <ele>818</ele>
        <time>2013-08-16T07:05:42.000Z</time>
      </trkpt>
      <trkpt lat="45.68406" lon="4.50377">
        <ele>813.59997558594</ele>
        <time>2013-08-16T07:05:50.000Z</time>
      </trkpt>
      <trkpt lat="45.68401" lon="4.50407">
        <ele>815.20001220703</ele>
        <time>2013-08-16T07:05:54.000Z</time>
      </trkpt>
      <trkpt lat="45.68393" lon="4.50437">
        <ele>815.79998779297</ele>
        <time>2013-08-16T07:05:58.000Z</time>
      </trkpt>
      <trkpt lat="45.68374" lon="4.50487">
        <ele>818.20001220703</ele>
        <time>2013-08-16T07:06:05.000Z</time>
      </trkpt>
      <trkpt lat="45.68372" lon="4.50494">
        <ele>818.40002441406</ele>
        <time>2013-08-16T07:06:06.000Z</time>
      </trkpt>
      <trkpt lat="45.68356" lon="4.50538">
        <ele>822.59997558594</ele>
        <time>2013-08-16T07:06:12.000Z</time>
      </trkpt>
      <trkpt lat="45.68357" lon="4.50576">
        <ele>819.40002441406</ele>
        <time>2013-08-16T07:06:17.000Z</time>
      </trkpt>
      <trkpt lat="45.68355" lon="4.50597">
        <ele>821</ele>
        <time>2013-08-16T07:06:20.000Z</time>
      </trkpt>
      <trkpt lat="45.68358" lon="4.50638">
        <ele>823.20001220703</ele>
        <time>2013-08-16T07:06:26.000Z</time>
      </trkpt>
      <trkpt lat="45.68369" lon="4.50665">
        <ele>821.20001220703</ele>
        <time>2013-08-16T07:06:30.000Z</time>
      </trkpt>
      <trkpt lat="45.684" lon="4.5071">
        <ele>816.79998779297</ele>
        <time>2013-08-16T07:06:38.000Z</time>
      </trkpt>
      <trkpt lat="45.68422" lon="4.50756">
        <ele>815.40002441406</ele>
        <time>2013-08-16T07:06:45.000Z</time>
      </trkpt>
      <trkpt lat="45.68437" lon="4.50807">
        <ele>814.79998779297</ele>
        <time>2013-08-16T07:06:52.000Z</time>
      </trkpt>
      <trkpt lat="45.6845" lon="4.50867">
        <ele>814.20001220703</ele>
        <time>2013-08-16T07:07:00.000Z</time>
      </trkpt>
      <trkpt lat="45.68454" lon="4.5089">
        <ele>814</ele>
        <time>2013-08-16T07:07:03.000Z</time>
      </trkpt>
      <trkpt lat="45.68456" lon="4.50936">
        <ele>815</ele>
        <time>2013-08-16T07:07:09.000Z</time>
      </trkpt>
      <trkpt lat="45.68455" lon="4.50959">
        <ele>816.20001220703</ele>
        <time>2013-08-16T07:07:12.000Z</time>
      </trkpt>
      <trkpt lat="45.68452" lon="4.50989">
        <ele>818.79998779297</ele>
        <time>2013-08-16T07:07:16.000Z</time>
      </trkpt>
      <trkpt lat="45.68453" lon="4.51019">
        <ele>820.40002441406</ele>
        <time>2013-08-16T07:07:20.000Z</time>
      </trkpt>
      <trkpt lat="45.68475" lon="4.51068">
        <ele>817.20001220703</ele>
        <time>2013-08-16T07:07:28.000Z</time>
      </trkpt>
      <trkpt lat="45.68496" lon="4.5111">
        <ele>814.59997558594</ele>
        <time>2013-08-16T07:07:35.000Z</time>
      </trkpt>
      <trkpt lat="45.68504" lon="4.51129">
        <ele>814</ele>
        <time>2013-08-16T07:07:38.000Z</time>
      </trkpt>
      <trkpt lat="45.68525" lon="4.51203">
        <ele>814.20001220703</ele>
        <time>2013-08-16T07:07:48.000Z</time>
      </trkpt>
      <trkpt lat="45.68529" lon="4.51259">
        <ele>816.59997558594</ele>
        <time>2013-08-16T07:07:55.000Z</time>
      </trkpt>
      <trkpt lat="45.6853" lon="4.51391">
        <ele>815.40002441406</ele>
        <time>2013-08-16T07:08:12.000Z</time>
      </trkpt>
      <trkpt lat="45.68531" lon="4.51406">
        <ele>814.79998779297</ele>
        <time>2013-08-16T07:08:14.000Z</time>
      </trkpt>
      <trkpt lat="45.68532" lon="4.5143">
        <ele>815</ele>
        <time>2013-08-16T07:08:17.000Z</time>
      </trkpt>
      <trkpt lat="45.68537" lon="4.51499">
        <ele>816</ele>
        <time>2013-08-16T07:08:26.000Z</time>
      </trkpt>
      <trkpt lat="45.6854" lon="4.5152">
        <ele>817</ele>
        <time>2013-08-16T07:08:29.000Z</time>
      </trkpt>
      <trkpt lat="45.68555" lon="4.5156">
        <ele>816.79998779297</ele>
        <time>2013-08-16T07:08:36.000Z</time>
      </trkpt>
      <trkpt lat="45.6857" lon="4.51584">
        <ele>816.20001220703</ele>
        <time>2013-08-16T07:08:42.000Z</time>
      </trkpt>
      <trkpt lat="45.68582" lon="4.51607">
        <ele>815.59997558594</ele>
        <time>2013-08-16T07:08:48.000Z</time>
      </trkpt>
      <trkpt lat="45.6859" lon="4.51629">
        <ele>815.20001220703</ele>
        <time>2013-08-16T07:08:53.000Z</time>
      </trkpt>
      <trkpt lat="45.68601" lon="4.51664">
        <ele>814.59997558594</ele>
        <time>2013-08-16T07:08:59.000Z</time>
      </trkpt>
      <trkpt lat="45.68613" lon="4.51731">
        <ele>816</ele>
        <time>2013-08-16T07:09:09.000Z</time>
      </trkpt>
      <trkpt lat="45.68622" lon="4.51785">
        <ele>815.59997558594</ele>
        <time>2013-08-16T07:09:17.000Z</time>
      </trkpt>
      <trkpt lat="45.68624" lon="4.51827">
        <ele>816</ele>
        <time>2013-08-16T07:09:24.000Z</time>
      </trkpt>
      <trkpt lat="45.68625" lon="4.51839">
        <ele>815.79998779297</ele>
        <time>2013-08-16T07:09:26.000Z</time>
      </trkpt>
      <trkpt lat="45.6862" lon="4.51882">
        <ele>816.20001220703</ele>
        <time>2013-08-16T07:09:33.000Z</time>
      </trkpt>
      <trkpt lat="45.68618" lon="4.519">
        <ele>816.40002441406</ele>
        <time>2013-08-16T07:09:36.000Z</time>
      </trkpt>
      <trkpt lat="45.68609" lon="4.5195">
        <ele>816</ele>
        <time>2013-08-16T07:09:44.000Z</time>
      </trkpt>
      <trkpt lat="45.68608" lon="4.51956">
        <ele>815.79998779297</ele>
        <time>2013-08-16T07:09:45.000Z</time>
      </trkpt>
      <trkpt lat="45.68599" lon="4.51993">
        <ele>816</ele>
        <time>2013-08-16T07:09:51.000Z</time>
      </trkpt>
      <trkpt lat="45.68582" lon="4.52033">
        <ele>820</ele>
        <time>2013-08-16T07:09:58.000Z</time>
      </trkpt>
      <trkpt lat="45.68569" lon="4.52069">
        <ele>820.20001220703</ele>
        <time>2013-08-16T07:10:04.000Z</time>
      </trkpt>
      <trkpt lat="45.68566" lon="4.52086">
        <ele>819.79998779297</ele>
        <time>2013-08-16T07:10:07.000Z</time>
      </trkpt>
      <trkpt lat="45.68569" lon="4.52122">
        <ele>816.59997558594</ele>
        <time>2013-08-16T07:10:13.000Z</time>
      </trkpt>
      <trkpt lat="45.68571" lon="4.52127">
        <ele>815.79998779297</ele>
        <time>2013-08-16T07:10:14.000Z</time>
      </trkpt>
      <trkpt lat="45.68581" lon="4.52146">
        <ele>812.59997558594</ele>
        <time>2013-08-16T07:10:18.000Z</time>
      </trkpt>
      <trkpt lat="45.68591" lon="4.52174">
        <ele>808.40002441406</ele>
        <time>2013-08-16T07:10:23.000Z</time>
      </trkpt>
      <trkpt lat="45.68594" lon="4.52187">
        <ele>807.20001220703</ele>
        <time>2013-08-16T07:10:25.000Z</time>
      </trkpt>
      <trkpt lat="45.68596" lon="4.52207">
        <ele>806.20001220703</ele>
        <time>2013-08-16T07:10:28.000Z</time>
      </trkpt>
      <trkpt lat="45.68595" lon="4.52254">
        <ele>805.59997558594</ele>
        <time>2013-08-16T07:10:35.000Z</time>
      </trkpt>
      <trkpt lat="45.68584" lon="4.52292">
        <ele>806.20001220703</ele>
        <time>2013-08-16T07:10:41.000Z</time>
      </trkpt>
      <trkpt lat="45.68557" lon="4.52339">
        <ele>807.79998779297</ele>
        <time>2013-08-16T07:10:50.000Z</time>
      </trkpt>
      <trkpt lat="45.68534" lon="4.52372">
        <ele>809.20001220703</ele>
        <time>2013-08-16T07:10:57.000Z</time>
      </trkpt>
      <trkpt lat="45.6852" lon="4.52411">
        <ele>808.79998779297</ele>
        <time>2013-08-16T07:11:04.000Z</time>
      </trkpt>
      <trkpt lat="45.68507" lon="4.5245">
        <ele>809.79998779297</ele>
        <time>2013-08-16T07:11:11.000Z</time>
      </trkpt>
      <trkpt lat="45.68483" lon="4.52501">
        <ele>808.59997558594</ele>
        <time>2013-08-16T07:11:19.000Z</time>
      </trkpt>
      <trkpt lat="45.68468" lon="4.52528">
        <ele>807.59997558594</ele>
        <time>2013-08-16T07:11:24.000Z</time>
      </trkpt>
      <trkpt lat="45.68457" lon="4.52552">
        <ele>806.20001220703</ele>
        <time>2013-08-16T07:11:30.000Z</time>
      </trkpt>
      <trkpt lat="45.68452" lon="4.52564">
        <ele>805.20001220703</ele>
        <time>2013-08-16T07:11:33.000Z</time>
      </trkpt>
      <trkpt lat="45.68446" lon="4.52586">
        <ele>803.59997558594</ele>
        <time>2013-08-16T07:11:37.000Z</time>
      </trkpt>
      <trkpt lat="45.68444" lon="4.52624">
        <ele>803</ele>
        <time>2013-08-16T07:11:43.000Z</time>
      </trkpt>
      <trkpt lat="45.68445" lon="4.52657">
        <ele>802.79998779297</ele>
        <time>2013-08-16T07:11:49.000Z</time>
      </trkpt>
      <trkpt lat="45.68443" lon="4.52696">
        <ele>801.79998779297</ele>
        <time>2013-08-16T07:11:57.000Z</time>
      </trkpt>
      <trkpt lat="45.68441" lon="4.52741">
        <ele>800.59997558594</ele>
        <time>2013-08-16T07:12:04.000Z</time>
      </trkpt>
      <trkpt lat="45.68439" lon="4.52776">
        <ele>799</ele>
        <time>2013-08-16T07:12:09.000Z</time>
      </trkpt>
      <trkpt lat="45.68439" lon="4.52824">
        <ele>797</ele>
        <time>2013-08-16T07:12:15.000Z</time>
      </trkpt>
      <trkpt lat="45.68438" lon="4.52851">
        <ele>795.79998779297</ele>
        <time>2013-08-16T07:12:18.000Z</time>
      </trkpt>
      <trkpt lat="45.6844" lon="4.52868">
        <ele>795.20001220703</ele>
        <time>2013-08-16T07:12:20.000Z</time>
      </trkpt>
      <trkpt lat="45.68451" lon="4.52899">
        <ele>794.59997558594</ele>
        <time>2013-08-16T07:12:24.000Z</time>
      </trkpt>
      <trkpt lat="45.68469" lon="4.52946">
        <ele>792.20001220703</ele>
        <time>2013-08-16T07:12:32.000Z</time>
      </trkpt>
      <trkpt lat="45.68488" lon="4.52984">
        <ele>790.40002441406</ele>
        <time>2013-08-16T07:12:40.000Z</time>
      </trkpt>
      <trkpt lat="45.68503" lon="4.53016">
        <ele>790</ele>
        <time>2013-08-16T07:12:47.000Z</time>
      </trkpt>
      <trkpt lat="45.68517" lon="4.53052">
        <ele>790.20001220703</ele>
        <time>2013-08-16T07:12:56.000Z</time>
      </trkpt>
      <trkpt lat="45.68529" lon="4.5307">
        <ele>790.20001220703</ele>
        <time>2013-08-16T07:13:02.000Z</time>
      </trkpt>
      <trkpt lat="45.68535" lon="4.53084">
        <ele>790.40002441406</ele>
        <time>2013-08-16T07:13:05.000Z</time>
      </trkpt>
      <trkpt lat="45.68547" lon="4.53111">
        <ele>791.40002441406</ele>
        <time>2013-08-16T07:13:10.000Z</time>
      </trkpt>
      <trkpt lat="45.68564" lon="4.53152">
        <ele>793</ele>
        <time>2013-08-16T07:13:19.000Z</time>
      </trkpt>
      <trkpt lat="45.68574" lon="4.53177">
        <ele>794</ele>
        <time>2013-08-16T07:13:24.000Z</time>
      </trkpt>
      <trkpt lat="45.68584" lon="4.53197">
        <ele>794.59997558594</ele>
        <time>2013-08-16T07:13:28.000Z</time>
      </trkpt>
      <trkpt lat="45.68591" lon="4.53212">
        <ele>795</ele>
        <time>2013-08-16T07:13:31.000Z</time>
      </trkpt>
      <trkpt lat="45.68617" lon="4.53254">
        <ele>795.59997558594</ele>
        <time>2013-08-16T07:13:41.000Z</time>
      </trkpt>
      <trkpt lat="45.68638" lon="4.53281">
        <ele>795.59997558594</ele>
        <time>2013-08-16T07:13:49.000Z</time>
      </trkpt>
      <trkpt lat="45.68658" lon="4.53304">
        <ele>795.59997558594</ele>
        <time>2013-08-16T07:13:55.000Z</time>
      </trkpt>
      <trkpt lat="45.6869" lon="4.53345">
        <ele>793</ele>
        <time>2013-08-16T07:14:03.000Z</time>
      </trkpt>
      <trkpt lat="45.68727" lon="4.53395">
        <ele>790.59997558594</ele>
        <time>2013-08-16T07:14:11.000Z</time>
      </trkpt>
      <trkpt lat="45.68774" lon="4.53451">
        <ele>790.20001220703</ele>
        <time>2013-08-16T07:14:20.000Z</time>
      </trkpt>
      <trkpt lat="45.68815" lon="4.53478">
        <ele>789</ele>
        <time>2013-08-16T07:14:27.000Z</time>
      </trkpt>
      <trkpt lat="45.68868" lon="4.53497">
        <ele>786.59997558594</ele>
        <time>2013-08-16T07:14:36.000Z</time>
      </trkpt>
      <trkpt lat="45.68911" lon="4.53521">
        <ele>783.79998779297</ele>
        <time>2013-08-16T07:14:43.000Z</time>
      </trkpt>
      <trkpt lat="45.6896" lon="4.53565">
        <ele>781.40002441406</ele>
        <time>2013-08-16T07:14:51.000Z</time>
      </trkpt>
      <trkpt lat="45.69018" lon="4.53627">
        <ele>780.59997558594</ele>
        <time>2013-08-16T07:15:01.000Z</time>
      </trkpt>
      <trkpt lat="45.69065" lon="4.53677">
        <ele>782.20001220703</ele>
        <time>2013-08-16T07:15:10.000Z</time>
      </trkpt>
      <trkpt lat="45.69108" lon="4.5372">
        <ele>781.59997558594</ele>
        <time>2013-08-16T07:15:19.000Z</time>
      </trkpt>
      <trkpt lat="45.69147" lon="4.53759">
        <ele>783.40002441406</ele>
        <time>2013-08-16T07:15:28.000Z</time>
      </trkpt>
      <trkpt lat="45.6919" lon="4.538">
        <ele>785.79998779297</ele>
        <time>2013-08-16T07:15:38.000Z</time>
      </trkpt>
      <trkpt lat="45.69226" lon="4.53821">
        <ele>788.20001220703</ele>
        <time>2013-08-16T07:15:46.000Z</time>
      </trkpt>
      <trkpt lat="45.69259" lon="4.5383">
        <ele>790</ele>
        <time>2013-08-16T07:15:54.000Z</time>
      </trkpt>
      <trkpt lat="45.69305" lon="4.5384">
        <ele>790.79998779297</ele>
        <time>2013-08-16T07:16:06.000Z</time>
      </trkpt>
      <trkpt lat="45.69342" lon="4.5385">
        <ele>791.20001220703</ele>
        <time>2013-08-16T07:16:16.000Z</time>
      </trkpt>
      <trkpt lat="45.69374" lon="4.5387">
        <ele>791</ele>
        <time>2013-08-16T07:16:25.000Z</time>
      </trkpt>
      <trkpt lat="45.694" lon="4.53903">
        <ele>792.59997558594</ele>
        <time>2013-08-16T07:16:34.000Z</time>
      </trkpt>
      <trkpt lat="45.69418" lon="4.53946">
        <ele>794.40002441406</ele>
        <time>2013-08-16T07:16:43.000Z</time>
      </trkpt>
      <trkpt lat="45.69423" lon="4.53986">
        <ele>797</ele>
        <time>2013-08-16T07:16:50.000Z</time>
      </trkpt>
      <trkpt lat="45.69423" lon="4.54042">
        <ele>800.40002441406</ele>
        <time>2013-08-16T07:17:00.000Z</time>
      </trkpt>
      <trkpt lat="45.69424" lon="4.54086">
        <ele>802.20001220703</ele>
        <time>2013-08-16T07:17:08.000Z</time>
      </trkpt>
      <trkpt lat="45.69429" lon="4.54127">
        <ele>804.40002441406</ele>
        <time>2013-08-16T07:17:16.000Z</time>
      </trkpt>
      <trkpt lat="45.69439" lon="4.54174">
        <ele>806</ele>
        <time>2013-08-16T07:17:25.000Z</time>
      </trkpt>
      <trkpt lat="45.69455" lon="4.54231">
        <ele>808.59997558594</ele>
        <time>2013-08-16T07:17:36.000Z</time>
      </trkpt>
      <trkpt lat="45.6947" lon="4.54272">
        <ele>809.59997558594</ele>
        <time>2013-08-16T07:17:44.000Z</time>
      </trkpt>
      <trkpt lat="45.69485" lon="4.54313">
        <ele>810.20001220703</ele>
        <time>2013-08-16T07:17:52.000Z</time>
      </trkpt>
      <trkpt lat="45.69498" lon="4.54355">
        <ele>811</ele>
        <time>2013-08-16T07:18:00.000Z</time>
      </trkpt>
      <trkpt lat="45.69509" lon="4.5441">
        <ele>813.40002441406</ele>
        <time>2013-08-16T07:18:10.000Z</time>
      </trkpt>
      <trkpt lat="45.6951" lon="4.54422">
        <ele>814</ele>
        <time>2013-08-16T07:18:12.000Z</time>
      </trkpt>
      <trkpt lat="45.69524" lon="4.54485">
        <ele>816.40002441406</ele>
        <time>2013-08-16T07:18:23.000Z</time>
      </trkpt>
      <trkpt lat="45.69539" lon="4.54517">
        <ele>816.79998779297</ele>
        <time>2013-08-16T07:18:30.000Z</time>
      </trkpt>
      <trkpt lat="45.69564" lon="4.54542">
        <ele>815.20001220703</ele>
        <time>2013-08-16T07:18:37.000Z</time>
      </trkpt>
      <trkpt lat="45.69594" lon="4.54562">
        <ele>814.20001220703</ele>
        <time>2013-08-16T07:18:45.000Z</time>
      </trkpt>
      <trkpt lat="45.69622" lon="4.5458">
        <ele>815.20001220703</ele>
        <time>2013-08-16T07:18:53.000Z</time>
      </trkpt>
      <trkpt lat="45.69663" lon="4.54611">
        <ele>816.59997558594</ele>
        <time>2013-08-16T07:19:04.000Z</time>
      </trkpt>
      <trkpt lat="45.69685" lon="4.54638">
        <ele>818</ele>
        <time>2013-08-16T07:19:11.000Z</time>
      </trkpt>
      <trkpt lat="45.6971" lon="4.54678">
        <ele>820</ele>
        <time>2013-08-16T07:19:20.000Z</time>
      </trkpt>
      <trkpt lat="45.6974" lon="4.54721">
        <ele>819.20001220703</ele>
        <time>2013-08-16T07:19:29.000Z</time>
      </trkpt>
      <trkpt lat="45.69777" lon="4.54753">
        <ele>818.79998779297</ele>
        <time>2013-08-16T07:19:37.000Z</time>
      </trkpt>
      <trkpt lat="45.6981" lon="4.54767">
        <ele>818.40002441406</ele>
        <time>2013-08-16T07:19:44.000Z</time>
      </trkpt>
      <trkpt lat="45.69836" lon="4.54773">
        <ele>818.79998779297</ele>
        <time>2013-08-16T07:19:50.000Z</time>
      </trkpt>
      <trkpt lat="45.69864" lon="4.54778">
        <ele>819.59997558594</ele>
        <time>2013-08-16T07:19:58.000Z</time>
      </trkpt>
      <trkpt lat="45.69875" lon="4.54778">
        <ele>820</ele>
        <time>2013-08-16T07:20:03.000Z</time>
      </trkpt>
      <trkpt lat="45.69886" lon="4.54781">
        <ele>820.59997558594</ele>
        <time>2013-08-16T07:20:08.000Z</time>
      </trkpt>
      <trkpt lat="45.69897" lon="4.54785">
        <ele>821</ele>
        <time>2013-08-16T07:20:13.000Z</time>
      </trkpt>
      <trkpt lat="45.69912" lon="4.54791">
        <ele>821.59997558594</ele>
        <time>2013-08-16T07:20:19.000Z</time>
      </trkpt>
      <trkpt lat="45.69928" lon="4.54798">
        <ele>821.79998779297</ele>
        <time>2013-08-16T07:20:27.000Z</time>
      </trkpt>
      <trkpt lat="45.69935" lon="4.54801">
        <ele>821.79998779297</ele>
        <time>2013-08-16T07:20:31.000Z</time>
      </trkpt>
      <trkpt lat="45.69935" lon="4.54794">
        <ele>821.59997558594</ele>
        <time>2013-08-16T07:20:35.000Z</time>
      </trkpt>
      <trkpt lat="45.69933" lon="4.54792">
        <ele>821.59997558594</ele>
        <time>2013-08-16T07:20:39.000Z</time>
      </trkpt>
      <trkpt lat="45.69932" lon="4.54798">
        <ele>821.79998779297</ele>
        <time>2013-08-16T07:20:43.000Z</time>
      </trkpt>
      <trkpt lat="45.69946" lon="4.54808">
        <ele>821.79998779297</ele>
        <time>2013-08-16T07:20:49.000Z</time>
      </trkpt>
      <trkpt lat="45.69969" lon="4.54826">
        <ele>822.59997558594</ele>
        <time>2013-08-16T07:20:57.000Z</time>
      </trkpt>
      <trkpt lat="45.69991" lon="4.54849">
        <ele>824</ele>
        <time>2013-08-16T07:21:04.000Z</time>
      </trkpt>
      <trkpt lat="45.70019" lon="4.54886">
        <ele>824.20001220703</ele>
        <time>2013-08-16T07:21:13.000Z</time>
      </trkpt>
      <trkpt lat="45.70038" lon="4.54917">
        <ele>824.40002441406</ele>
        <time>2013-08-16T07:21:19.000Z</time>
      </trkpt>
      <trkpt lat="45.70063" lon="4.54964">
        <ele>827</ele>
        <time>2013-08-16T07:21:26.000Z</time>
      </trkpt>
      <trkpt lat="45.70075" lon="4.54997">
        <ele>829</ele>
        <time>2013-08-16T07:21:32.000Z</time>
      </trkpt>
      <trkpt lat="45.70086" lon="4.55036">
        <ele>831.79998779297</ele>
        <time>2013-08-16T07:21:38.000Z</time>
      </trkpt>
      <trkpt lat="45.70101" lon="4.55083">
        <ele>834.79998779297</ele>
        <time>2013-08-16T07:21:44.000Z</time>
      </trkpt>
      <trkpt lat="45.70114" lon="4.55135">
        <ele>837.79998779297</ele>
        <time>2013-08-16T07:21:52.000Z</time>
      </trkpt>
      <trkpt lat="45.70119" lon="4.55183">
        <ele>840</ele>
        <time>2013-08-16T07:22:00.000Z</time>
      </trkpt>
      <trkpt lat="45.70114" lon="4.5523">
        <ele>841.20001220703</ele>
        <time>2013-08-16T07:22:08.000Z</time>
      </trkpt>
      <trkpt lat="45.7011" lon="4.55271">
        <ele>842.20001220703</ele>
        <time>2013-08-16T07:22:15.000Z</time>
      </trkpt>
      <trkpt lat="45.70111" lon="4.55322">
        <ele>841.59997558594</ele>
        <time>2013-08-16T07:22:23.000Z</time>
      </trkpt>
      <trkpt lat="45.70118" lon="4.55352">
        <ele>841.40002441406</ele>
        <time>2013-08-16T07:22:28.000Z</time>
      </trkpt>
      <trkpt lat="45.70122" lon="4.55363">
        <ele>841.20001220703</ele>
        <time>2013-08-16T07:22:30.000Z</time>
      </trkpt>
      <trkpt lat="45.7013" lon="4.55383">
        <ele>841.40002441406</ele>
        <time>2013-08-16T07:22:34.000Z</time>
      </trkpt>
      <trkpt lat="45.70161" lon="4.5543">
        <ele>841</ele>
        <time>2013-08-16T07:22:44.000Z</time>
      </trkpt>
      <trkpt lat="45.70181" lon="4.55467">
        <ele>842.40002441406</ele>
        <time>2013-08-16T07:22:51.000Z</time>
      </trkpt>
      <trkpt lat="45.70193" lon="4.55517">
        <ele>845.79998779297</ele>
        <time>2013-08-16T07:22:59.000Z</time>
      </trkpt>
      <trkpt lat="45.70198" lon="4.55574">
        <ele>851.40002441406</ele>
        <time>2013-08-16T07:23:08.000Z</time>
      </trkpt>
      <trkpt lat="45.702" lon="4.55606">
        <ele>853.79998779297</ele>
        <time>2013-08-16T07:23:13.000Z</time>
      </trkpt>
      <trkpt lat="45.70204" lon="4.55623">
        <ele>854.40002441406</ele>
        <time>2013-08-16T07:23:16.000Z</time>
      </trkpt>
      <trkpt lat="45.70211" lon="4.55639">
        <ele>854.40002441406</ele>
        <time>2013-08-16T07:23:19.000Z</time>
      </trkpt>
      <trkpt lat="45.70217" lon="4.55648">
        <ele>854</ele>
        <time>2013-08-16T07:23:21.000Z</time>
      </trkpt>
      <trkpt lat="45.7024" lon="4.55664">
        <ele>850.79998779297</ele>
        <time>2013-08-16T07:23:26.000Z</time>
      </trkpt>
      <trkpt lat="45.70283" lon="4.5568">
        <ele>849.20001220703</ele>
        <time>2013-08-16T07:23:34.000Z</time>
      </trkpt>
      <trkpt lat="45.70318" lon="4.55693">
        <ele>850.40002441406</ele>
        <time>2013-08-16T07:23:41.000Z</time>
      </trkpt>
      <trkpt lat="45.70348" lon="4.55696">
        <ele>852.59997558594</ele>
        <time>2013-08-16T07:23:47.000Z</time>
      </trkpt>
      <trkpt lat="45.70382" lon="4.5569">
        <ele>855.59997558594</ele>
        <time>2013-08-16T07:23:54.000Z</time>
      </trkpt>
      <trkpt lat="45.70406" lon="4.5568">
        <ele>857.20001220703</ele>
        <time>2013-08-16T07:24:00.000Z</time>
      </trkpt>
      <trkpt lat="45.70436" lon="4.55662">
        <ele>858.59997558594</ele>
        <time>2013-08-16T07:24:08.000Z</time>
      </trkpt>
      <trkpt lat="45.70472" lon="4.5564">
        <ele>861</ele>
        <time>2013-08-16T07:24:18.000Z</time>
      </trkpt>
      <trkpt lat="45.70495" lon="4.55617">
        <ele>862.79998779297</ele>
        <time>2013-08-16T07:24:25.000Z</time>
      </trkpt>
      <trkpt lat="45.70511" lon="4.55589">
        <ele>863.59997558594</ele>
        <time>2013-08-16T07:24:32.000Z</time>
      </trkpt>
      <trkpt lat="45.70518" lon="4.55575">
        <ele>863.59997558594</ele>
        <time>2013-08-16T07:24:35.000Z</time>
      </trkpt>
      <trkpt lat="45.70537" lon="4.55537">
        <ele>863</ele>
        <time>2013-08-16T07:24:43.000Z</time>
      </trkpt>
      <trkpt lat="45.70558" lon="4.55515">
        <ele>863.79998779297</ele>
        <time>2013-08-16T07:24:50.000Z</time>
      </trkpt>
      <trkpt lat="45.70593" lon="4.55492">
        <ele>866.20001220703</ele>
        <time>2013-08-16T07:25:00.000Z</time>
      </trkpt>
      <trkpt lat="45.70617" lon="4.55477">
        <ele>866.40002441406</ele>
        <time>2013-08-16T07:25:08.000Z</time>
      </trkpt>
      <trkpt lat="45.70627" lon="4.55471">
        <ele>866.40002441406</ele>
        <time>2013-08-16T07:25:13.000Z</time>
      </trkpt>
      <trkpt lat="45.70629" lon="4.55471">
        <ele>866.40002441406</ele>
        <time>2013-08-16T07:25:18.000Z</time>
      </trkpt>
      <trkpt lat="45.70627" lon="4.55471">
        <ele>866.40002441406</ele>
        <time>2013-08-16T07:25:52.000Z</time>
      </trkpt>
      <trkpt lat="45.70628" lon="4.5547">
        <ele>866.40002441406</ele>
        <time>2013-08-16T07:25:56.000Z</time>
      </trkpt>
      <trkpt lat="45.70628" lon="4.55471">
        <ele>866.40002441406</ele>
        <time>2013-08-16T07:26:47.000Z</time>
      </trkpt>
      <trkpt lat="45.70627" lon="4.55474">
        <ele>866.59997558594</ele>
        <time>2013-08-16T07:26:53.000Z</time>
      </trkpt>
      <trkpt lat="45.70625" lon="4.55471">
        <ele>866.40002441406</ele>
        <time>2013-08-16T07:27:09.000Z</time>
      </trkpt>
      <trkpt lat="45.70627" lon="4.55473">
        <ele>866.40002441406</ele>
        <time>2013-08-16T07:28:40.000Z</time>
      </trkpt>
      <trkpt lat="45.70628" lon="4.55473">
        <ele>866.40002441406</ele>
        <time>2013-08-16T07:28:48.000Z</time>
      </trkpt>
      <trkpt lat="45.70641" lon="4.55475">
        <ele>866.79998779297</ele>
        <time>2013-08-16T07:28:54.000Z</time>
      </trkpt>
      <trkpt lat="45.7067" lon="4.55475">
        <ele>867.40002441406</ele>
        <time>2013-08-16T07:29:01.000Z</time>
      </trkpt>
      <trkpt lat="45.70714" lon="4.55473">
        <ele>866.79998779297</ele>
        <time>2013-08-16T07:29:11.000Z</time>
      </trkpt>
      <trkpt lat="45.70764" lon="4.55469">
        <ele>865.40002441406</ele>
        <time>2013-08-16T07:29:22.000Z</time>
      </trkpt>
      <trkpt lat="45.70812" lon="4.55466">
        <ele>863.40002441406</ele>
        <time>2013-08-16T07:29:32.000Z</time>
      </trkpt>
      <trkpt lat="45.70866" lon="4.55462">
        <ele>862</ele>
        <time>2013-08-16T07:29:42.000Z</time>
      </trkpt>
      <trkpt lat="45.70911" lon="4.55459">
        <ele>861</ele>
        <time>2013-08-16T07:29:50.000Z</time>
      </trkpt>
      <trkpt lat="45.7095" lon="4.55458">
        <ele>861.40002441406</ele>
        <time>2013-08-16T07:29:57.000Z</time>
      </trkpt>
      <trkpt lat="45.71" lon="4.55454">
        <ele>861.79998779297</ele>
        <time>2013-08-16T07:30:06.000Z</time>
      </trkpt>
      <trkpt lat="45.71044" lon="4.55449">
        <ele>861.40002441406</ele>
        <time>2013-08-16T07:30:14.000Z</time>
      </trkpt>
      <trkpt lat="45.71084" lon="4.55446">
        <ele>861.20001220703</ele>
        <time>2013-08-16T07:30:22.000Z</time>
      </trkpt>
      <trkpt lat="45.71094" lon="4.55445">
        <ele>860.79998779297</ele>
        <time>2013-08-16T07:30:24.000Z</time>
      </trkpt>
      <trkpt lat="45.71128" lon="4.55454">
        <ele>859.20001220703</ele>
        <time>2013-08-16T07:30:31.000Z</time>
      </trkpt>
      <trkpt lat="45.71162" lon="4.55468">
        <ele>857.20001220703</ele>
        <time>2013-08-16T07:30:37.000Z</time>
      </trkpt>
      <trkpt lat="45.71181" lon="4.55476">
        <ele>857.40002441406</ele>
        <time>2013-08-16T07:30:40.000Z</time>
      </trkpt>
      <trkpt lat="45.71209" lon="4.55503">
        <ele>857.79998779297</ele>
        <time>2013-08-16T07:30:45.000Z</time>
      </trkpt>
      <trkpt lat="45.71241" lon="4.55566">
        <ele>854.20001220703</ele>
        <time>2013-08-16T07:30:53.000Z</time>
      </trkpt>
      <trkpt lat="45.71274" lon="4.55633">
        <ele>852.40002441406</ele>
        <time>2013-08-16T07:31:01.000Z</time>
      </trkpt>
      <trkpt lat="45.71313" lon="4.55713">
        <ele>848.79998779297</ele>
        <time>2013-08-16T07:31:10.000Z</time>
      </trkpt>
      <trkpt lat="45.71356" lon="4.55793">
        <ele>843.79998779297</ele>
        <time>2013-08-16T07:31:19.000Z</time>
      </trkpt>
      <trkpt lat="45.71387" lon="4.55836">
        <ele>841.59997558594</ele>
        <time>2013-08-16T07:31:24.000Z</time>
      </trkpt>
      <trkpt lat="45.71424" lon="4.5589">
        <ele>840.20001220703</ele>
        <time>2013-08-16T07:31:30.000Z</time>
      </trkpt>
      <trkpt lat="45.71443" lon="4.55943">
        <ele>839.40002441406</ele>
        <time>2013-08-16T07:31:35.000Z</time>
      </trkpt>
      <trkpt lat="45.71452" lon="4.56006">
        <ele>837.40002441406</ele>
        <time>2013-08-16T07:31:40.000Z</time>
      </trkpt>
      <trkpt lat="45.71457" lon="4.56083">
        <ele>835.20001220703</ele>
        <time>2013-08-16T07:31:46.000Z</time>
      </trkpt>
      <trkpt lat="45.71471" lon="4.56141">
        <ele>834.59997558594</ele>
        <time>2013-08-16T07:31:51.000Z</time>
      </trkpt>
      <trkpt lat="45.71484" lon="4.56214">
        <ele>833</ele>
        <time>2013-08-16T07:31:57.000Z</time>
      </trkpt>
      <trkpt lat="45.71483" lon="4.56277">
        <ele>830</ele>
        <time>2013-08-16T07:32:02.000Z</time>
      </trkpt>
      <trkpt lat="45.71474" lon="4.56337">
        <ele>827</ele>
        <time>2013-08-16T07:32:07.000Z</time>
      </trkpt>
      <trkpt lat="45.71462" lon="4.5642">
        <ele>825.20001220703</ele>
        <time>2013-08-16T07:32:14.000Z</time>
      </trkpt>
      <trkpt lat="45.71462" lon="4.56481">
        <ele>824.79998779297</ele>
        <time>2013-08-16T07:32:19.000Z</time>
      </trkpt>
      <trkpt lat="45.71468" lon="4.56548">
        <ele>823.20001220703</ele>
        <time>2013-08-16T07:32:25.000Z</time>
      </trkpt>
      <trkpt lat="45.7148" lon="4.56629">
        <ele>819.20001220703</ele>
        <time>2013-08-16T07:32:32.000Z</time>
      </trkpt>
      <trkpt lat="45.71488" lon="4.56711">
        <ele>813.20001220703</ele>
        <time>2013-08-16T07:32:39.000Z</time>
      </trkpt>
      <trkpt lat="45.71483" lon="4.56756">
        <ele>809.40002441406</ele>
        <time>2013-08-16T07:32:43.000Z</time>
      </trkpt>
      <trkpt lat="45.7147" lon="4.56802">
        <ele>806.20001220703</ele>
        <time>2013-08-16T07:32:48.000Z</time>
      </trkpt>
      <trkpt lat="45.71463" lon="4.56851">
        <ele>802.20001220703</ele>
        <time>2013-08-16T07:32:53.000Z</time>
      </trkpt>
      <trkpt lat="45.71462" lon="4.56905">
        <ele>797.40002441406</ele>
        <time>2013-08-16T07:32:58.000Z</time>
      </trkpt>
      <trkpt lat="45.71474" lon="4.56963">
        <ele>795.40002441406</ele>
        <time>2013-08-16T07:33:04.000Z</time>
      </trkpt>
      <trkpt lat="45.71496" lon="4.57016">
        <ele>793.79998779297</ele>
        <time>2013-08-16T07:33:10.000Z</time>
      </trkpt>
      <trkpt lat="45.71515" lon="4.57073">
        <ele>789.40002441406</ele>
        <time>2013-08-16T07:33:16.000Z</time>
      </trkpt>
      <trkpt lat="45.71526" lon="4.57137">
        <ele>785</ele>
        <time>2013-08-16T07:33:22.000Z</time>
      </trkpt>
      <trkpt lat="45.71537" lon="4.57184">
        <ele>781.40002441406</ele>
        <time>2013-08-16T07:33:27.000Z</time>
      </trkpt>
      <trkpt lat="45.71542" lon="4.57198">
        <ele>780</ele>
        <time>2013-08-16T07:33:29.000Z</time>
      </trkpt>
      <trkpt lat="45.71565" lon="4.57226">
        <ele>778.59997558594</ele>
        <time>2013-08-16T07:33:35.000Z</time>
      </trkpt>
      <trkpt lat="45.71587" lon="4.57227">
        <ele>779.59997558594</ele>
        <time>2013-08-16T07:33:39.000Z</time>
      </trkpt>
      <trkpt lat="45.71593" lon="4.57225">
        <ele>779.20001220703</ele>
        <time>2013-08-16T07:33:40.000Z</time>
      </trkpt>
      <trkpt lat="45.71638" lon="4.57202">
        <ele>778.59997558594</ele>
        <time>2013-08-16T07:33:48.000Z</time>
      </trkpt>
      <trkpt lat="45.71676" lon="4.57182">
        <ele>778.59997558594</ele>
        <time>2013-08-16T07:33:54.000Z</time>
      </trkpt>
      <trkpt lat="45.71708" lon="4.57167">
        <ele>776.40002441406</ele>
        <time>2013-08-16T07:33:59.000Z</time>
      </trkpt>
      <trkpt lat="45.71749" lon="4.5715">
        <ele>771.79998779297</ele>
        <time>2013-08-16T07:34:06.000Z</time>
      </trkpt>
      <trkpt lat="45.71777" lon="4.57131">
        <ele>771.20001220703</ele>
        <time>2013-08-16T07:34:11.000Z</time>
      </trkpt>
      <trkpt lat="45.71818" lon="4.57087">
        <ele>770.20001220703</ele>
        <time>2013-08-16T07:34:18.000Z</time>
      </trkpt>
      <trkpt lat="45.71848" lon="4.57078">
        <ele>769</ele>
        <time>2013-08-16T07:34:23.000Z</time>
      </trkpt>
      <trkpt lat="45.71869" lon="4.57091">
        <ele>769.40002441406</ele>
        <time>2013-08-16T07:34:27.000Z</time>
      </trkpt>
      <trkpt lat="45.71877" lon="4.57114">
        <ele>769.20001220703</ele>
        <time>2013-08-16T07:34:30.000Z</time>
      </trkpt>
      <trkpt lat="45.71874" lon="4.57137">
        <ele>768.20001220703</ele>
        <time>2013-08-16T07:34:33.000Z</time>
      </trkpt>
      <trkpt lat="45.71864" lon="4.57166">
        <ele>766</ele>
        <time>2013-08-16T07:34:37.000Z</time>
      </trkpt>
      <trkpt lat="45.71836" lon="4.57229">
        <ele>763.79998779297</ele>
        <time>2013-08-16T07:34:46.000Z</time>
      </trkpt>
      <trkpt lat="45.71818" lon="4.57263">
        <ele>763.20001220703</ele>
        <time>2013-08-16T07:34:51.000Z</time>
      </trkpt>
      <trkpt lat="45.71796" lon="4.57283">
        <ele>762.59997558594</ele>
        <time>2013-08-16T07:34:55.000Z</time>
      </trkpt>
      <trkpt lat="45.71753" lon="4.57304">
        <ele>759.40002441406</ele>
        <time>2013-08-16T07:35:02.000Z</time>
      </trkpt>
      <trkpt lat="45.71714" lon="4.57321">
        <ele>758.40002441406</ele>
        <time>2013-08-16T07:35:08.000Z</time>
      </trkpt>
      <trkpt lat="45.71678" lon="4.57349">
        <ele>758</ele>
        <time>2013-08-16T07:35:14.000Z</time>
      </trkpt>
      <trkpt lat="45.71629" lon="4.574">
        <ele>757.79998779297</ele>
        <time>2013-08-16T07:35:23.000Z</time>
      </trkpt>
      <trkpt lat="45.71592" lon="4.57435">
        <ele>753.20001220703</ele>
        <time>2013-08-16T07:35:30.000Z</time>
      </trkpt>
      <trkpt lat="45.71554" lon="4.57473">
        <ele>750.40002441406</ele>
        <time>2013-08-16T07:35:37.000Z</time>
      </trkpt>
      <trkpt lat="45.71516" lon="4.57524">
        <ele>745.40002441406</ele>
        <time>2013-08-16T07:35:45.000Z</time>
      </trkpt>
      <trkpt lat="45.71494" lon="4.57574">
        <ele>745</ele>
        <time>2013-08-16T07:35:51.000Z</time>
      </trkpt>
      <trkpt lat="45.71475" lon="4.57635">
        <ele>744.20001220703</ele>
        <time>2013-08-16T07:35:58.000Z</time>
      </trkpt>
      <trkpt lat="45.71472" lon="4.57653">
        <ele>744.40002441406</ele>
        <time>2013-08-16T07:36:00.000Z</time>
      </trkpt>
      <trkpt lat="45.71472" lon="4.57694">
        <ele>746.20001220703</ele>
        <time>2013-08-16T07:36:05.000Z</time>
      </trkpt>
      <trkpt lat="45.71476" lon="4.5771">
        <ele>747.40002441406</ele>
        <time>2013-08-16T07:36:07.000Z</time>
      </trkpt>
      <trkpt lat="45.71488" lon="4.57758">
        <ele>750.40002441406</ele>
        <time>2013-08-16T07:36:14.000Z</time>
      </trkpt>
      <trkpt lat="45.71488" lon="4.5779">
        <ele>752.79998779297</ele>
        <time>2013-08-16T07:36:19.000Z</time>
      </trkpt>
      <trkpt lat="45.7148" lon="4.57808">
        <ele>754.20001220703</ele>
        <time>2013-08-16T07:36:24.000Z</time>
      </trkpt>
      <trkpt lat="45.71482" lon="4.5782">
        <ele>755.20001220703</ele>
        <time>2013-08-16T07:36:28.000Z</time>
      </trkpt>
      <trkpt lat="45.7149" lon="4.57821">
        <ele>754.79998779297</ele>
        <time>2013-08-16T07:36:32.000Z</time>
      </trkpt>
      <trkpt lat="45.71493" lon="4.57819">
        <ele>754.59997558594</ele>
        <time>2013-08-16T07:36:33.000Z</time>
      </trkpt>
      <trkpt lat="45.71503" lon="4.57807">
        <ele>754.40002441406</ele>
        <time>2013-08-16T07:36:39.000Z</time>
      </trkpt>
      <trkpt lat="45.71506" lon="4.57797">
        <ele>755</ele>
        <time>2013-08-16T07:36:43.000Z</time>
      </trkpt>
      <trkpt lat="45.71502" lon="4.57797">
        <ele>753.79998779297</ele>
        <time>2013-08-16T07:36:47.000Z</time>
      </trkpt>
      <trkpt lat="45.71501" lon="4.578">
        <ele>753.59997558594</ele>
        <time>2013-08-16T07:36:48.000Z</time>
      </trkpt>
      <trkpt lat="45.71499" lon="4.57805">
        <ele>753.59997558594</ele>
        <time>2013-08-16T07:36:50.000Z</time>
      </trkpt>
      <trkpt lat="45.71502" lon="4.57809">
        <ele>754.40002441406</ele>
        <time>2013-08-16T07:36:54.000Z</time>
      </trkpt>
      <trkpt lat="45.71503" lon="4.57807">
        <ele>754.40002441406</ele>
        <time>2013-08-16T07:37:03.000Z</time>
      </trkpt>
      <trkpt lat="45.71503" lon="4.57807">
        <ele>754.40002441406</ele>
        <time>2013-08-16T07:37:18.000Z</time>
      </trkpt>
      <trkpt lat="45.71503" lon="4.57798">
        <ele>754.20001220703</ele>
        <time>2013-08-16T07:37:23.000Z</time>
      </trkpt>
      <trkpt lat="45.71504" lon="4.57795">
        <ele>754.20001220703</ele>
        <time>2013-08-16T07:37:24.000Z</time>
      </trkpt>
      <trkpt lat="45.71507" lon="4.57767">
        <ele>753.79998779297</ele>
        <time>2013-08-16T07:37:32.000Z</time>
      </trkpt>
      <trkpt lat="45.71502" lon="4.5774">
        <ele>751.59997558594</ele>
        <time>2013-08-16T07:37:38.000Z</time>
      </trkpt>
      <trkpt lat="45.71496" lon="4.57712">
        <ele>750.40002441406</ele>
        <time>2013-08-16T07:37:45.000Z</time>
      </trkpt>
      <trkpt lat="45.71493" lon="4.57696">
        <ele>749.79998779297</ele>
        <time>2013-08-16T07:37:48.000Z</time>
      </trkpt>
      <trkpt lat="45.71492" lon="4.57677">
        <ele>749.40002441406</ele>
        <time>2013-08-16T07:37:51.000Z</time>
      </trkpt>
      <trkpt lat="45.71502" lon="4.57634">
        <ele>750</ele>
        <time>2013-08-16T07:37:59.000Z</time>
      </trkpt>
      <trkpt lat="45.71519" lon="4.5759">
        <ele>753.40002441406</ele>
        <time>2013-08-16T07:38:09.000Z</time>
      </trkpt>
      <trkpt lat="45.71531" lon="4.57563">
        <ele>754.59997558594</ele>
        <time>2013-08-16T07:38:16.000Z</time>
      </trkpt>
      <trkpt lat="45.71546" lon="4.5754">
        <ele>756</ele>
        <time>2013-08-16T07:38:23.000Z</time>
      </trkpt>
      <trkpt lat="45.71567" lon="4.57513">
        <ele>757.79998779297</ele>
        <time>2013-08-16T07:38:32.000Z</time>
      </trkpt>
      <trkpt lat="45.7159" lon="4.57488">
        <ele>760</ele>
        <time>2013-08-16T07:38:41.000Z</time>
      </trkpt>
      <trkpt lat="45.71621" lon="4.5746">
        <ele>763.59997558594</ele>
        <time>2013-08-16T07:38:53.000Z</time>
      </trkpt>
      <trkpt lat="45.7165" lon="4.57439">
        <ele>766.59997558594</ele>
        <time>2013-08-16T07:39:04.000Z</time>
      </trkpt>
      <trkpt lat="45.71672" lon="4.57423">
        <ele>768</ele>
        <time>2013-08-16T07:39:11.000Z</time>
      </trkpt>
      <trkpt lat="45.71711" lon="4.57395">
        <ele>768.59997558594</ele>
        <time>2013-08-16T07:39:21.000Z</time>
      </trkpt>
      <trkpt lat="45.71737" lon="4.57382">
        <ele>769.40002441406</ele>
        <time>2013-08-16T07:39:27.000Z</time>
      </trkpt>
      <trkpt lat="45.71759" lon="4.57375">
        <ele>769.79998779297</ele>
        <time>2013-08-16T07:39:34.000Z</time>
      </trkpt>
      <trkpt lat="45.71781" lon="4.57372">
        <ele>771</ele>
        <time>2013-08-16T07:39:42.000Z</time>
      </trkpt>
      <trkpt lat="45.71797" lon="4.57374">
        <ele>772.40002441406</ele>
        <time>2013-08-16T07:39:49.000Z</time>
      </trkpt>
      <trkpt lat="45.71819" lon="4.57381">
        <ele>774.79998779297</ele>
        <time>2013-08-16T07:39:57.000Z</time>
      </trkpt>
      <trkpt lat="45.71837" lon="4.57388">
        <ele>776.59997558594</ele>
        <time>2013-08-16T07:40:04.000Z</time>
      </trkpt>
      <trkpt lat="45.71851" lon="4.57398">
        <ele>778.20001220703</ele>
        <time>2013-08-16T07:40:10.000Z</time>
      </trkpt>
      <trkpt lat="45.71865" lon="4.57414">
        <ele>779.79998779297</ele>
        <time>2013-08-16T07:40:17.000Z</time>
      </trkpt>
      <trkpt lat="45.71874" lon="4.57427">
        <ele>781</ele>
        <time>2013-08-16T07:40:22.000Z</time>
      </trkpt>
      <trkpt lat="45.71882" lon="4.57442">
        <ele>782.40002441406</ele>
        <time>2013-08-16T07:40:27.000Z</time>
      </trkpt>
      <trkpt lat="45.71896" lon="4.57461">
        <ele>783.40002441406</ele>
        <time>2013-08-16T07:40:34.000Z</time>
      </trkpt>
      <trkpt lat="45.71908" lon="4.57479">
        <ele>783.59997558594</ele>
        <time>2013-08-16T07:40:41.000Z</time>
      </trkpt>
      <trkpt lat="45.71925" lon="4.57501">
        <ele>785.79998779297</ele>
        <time>2013-08-16T07:40:49.000Z</time>
      </trkpt>
      <trkpt lat="45.71942" lon="4.57512">
        <ele>790.20001220703</ele>
        <time>2013-08-16T07:40:54.000Z</time>
      </trkpt>
      <trkpt lat="45.71959" lon="4.57496">
        <ele>791.59997558594</ele>
        <time>2013-08-16T07:40:59.000Z</time>
      </trkpt>
      <trkpt lat="45.71961" lon="4.57477">
        <ele>792</ele>
        <time>2013-08-16T07:41:02.000Z</time>
      </trkpt>
      <trkpt lat="45.71956" lon="4.57418">
        <ele>791.20001220703</ele>
        <time>2013-08-16T07:41:10.000Z</time>
      </trkpt>
      <trkpt lat="45.71955" lon="4.5741">
        <ele>790.79998779297</ele>
        <time>2013-08-16T07:41:11.000Z</time>
      </trkpt>
      <trkpt lat="45.71946" lon="4.57372">
        <ele>788.40002441406</ele>
        <time>2013-08-16T07:41:16.000Z</time>
      </trkpt>
      <trkpt lat="45.71947" lon="4.57332">
        <ele>789</ele>
        <time>2013-08-16T07:41:21.000Z</time>
      </trkpt>
      <trkpt lat="45.71949" lon="4.57325">
        <ele>789.20001220703</ele>
        <time>2013-08-16T07:41:22.000Z</time>
      </trkpt>
      <trkpt lat="45.71966" lon="4.57283">
        <ele>791.40002441406</ele>
        <time>2013-08-16T07:41:28.000Z</time>
      </trkpt>
      <trkpt lat="45.71981" lon="4.57253">
        <ele>792.79998779297</ele>
        <time>2013-08-16T07:41:33.000Z</time>
      </trkpt>
      <trkpt lat="45.72004" lon="4.57219">
        <ele>795.20001220703</ele>
        <time>2013-08-16T07:41:39.000Z</time>
      </trkpt>
      <trkpt lat="45.72027" lon="4.57177">
        <ele>797.59997558594</ele>
        <time>2013-08-16T07:41:47.000Z</time>
      </trkpt>
      <trkpt lat="45.72041" lon="4.57141">
        <ele>800</ele>
        <time>2013-08-16T07:41:54.000Z</time>
      </trkpt>
      <trkpt lat="45.72048" lon="4.57106">
        <ele>801</ele>
        <time>2013-08-16T07:42:01.000Z</time>
      </trkpt>
      <trkpt lat="45.72054" lon="4.57071">
        <ele>802</ele>
        <time>2013-08-16T07:42:08.000Z</time>
      </trkpt>
      <trkpt lat="45.72057" lon="4.57041">
        <ele>803.40002441406</ele>
        <time>2013-08-16T07:42:15.000Z</time>
      </trkpt>
      <trkpt lat="45.72059" lon="4.57019">
        <ele>804.20001220703</ele>
        <time>2013-08-16T07:42:20.000Z</time>
      </trkpt>
      <trkpt lat="45.72059" lon="4.56995">
        <ele>805</ele>
        <time>2013-08-16T07:42:26.000Z</time>
      </trkpt>
      <trkpt lat="45.7206" lon="4.56955">
        <ele>807</ele>
        <time>2013-08-16T07:42:35.000Z</time>
      </trkpt>
      <trkpt lat="45.72063" lon="4.56903">
        <ele>809.59997558594</ele>
        <time>2013-08-16T07:42:46.000Z</time>
      </trkpt>
      <trkpt lat="45.72071" lon="4.56863">
        <ele>811.20001220703</ele>
        <time>2013-08-16T07:42:55.000Z</time>
      </trkpt>
      <trkpt lat="45.7208" lon="4.56839">
        <ele>811.79998779297</ele>
        <time>2013-08-16T07:43:02.000Z</time>
      </trkpt>
      <trkpt lat="45.72085" lon="4.5682">
        <ele>812</ele>
        <time>2013-08-16T07:43:09.000Z</time>
      </trkpt>
      <trkpt lat="45.72089" lon="4.56805">
        <ele>812</ele>
        <time>2013-08-16T07:43:15.000Z</time>
      </trkpt>
      <trkpt lat="45.7209" lon="4.56802">
        <ele>811.79998779297</ele>
        <time>2013-08-16T07:43:20.000Z</time>
      </trkpt>
      <trkpt lat="45.7209" lon="4.56801">
        <ele>811.79998779297</ele>
        <time>2013-08-16T07:43:27.000Z</time>
      </trkpt>
      <trkpt lat="45.72086" lon="4.56807">
        <ele>812</ele>
        <time>2013-08-16T07:44:38.000Z</time>
      </trkpt>
      <trkpt lat="45.72086" lon="4.56808">
        <ele>812</ele>
        <time>2013-08-16T07:44:48.000Z</time>
      </trkpt>
      <trkpt lat="45.72083" lon="4.56806">
        <ele>812</ele>
        <time>2013-08-16T07:45:36.000Z</time>
      </trkpt>
      <trkpt lat="45.72083" lon="4.56804">
        <ele>812</ele>
        <time>2013-08-16T07:45:45.000Z</time>
      </trkpt>
      <trkpt lat="45.72082" lon="4.56799">
        <ele>812</ele>
        <time>2013-08-16T07:46:32.000Z</time>
      </trkpt>
      <trkpt lat="45.72078" lon="4.56781">
        <ele>812.40002441406</ele>
        <time>2013-08-16T07:46:38.000Z</time>
      </trkpt>
      <trkpt lat="45.72076" lon="4.56765">
        <ele>812.79998779297</ele>
        <time>2013-08-16T07:46:41.000Z</time>
      </trkpt>
      <trkpt lat="45.72074" lon="4.56724">
        <ele>813.40002441406</ele>
        <time>2013-08-16T07:46:47.000Z</time>
      </trkpt>
      <trkpt lat="45.72078" lon="4.56662">
        <ele>811.79998779297</ele>
        <time>2013-08-16T07:46:54.000Z</time>
      </trkpt>
      <trkpt lat="45.72082" lon="4.56602">
        <ele>810.40002441406</ele>
        <time>2013-08-16T07:47:00.000Z</time>
      </trkpt>
      <trkpt lat="45.72084" lon="4.56556">
        <ele>811.20001220703</ele>
        <time>2013-08-16T07:47:05.000Z</time>
      </trkpt>
      <trkpt lat="45.72085" lon="4.56529">
        <ele>812.40002441406</ele>
        <time>2013-08-16T07:47:08.000Z</time>
      </trkpt>
      <trkpt lat="45.7209" lon="4.56479">
        <ele>813.40002441406</ele>
        <time>2013-08-16T07:47:14.000Z</time>
      </trkpt>
      <trkpt lat="45.72095" lon="4.5643">
        <ele>814.40002441406</ele>
        <time>2013-08-16T07:47:20.000Z</time>
      </trkpt>
      <trkpt lat="45.72099" lon="4.56405">
        <ele>814.40002441406</ele>
        <time>2013-08-16T07:47:23.000Z</time>
      </trkpt>
      <trkpt lat="45.72102" lon="4.56384">
        <ele>814.79998779297</ele>
        <time>2013-08-16T07:47:26.000Z</time>
      </trkpt>
      <trkpt lat="45.72116" lon="4.5634">
        <ele>812.59997558594</ele>
        <time>2013-08-16T07:47:32.000Z</time>
      </trkpt>
      <trkpt lat="45.72128" lon="4.56307">
        <ele>811.59997558594</ele>
        <time>2013-08-16T07:47:37.000Z</time>
      </trkpt>
      <trkpt lat="45.72133" lon="4.56298">
        <ele>810.40002441406</ele>
        <time>2013-08-16T07:47:39.000Z</time>
      </trkpt>
      <trkpt lat="45.72152" lon="4.56268">
        <ele>805.79998779297</ele>
        <time>2013-08-16T07:47:44.000Z</time>
      </trkpt>
      <trkpt lat="45.72161" lon="4.56255">
        <ele>803</ele>
        <time>2013-08-16T07:47:46.000Z</time>
      </trkpt>
      <trkpt lat="45.72171" lon="4.56243">
        <ele>800.20001220703</ele>
        <time>2013-08-16T07:47:48.000Z</time>
      </trkpt>
      <trkpt lat="45.7218" lon="4.5623">
        <ele>798.59997558594</ele>
        <time>2013-08-16T07:47:50.000Z</time>
      </trkpt>
      <trkpt lat="45.722" lon="4.56183">
        <ele>797.20001220703</ele>
        <time>2013-08-16T07:47:56.000Z</time>
      </trkpt>
      <trkpt lat="45.72208" lon="4.56151">
        <ele>796.20001220703</ele>
        <time>2013-08-16T07:47:59.000Z</time>
      </trkpt>
      <trkpt lat="45.72208" lon="4.56088">
        <ele>796.20001220703</ele>
        <time>2013-08-16T07:48:04.000Z</time>
      </trkpt>
      <trkpt lat="45.72198" lon="4.56024">
        <ele>795.40002441406</ele>
        <time>2013-08-16T07:48:09.000Z</time>
      </trkpt>
      <trkpt lat="45.72183" lon="4.55955">
        <ele>795.59997558594</ele>
        <time>2013-08-16T07:48:14.000Z</time>
      </trkpt>
      <trkpt lat="45.7218" lon="4.55942">
        <ele>795.79998779297</ele>
        <time>2013-08-16T07:48:15.000Z</time>
      </trkpt>
      <trkpt lat="45.72169" lon="4.55884">
        <ele>796</ele>
        <time>2013-08-16T07:48:19.000Z</time>
      </trkpt>
      <trkpt lat="45.72166" lon="4.55843">
        <ele>794.79998779297</ele>
        <time>2013-08-16T07:48:22.000Z</time>
      </trkpt>
      <trkpt lat="45.72167" lon="4.55816">
        <ele>793.20001220703</ele>
        <time>2013-08-16T07:48:24.000Z</time>
      </trkpt>
      <trkpt lat="45.72178" lon="4.5573">
        <ele>787.79998779297</ele>
        <time>2013-08-16T07:48:30.000Z</time>
      </trkpt>
      <trkpt lat="45.72196" lon="4.55657">
        <ele>784.20001220703</ele>
        <time>2013-08-16T07:48:35.000Z</time>
      </trkpt>
      <trkpt lat="45.72204" lon="4.55616">
        <ele>786.40002441406</ele>
        <time>2013-08-16T07:48:38.000Z</time>
      </trkpt>
      <trkpt lat="45.72215" lon="4.5558">
        <ele>786.79998779297</ele>
        <time>2013-08-16T07:48:41.000Z</time>
      </trkpt>
      <trkpt lat="45.72241" lon="4.55549">
        <ele>783.20001220703</ele>
        <time>2013-08-16T07:48:45.000Z</time>
      </trkpt>
      <trkpt lat="45.72257" lon="4.55538">
        <ele>780.20001220703</ele>
        <time>2013-08-16T07:48:47.000Z</time>
      </trkpt>
      <trkpt lat="45.72314" lon="4.55495">
        <ele>773.20001220703</ele>
        <time>2013-08-16T07:48:52.000Z</time>
      </trkpt>
      <trkpt lat="45.72354" lon="4.55482">
        <ele>765.79998779297</ele>
        <time>2013-08-16T07:48:56.000Z</time>
      </trkpt>
      <trkpt lat="45.72383" lon="4.55473">
        <ele>761.20001220703</ele>
        <time>2013-08-16T07:48:59.000Z</time>
      </trkpt>
      <trkpt lat="45.72414" lon="4.55432">
        <ele>759.40002441406</ele>
        <time>2013-08-16T07:49:03.000Z</time>
      </trkpt>
      <trkpt lat="45.7243" lon="4.5538">
        <ele>755.40002441406</ele>
        <time>2013-08-16T07:49:07.000Z</time>
      </trkpt>
      <trkpt lat="45.72428" lon="4.55336">
        <ele>753.79998779297</ele>
        <time>2013-08-16T07:49:10.000Z</time>
      </trkpt>
      <trkpt lat="45.72412" lon="4.55301">
        <ele>753</ele>
        <time>2013-08-16T07:49:13.000Z</time>
      </trkpt>
      <trkpt lat="45.72361" lon="4.55203">
        <ele>747.20001220703</ele>
        <time>2013-08-16T07:49:21.000Z</time>
      </trkpt>
      <trkpt lat="45.72332" lon="4.55177">
        <ele>747.59997558594</ele>
        <time>2013-08-16T07:49:24.000Z</time>
      </trkpt>
      <trkpt lat="45.72288" lon="4.55156">
        <ele>745.40002441406</ele>
        <time>2013-08-16T07:49:28.000Z</time>
      </trkpt>
      <trkpt lat="45.72245" lon="4.55143">
        <ele>744.20001220703</ele>
        <time>2013-08-16T07:49:32.000Z</time>
      </trkpt>
      <trkpt lat="45.72235" lon="4.55138">
        <ele>743.79998779297</ele>
        <time>2013-08-16T07:49:33.000Z</time>
      </trkpt>
      <trkpt lat="45.72188" lon="4.55098">
        <ele>735.79998779297</ele>
        <time>2013-08-16T07:49:38.000Z</time>
      </trkpt>
      <trkpt lat="45.72128" lon="4.55032">
        <ele>738</ele>
        <time>2013-08-16T07:49:45.000Z</time>
      </trkpt>
      <trkpt lat="45.72092" lon="4.54973">
        <ele>737.40002441406</ele>
        <time>2013-08-16T07:49:50.000Z</time>
      </trkpt>
      <trkpt lat="45.7205" lon="4.549">
        <ele>729.20001220703</ele>
        <time>2013-08-16T07:49:56.000Z</time>
      </trkpt>
      <trkpt lat="45.72004" lon="4.5486">
        <ele>725.40002441406</ele>
        <time>2013-08-16T07:50:01.000Z</time>
      </trkpt>
      <trkpt lat="45.71962" lon="4.54846">
        <ele>720.40002441406</ele>
        <time>2013-08-16T07:50:05.000Z</time>
      </trkpt>
      <trkpt lat="45.71918" lon="4.54848">
        <ele>719.20001220703</ele>
        <time>2013-08-16T07:50:09.000Z</time>
      </trkpt>
      <trkpt lat="45.71864" lon="4.5487">
        <ele>721.59997558594</ele>
        <time>2013-08-16T07:50:14.000Z</time>
      </trkpt>
      <trkpt lat="45.71834" lon="4.54885">
        <ele>721.59997558594</ele>
        <time>2013-08-16T07:50:17.000Z</time>
      </trkpt>
      <trkpt lat="45.71803" lon="4.54883">
        <ele>729.79998779297</ele>
        <time>2013-08-16T07:50:21.000Z</time>
      </trkpt>
      <trkpt lat="45.71794" lon="4.54829">
        <ele>724.59997558594</ele>
        <time>2013-08-16T07:50:26.000Z</time>
      </trkpt>
      <trkpt lat="45.71792" lon="4.54778">
        <ele>721.79998779297</ele>
        <time>2013-08-16T07:50:30.000Z</time>
      </trkpt>
      <trkpt lat="45.71797" lon="4.54726">
        <ele>718.40002441406</ele>
        <time>2013-08-16T07:50:34.000Z</time>
      </trkpt>
      <trkpt lat="45.71812" lon="4.54635">
        <ele>714.59997558594</ele>
        <time>2013-08-16T07:50:41.000Z</time>
      </trkpt>
      <trkpt lat="45.71821" lon="4.5456">
        <ele>708.59997558594</ele>
        <time>2013-08-16T07:50:47.000Z</time>
      </trkpt>
      <trkpt lat="45.71813" lon="4.54509">
        <ele>705.40002441406</ele>
        <time>2013-08-16T07:50:51.000Z</time>
      </trkpt>
      <trkpt lat="45.71802" lon="4.54483">
        <ele>704.79998779297</ele>
        <time>2013-08-16T07:50:53.000Z</time>
      </trkpt>
      <trkpt lat="45.71767" lon="4.54409">
        <ele>703.40002441406</ele>
        <time>2013-08-16T07:50:59.000Z</time>
      </trkpt>
      <trkpt lat="45.71742" lon="4.54345">
        <ele>703.79998779297</ele>
        <time>2013-08-16T07:51:04.000Z</time>
      </trkpt>
      <trkpt lat="45.71736" lon="4.54316">
        <ele>702.40002441406</ele>
        <time>2013-08-16T07:51:06.000Z</time>
      </trkpt>
      <trkpt lat="45.71726" lon="4.5422">
        <ele>692.59997558594</ele>
        <time>2013-08-16T07:51:12.000Z</time>
      </trkpt>
      <trkpt lat="45.71709" lon="4.54167">
        <ele>688.20001220703</ele>
        <time>2013-08-16T07:51:16.000Z</time>
      </trkpt>
      <trkpt lat="45.71682" lon="4.54122">
        <ele>686.79998779297</ele>
        <time>2013-08-16T07:51:20.000Z</time>
      </trkpt>
      <trkpt lat="45.7163" lon="4.5407">
        <ele>686.40002441406</ele>
        <time>2013-08-16T07:51:26.000Z</time>
      </trkpt>
      <trkpt lat="45.71582" lon="4.54028">
        <ele>686</ele>
        <time>2013-08-16T07:51:31.000Z</time>
      </trkpt>
      <trkpt lat="45.7154" lon="4.5398">
        <ele>673.40002441406</ele>
        <time>2013-08-16T07:51:36.000Z</time>
      </trkpt>
      <trkpt lat="45.71505" lon="4.53964">
        <ele>669.79998779297</ele>
        <time>2013-08-16T07:51:40.000Z</time>
      </trkpt>
      <trkpt lat="45.71484" lon="4.53971">
        <ele>668.40002441406</ele>
        <time>2013-08-16T07:51:43.000Z</time>
      </trkpt>
      <trkpt lat="45.71458" lon="4.53992">
        <ele>667.40002441406</ele>
        <time>2013-08-16T07:51:47.000Z</time>
      </trkpt>
      <trkpt lat="45.71423" lon="4.54043">
        <ele>668.59997558594</ele>
        <time>2013-08-16T07:51:53.000Z</time>
      </trkpt>
      <trkpt lat="45.71405" lon="4.541">
        <ele>675.20001220703</ele>
        <time>2013-08-16T07:51:58.000Z</time>
      </trkpt>
      <trkpt lat="45.714" lon="4.54122">
        <ele>677.79998779297</ele>
        <time>2013-08-16T07:52:00.000Z</time>
      </trkpt>
      <trkpt lat="45.7138" lon="4.54157">
        <ele>682.40002441406</ele>
        <time>2013-08-16T07:52:04.000Z</time>
      </trkpt>
      <trkpt lat="45.71357" lon="4.54149">
        <ele>681</ele>
        <time>2013-08-16T07:52:07.000Z</time>
      </trkpt>
      <trkpt lat="45.71344" lon="4.54116">
        <ele>674.59997558594</ele>
        <time>2013-08-16T07:52:10.000Z</time>
      </trkpt>
      <trkpt lat="45.71339" lon="4.54105">
        <ele>672.40002441406</ele>
        <time>2013-08-16T07:52:11.000Z</time>
      </trkpt>
      <trkpt lat="45.71309" lon="4.54027">
        <ele>662.59997558594</ele>
        <time>2013-08-16T07:52:18.000Z</time>
      </trkpt>
      <trkpt lat="45.71306" lon="4.53967">
        <ele>651.79998779297</ele>
        <time>2013-08-16T07:52:23.000Z</time>
      </trkpt>
      <trkpt lat="45.71305" lon="4.53956">
        <ele>650</ele>
        <time>2013-08-16T07:52:24.000Z</time>
      </trkpt>
      <trkpt lat="45.71291" lon="4.53926">
        <ele>645.20001220703</ele>
        <time>2013-08-16T07:52:28.000Z</time>
      </trkpt>
      <trkpt lat="45.71271" lon="4.53933">
        <ele>647.20001220703</ele>
        <time>2013-08-16T07:52:31.000Z</time>
      </trkpt>
      <trkpt lat="45.71265" lon="4.53939">
        <ele>648.79998779297</ele>
        <time>2013-08-16T07:52:32.000Z</time>
      </trkpt>
      <trkpt lat="45.71245" lon="4.5396">
        <ele>654.79998779297</ele>
        <time>2013-08-16T07:52:35.000Z</time>
      </trkpt>
      <trkpt lat="45.71211" lon="4.53973">
        <ele>663.20001220703</ele>
        <time>2013-08-16T07:52:40.000Z</time>
      </trkpt>
      <trkpt lat="45.71198" lon="4.53953">
        <ele>664.40002441406</ele>
        <time>2013-08-16T07:52:43.000Z</time>
      </trkpt>
      <trkpt lat="45.71199" lon="4.53933">
        <ele>662.79998779297</ele>
        <time>2013-08-16T07:52:45.000Z</time>
      </trkpt>
      <trkpt lat="45.71211" lon="4.53861">
        <ele>660.59997558594</ele>
        <time>2013-08-16T07:52:52.000Z</time>
      </trkpt>
      <trkpt lat="45.71227" lon="4.53807">
        <ele>654.59997558594</ele>
        <time>2013-08-16T07:52:57.000Z</time>
      </trkpt>
      <trkpt lat="45.7123" lon="4.53798">
        <ele>653.40002441406</ele>
        <time>2013-08-16T07:52:58.000Z</time>
      </trkpt>
      <trkpt lat="45.71249" lon="4.53743">
        <ele>645.59997558594</ele>
        <time>2013-08-16T07:53:03.000Z</time>
      </trkpt>
      <trkpt lat="45.71252" lon="4.53682">
        <ele>640</ele>
        <time>2013-08-16T07:53:08.000Z</time>
      </trkpt>
      <trkpt lat="45.71252" lon="4.53654">
        <ele>636.59997558594</ele>
        <time>2013-08-16T07:53:11.000Z</time>
      </trkpt>
      <trkpt lat="45.71252" lon="4.53644">
        <ele>634.79998779297</ele>
        <time>2013-08-16T07:53:12.000Z</time>
      </trkpt>
      <trkpt lat="45.71246" lon="4.53603">
        <ele>628.59997558594</ele>
        <time>2013-08-16T07:53:17.000Z</time>
      </trkpt>
      <trkpt lat="45.7123" lon="4.53582">
        <ele>627.59997558594</ele>
        <time>2013-08-16T07:53:21.000Z</time>
      </trkpt>
      <trkpt lat="45.71191" lon="4.53556">
        <ele>628.40002441406</ele>
        <time>2013-08-16T07:53:28.000Z</time>
      </trkpt>
      <trkpt lat="45.71147" lon="4.53533">
        <ele>630.59997558594</ele>
        <time>2013-08-16T07:53:34.000Z</time>
      </trkpt>
      <trkpt lat="45.71131" lon="4.53523">
        <ele>631.40002441406</ele>
        <time>2013-08-16T07:53:36.000Z</time>
      </trkpt>
      <trkpt lat="45.71111" lon="4.53486">
        <ele>628.79998779297</ele>
        <time>2013-08-16T07:53:40.000Z</time>
      </trkpt>
      <trkpt lat="45.71113" lon="4.5346">
        <ele>624.59997558594</ele>
        <time>2013-08-16T07:53:42.000Z</time>
      </trkpt>
      <trkpt lat="45.71113" lon="4.53366">
        <ele>613</ele>
        <time>2013-08-16T07:53:49.000Z</time>
      </trkpt>
      <trkpt lat="45.71112" lon="4.53352">
        <ele>611.79998779297</ele>
        <time>2013-08-16T07:53:50.000Z</time>
      </trkpt>
      <trkpt lat="45.71094" lon="4.53287">
        <ele>610.40002441406</ele>
        <time>2013-08-16T07:53:55.000Z</time>
      </trkpt>
      <trkpt lat="45.71068" lon="4.53227">
        <ele>608.59997558594</ele>
        <time>2013-08-16T07:54:00.000Z</time>
      </trkpt>
      <trkpt lat="45.71052" lon="4.53169">
        <ele>603.40002441406</ele>
        <time>2013-08-16T07:54:05.000Z</time>
      </trkpt>
      <trkpt lat="45.7105" lon="4.53159">
        <ele>602.59997558594</ele>
        <time>2013-08-16T07:54:06.000Z</time>
      </trkpt>
      <trkpt lat="45.71032" lon="4.5313">
        <ele>600.79998779297</ele>
        <time>2013-08-16T07:54:10.000Z</time>
      </trkpt>
      <trkpt lat="45.7101" lon="4.53134">
        <ele>602.40002441406</ele>
        <time>2013-08-16T07:54:13.000Z</time>
      </trkpt>
      <trkpt lat="45.70983" lon="4.5316">
        <ele>601.79998779297</ele>
        <time>2013-08-16T07:54:17.000Z</time>
      </trkpt>
      <trkpt lat="45.70962" lon="4.532">
        <ele>601.20001220703</ele>
        <time>2013-08-16T07:54:21.000Z</time>
      </trkpt>
      <trkpt lat="45.70929" lon="4.53282">
        <ele>603</ele>
        <time>2013-08-16T07:54:28.000Z</time>
      </trkpt>
      <trkpt lat="45.70898" lon="4.53346">
        <ele>607.79998779297</ele>
        <time>2013-08-16T07:54:34.000Z</time>
      </trkpt>
      <trkpt lat="45.70885" lon="4.53371">
        <ele>611.40002441406</ele>
        <time>2013-08-16T07:54:37.000Z</time>
      </trkpt>
      <trkpt lat="45.7088" lon="4.53386">
        <ele>613.79998779297</ele>
        <time>2013-08-16T07:54:39.000Z</time>
      </trkpt>
      <trkpt lat="45.70866" lon="4.53404">
        <ele>616</ele>
        <time>2013-08-16T07:54:43.000Z</time>
      </trkpt>
      <trkpt lat="45.70862" lon="4.5339">
        <ele>613.20001220703</ele>
        <time>2013-08-16T07:54:46.000Z</time>
      </trkpt>
      <trkpt lat="45.70863" lon="4.53348">
        <ele>605.59997558594</ele>
        <time>2013-08-16T07:54:50.000Z</time>
      </trkpt>
      <trkpt lat="45.70855" lon="4.53314">
        <ele>601.59997558594</ele>
        <time>2013-08-16T07:54:53.000Z</time>
      </trkpt>
      <trkpt lat="45.7084" lon="4.53277">
        <ele>600.20001220703</ele>
        <time>2013-08-16T07:54:57.000Z</time>
      </trkpt>
      <trkpt lat="45.70848" lon="4.53238">
        <ele>599.20001220703</ele>
        <time>2013-08-16T07:55:00.000Z</time>
      </trkpt>
      <trkpt lat="45.70853" lon="4.53225">
        <ele>598.79998779297</ele>
        <time>2013-08-16T07:55:01.000Z</time>
      </trkpt>
      <trkpt lat="45.70861" lon="4.53166">
        <ele>596.40002441406</ele>
        <time>2013-08-16T07:55:06.000Z</time>
      </trkpt>
      <trkpt lat="45.70859" lon="4.53152">
        <ele>595.79998779297</ele>
        <time>2013-08-16T07:55:07.000Z</time>
      </trkpt>
      <trkpt lat="45.70856" lon="4.53125">
        <ele>594.59997558594</ele>
        <time>2013-08-16T07:55:09.000Z</time>
      </trkpt>
      <trkpt lat="45.70836" lon="4.53075">
        <ele>595.79998779297</ele>
        <time>2013-08-16T07:55:14.000Z</time>
      </trkpt>
      <trkpt lat="45.70837" lon="4.53052">
        <ele>594.79998779297</ele>
        <time>2013-08-16T07:55:16.000Z</time>
      </trkpt>
      <trkpt lat="45.70846" lon="4.53032">
        <ele>591.20001220703</ele>
        <time>2013-08-16T07:55:18.000Z</time>
      </trkpt>
      <trkpt lat="45.70873" lon="4.52976">
        <ele>577.40002441406</ele>
        <time>2013-08-16T07:55:24.000Z</time>
      </trkpt>
      <trkpt lat="45.70874" lon="4.52932">
        <ele>571.20001220703</ele>
        <time>2013-08-16T07:55:28.000Z</time>
      </trkpt>
      <trkpt lat="45.70861" lon="4.52901">
        <ele>570.79998779297</ele>
        <time>2013-08-16T07:55:31.000Z</time>
      </trkpt>
      <trkpt lat="45.70848" lon="4.52884">
        <ele>572.20001220703</ele>
        <time>2013-08-16T07:55:33.000Z</time>
      </trkpt>
      <trkpt lat="45.70823" lon="4.52833">
        <ele>572.40002441406</ele>
        <time>2013-08-16T07:55:38.000Z</time>
      </trkpt>
      <trkpt lat="45.70823" lon="4.5282">
        <ele>570.40002441406</ele>
        <time>2013-08-16T07:55:39.000Z</time>
      </trkpt>
      <trkpt lat="45.70813" lon="4.52758">
        <ele>564.79998779297</ele>
        <time>2013-08-16T07:55:44.000Z</time>
      </trkpt>
      <trkpt lat="45.70801" lon="4.52726">
        <ele>565.79998779297</ele>
        <time>2013-08-16T07:55:47.000Z</time>
      </trkpt>
      <trkpt lat="45.70792" lon="4.52672">
        <ele>563</ele>
        <time>2013-08-16T07:55:52.000Z</time>
      </trkpt>
      <trkpt lat="45.70792" lon="4.52628">
        <ele>559.40002441406</ele>
        <time>2013-08-16T07:55:57.000Z</time>
      </trkpt>
      <trkpt lat="45.70791" lon="4.52613">
        <ele>558.40002441406</ele>
        <time>2013-08-16T07:56:00.000Z</time>
      </trkpt>
      <trkpt lat="45.70789" lon="4.52587">
        <ele>556.59997558594</ele>
        <time>2013-08-16T07:56:04.000Z</time>
      </trkpt>
      <trkpt lat="45.70778" lon="4.52568">
        <ele>557.20001220703</ele>
        <time>2013-08-16T07:56:09.000Z</time>
      </trkpt>
      <trkpt lat="45.70769" lon="4.52555">
        <ele>557.40002441406</ele>
        <time>2013-08-16T07:56:14.000Z</time>
      </trkpt>
      <trkpt lat="45.70752" lon="4.52535">
        <ele>557.79998779297</ele>
        <time>2013-08-16T07:56:21.000Z</time>
      </trkpt>
      <trkpt lat="45.70741" lon="4.52521">
        <ele>556.79998779297</ele>
        <time>2013-08-16T07:56:26.000Z</time>
      </trkpt>
      <trkpt lat="45.70733" lon="4.52511">
        <ele>556.20001220703</ele>
        <time>2013-08-16T07:56:32.000Z</time>
      </trkpt>
      <trkpt lat="45.70732" lon="4.52512">
        <ele>556.40002441406</ele>
        <time>2013-08-16T07:56:38.000Z</time>
      </trkpt>
      <trkpt lat="45.70732" lon="4.52514">
        <ele>556.79998779297</ele>
        <time>2013-08-16T07:56:49.000Z</time>
      </trkpt>
      <trkpt lat="45.70732" lon="4.52518">
        <ele>557.40002441406</ele>
        <time>2013-08-16T07:57:17.000Z</time>
      </trkpt>
      <trkpt lat="45.70735" lon="4.52515">
        <ele>556.59997558594</ele>
        <time>2013-08-16T08:03:01.000Z</time>
      </trkpt>
      <trkpt lat="45.70735" lon="4.52517">
        <ele>556.79998779297</ele>
        <time>2013-08-16T08:03:23.000Z</time>
      </trkpt>
      <trkpt lat="45.70735" lon="4.52516">
        <ele>556.79998779297</ele>
        <time>2013-08-16T08:03:36.000Z</time>
      </trkpt>
      <trkpt lat="45.70731" lon="4.52512">
        <ele>556.59997558594</ele>
        <time>2013-08-16T08:03:40.000Z</time>
      </trkpt>
      <trkpt lat="45.70719" lon="4.52502">
        <ele>556.20001220703</ele>
        <time>2013-08-16T08:03:48.000Z</time>
      </trkpt>
      <trkpt lat="45.70709" lon="4.52494">
        <ele>555.40002441406</ele>
        <time>2013-08-16T08:03:54.000Z</time>
      </trkpt>
      <trkpt lat="45.70691" lon="4.52479">
        <ele>553</ele>
        <time>2013-08-16T08:04:02.000Z</time>
      </trkpt>
      <trkpt lat="45.70681" lon="4.5247">
        <ele>551.20001220703</ele>
        <time>2013-08-16T08:04:05.000Z</time>
      </trkpt>
      <trkpt lat="45.70656" lon="4.5246">
        <ele>548.59997558594</ele>
        <time>2013-08-16T08:04:12.000Z</time>
      </trkpt>
      <trkpt lat="45.70627" lon="4.52456">
        <ele>545</ele>
        <time>2013-08-16T08:04:18.000Z</time>
      </trkpt>
      <trkpt lat="45.70596" lon="4.52453">
        <ele>541.79998779297</ele>
        <time>2013-08-16T08:04:23.000Z</time>
      </trkpt>
      <trkpt lat="45.70582" lon="4.52454">
        <ele>541</ele>
        <time>2013-08-16T08:04:25.000Z</time>
      </trkpt>
      <trkpt lat="45.7055" lon="4.52474">
        <ele>543</ele>
        <time>2013-08-16T08:04:30.000Z</time>
      </trkpt>
      <trkpt lat="45.7054" lon="4.52492">
        <ele>544.79998779297</ele>
        <time>2013-08-16T08:04:32.000Z</time>
      </trkpt>
      <trkpt lat="45.70508" lon="4.52555">
        <ele>549.59997558594</ele>
        <time>2013-08-16T08:04:39.000Z</time>
      </trkpt>
      <trkpt lat="45.70481" lon="4.52576">
        <ele>551.59997558594</ele>
        <time>2013-08-16T08:04:43.000Z</time>
      </trkpt>
      <trkpt lat="45.70466" lon="4.52582">
        <ele>552</ele>
        <time>2013-08-16T08:04:45.000Z</time>
      </trkpt>
      <trkpt lat="45.70435" lon="4.52581">
        <ele>551.40002441406</ele>
        <time>2013-08-16T08:04:49.000Z</time>
      </trkpt>
      <trkpt lat="45.70425" lon="4.52568">
        <ele>551.79998779297</ele>
        <time>2013-08-16T08:04:51.000Z</time>
      </trkpt>
      <trkpt lat="45.70433" lon="4.52528">
        <ele>552.59997558594</ele>
        <time>2013-08-16T08:04:56.000Z</time>
      </trkpt>
      <trkpt lat="45.70454" lon="4.52504">
        <ele>548.40002441406</ele>
        <time>2013-08-16T08:05:00.000Z</time>
      </trkpt>
      <trkpt lat="45.70464" lon="4.52479">
        <ele>546</ele>
        <time>2013-08-16T08:05:03.000Z</time>
      </trkpt>
      <trkpt lat="45.70467" lon="4.52461">
        <ele>545</ele>
        <time>2013-08-16T08:05:05.000Z</time>
      </trkpt>
      <trkpt lat="45.70464" lon="4.52423">
        <ele>545.20001220703</ele>
        <time>2013-08-16T08:05:09.000Z</time>
      </trkpt>
      <trkpt lat="45.70461" lon="4.52414">
        <ele>546.20001220703</ele>
        <time>2013-08-16T08:05:10.000Z</time>
      </trkpt>
      <trkpt lat="45.70454" lon="4.52395">
        <ele>548.79998779297</ele>
        <time>2013-08-16T08:05:12.000Z</time>
      </trkpt>
      <trkpt lat="45.70457" lon="4.52357">
        <ele>549.20001220703</ele>
        <time>2013-08-16T08:05:16.000Z</time>
      </trkpt>
      <trkpt lat="45.70473" lon="4.52353">
        <ele>546</ele>
        <time>2013-08-16T08:05:19.000Z</time>
      </trkpt>
      <trkpt lat="45.70502" lon="4.52349">
        <ele>540</ele>
        <time>2013-08-16T08:05:24.000Z</time>
      </trkpt>
      <trkpt lat="45.70519" lon="4.52338">
        <ele>536.79998779297</ele>
        <time>2013-08-16T08:05:27.000Z</time>
      </trkpt>
      <trkpt lat="45.70552" lon="4.52297">
        <ele>533.20001220703</ele>
        <time>2013-08-16T08:05:34.000Z</time>
      </trkpt>
      <trkpt lat="45.70577" lon="4.52252">
        <ele>530.79998779297</ele>
        <time>2013-08-16T08:05:41.000Z</time>
      </trkpt>
      <trkpt lat="45.70595" lon="4.522">
        <ele>530.79998779297</ele>
        <time>2013-08-16T08:05:48.000Z</time>
      </trkpt>
      <trkpt lat="45.7061" lon="4.52136">
        <ele>534.59997558594</ele>
        <time>2013-08-16T08:05:56.000Z</time>
      </trkpt>
      <trkpt lat="45.70618" lon="4.52094">
        <ele>538.79998779297</ele>
        <time>2013-08-16T08:06:01.000Z</time>
      </trkpt>
      <trkpt lat="45.70635" lon="4.52062">
        <ele>539</ele>
        <time>2013-08-16T08:06:06.000Z</time>
      </trkpt>
      <trkpt lat="45.70658" lon="4.52037">
        <ele>535.20001220703</ele>
        <time>2013-08-16T08:06:12.000Z</time>
      </trkpt>
      <trkpt lat="45.7067" lon="4.52023">
        <ele>534</ele>
        <time>2013-08-16T08:06:15.000Z</time>
      </trkpt>
      <trkpt lat="45.70693" lon="4.51983">
        <ele>533.20001220703</ele>
        <time>2013-08-16T08:06:22.000Z</time>
      </trkpt>
      <trkpt lat="45.70722" lon="4.51931">
        <ele>530.79998779297</ele>
        <time>2013-08-16T08:06:30.000Z</time>
      </trkpt>
      <trkpt lat="45.70738" lon="4.51903">
        <ele>527.59997558594</ele>
        <time>2013-08-16T08:06:34.000Z</time>
      </trkpt>
      <trkpt lat="45.70747" lon="4.51857">
        <ele>525.59997558594</ele>
        <time>2013-08-16T08:06:39.000Z</time>
      </trkpt>
      <trkpt lat="45.70736" lon="4.51819">
        <ele>527.20001220703</ele>
        <time>2013-08-16T08:06:43.000Z</time>
      </trkpt>
      <trkpt lat="45.70727" lon="4.51803">
        <ele>527.79998779297</ele>
        <time>2013-08-16T08:06:45.000Z</time>
      </trkpt>
      <trkpt lat="45.70683" lon="4.5175">
        <ele>530.79998779297</ele>
        <time>2013-08-16T08:06:53.000Z</time>
      </trkpt>
      <trkpt lat="45.70657" lon="4.51719">
        <ele>534</ele>
        <time>2013-08-16T08:06:58.000Z</time>
      </trkpt>
      <trkpt lat="45.70618" lon="4.51669">
        <ele>539.40002441406</ele>
        <time>2013-08-16T08:07:06.000Z</time>
      </trkpt>
      <trkpt lat="45.70613" lon="4.51634">
        <ele>544</ele>
        <time>2013-08-16T08:07:10.000Z</time>
      </trkpt>
      <trkpt lat="45.70624" lon="4.51622">
        <ele>543.20001220703</ele>
        <time>2013-08-16T08:07:12.000Z</time>
      </trkpt>
      <trkpt lat="45.70642" lon="4.51618">
        <ele>540.40002441406</ele>
        <time>2013-08-16T08:07:15.000Z</time>
      </trkpt>
      <trkpt lat="45.70681" lon="4.51619">
        <ele>535.40002441406</ele>
        <time>2013-08-16T08:07:23.000Z</time>
      </trkpt>
      <trkpt lat="45.70711" lon="4.51625">
        <ele>533.79998779297</ele>
        <time>2013-08-16T08:07:30.000Z</time>
      </trkpt>
      <trkpt lat="45.70726" lon="4.5163">
        <ele>532.59997558594</ele>
        <time>2013-08-16T08:07:34.000Z</time>
      </trkpt>
      <trkpt lat="45.70754" lon="4.51635">
        <ele>530.59997558594</ele>
        <time>2013-08-16T08:07:41.000Z</time>
      </trkpt>
      <trkpt lat="45.70774" lon="4.51638">
        <ele>528.79998779297</ele>
        <time>2013-08-16T08:07:47.000Z</time>
      </trkpt>
      <trkpt lat="45.70793" lon="4.51634">
        <ele>528.40002441406</ele>
        <time>2013-08-16T08:07:53.000Z</time>
      </trkpt>
      <trkpt lat="45.70808" lon="4.51619">
        <ele>529.79998779297</ele>
        <time>2013-08-16T08:07:59.000Z</time>
      </trkpt>
      <trkpt lat="45.70815" lon="4.5159">
        <ele>533.40002441406</ele>
        <time>2013-08-16T08:08:07.000Z</time>
      </trkpt>
      <trkpt lat="45.7082" lon="4.51564">
        <ele>538.79998779297</ele>
        <time>2013-08-16T08:08:14.000Z</time>
      </trkpt>
      <trkpt lat="45.70833" lon="4.51554">
        <ele>539.40002441406</ele>
        <time>2013-08-16T08:08:19.000Z</time>
      </trkpt>
      <trkpt lat="45.70847" lon="4.51552">
        <ele>536.79998779297</ele>
        <time>2013-08-16T08:08:24.000Z</time>
      </trkpt>
      <trkpt lat="45.70867" lon="4.51545">
        <ele>534.20001220703</ele>
        <time>2013-08-16T08:08:31.000Z</time>
      </trkpt>
      <trkpt lat="45.7089" lon="4.51522">
        <ele>534.79998779297</ele>
        <time>2013-08-16T08:08:41.000Z</time>
      </trkpt>
      <trkpt lat="45.70903" lon="4.51494">
        <ele>538</ele>
        <time>2013-08-16T08:08:50.000Z</time>
      </trkpt>
      <trkpt lat="45.70906" lon="4.51479">
        <ele>540.40002441406</ele>
        <time>2013-08-16T08:08:55.000Z</time>
      </trkpt>
      <trkpt lat="45.70907" lon="4.51469">
        <ele>541.79998779297</ele>
        <time>2013-08-16T08:09:00.000Z</time>
      </trkpt>
      <trkpt lat="45.70908" lon="4.51463">
        <ele>542.59997558594</ele>
        <time>2013-08-16T08:09:03.000Z</time>
      </trkpt>
      <trkpt lat="45.7091" lon="4.51444">
        <ele>545.40002441406</ele>
        <time>2013-08-16T08:09:10.000Z</time>
      </trkpt>
      <trkpt lat="45.70912" lon="4.51441">
        <ele>545.59997558594</ele>
        <time>2013-08-16T08:09:16.000Z</time>
      </trkpt>
      <trkpt lat="45.70916" lon="4.51439">
        <ele>544.20001220703</ele>
        <time>2013-08-16T08:10:22.000Z</time>
      </trkpt>
      <trkpt lat="45.70915" lon="4.51427">
        <ele>546.79998779297</ele>
        <time>2013-08-16T08:10:30.000Z</time>
      </trkpt>
      <trkpt lat="45.70916" lon="4.514">
        <ele>551.40002441406</ele>
        <time>2013-08-16T08:10:39.000Z</time>
      </trkpt>
      <trkpt lat="45.70921" lon="4.51377">
        <ele>554.40002441406</ele>
        <time>2013-08-16T08:10:45.000Z</time>
      </trkpt>
      <trkpt lat="45.70934" lon="4.51347">
        <ele>557.20001220703</ele>
        <time>2013-08-16T08:10:52.000Z</time>
      </trkpt>
      <trkpt lat="45.70949" lon="4.51317">
        <ele>559.20001220703</ele>
        <time>2013-08-16T08:11:00.000Z</time>
      </trkpt>
      <trkpt lat="45.70964" lon="4.51306">
        <ele>557.59997558594</ele>
        <time>2013-08-16T08:11:05.000Z</time>
      </trkpt>
      <trkpt lat="45.70982" lon="4.51309">
        <ele>552.59997558594</ele>
        <time>2013-08-16T08:11:10.000Z</time>
      </trkpt>
      <trkpt lat="45.71006" lon="4.51327">
        <ele>544.20001220703</ele>
        <time>2013-08-16T08:11:18.000Z</time>
      </trkpt>
      <trkpt lat="45.71023" lon="4.51326">
        <ele>542.20001220703</ele>
        <time>2013-08-16T08:11:23.000Z</time>
      </trkpt>
      <trkpt lat="45.71037" lon="4.51313">
        <ele>542.40002441406</ele>
        <time>2013-08-16T08:11:28.000Z</time>
      </trkpt>
      <trkpt lat="45.71051" lon="4.51287">
        <ele>543.79998779297</ele>
        <time>2013-08-16T08:11:35.000Z</time>
      </trkpt>
      <trkpt lat="45.71067" lon="4.51237">
        <ele>547</ele>
        <time>2013-08-16T08:11:47.000Z</time>
      </trkpt>
      <trkpt lat="45.71075" lon="4.51199">
        <ele>550.59997558594</ele>
        <time>2013-08-16T08:11:56.000Z</time>
      </trkpt>
      <trkpt lat="45.71084" lon="4.51163">
        <ele>553.20001220703</ele>
        <time>2013-08-16T08:12:06.000Z</time>
      </trkpt>
      <trkpt lat="45.71097" lon="4.51128">
        <ele>554</ele>
        <time>2013-08-16T08:12:16.000Z</time>
      </trkpt>
      <trkpt lat="45.71112" lon="4.51086">
        <ele>556.20001220703</ele>
        <time>2013-08-16T08:12:27.000Z</time>
      </trkpt>
      <trkpt lat="45.71122" lon="4.51035">
        <ele>558.20001220703</ele>
        <time>2013-08-16T08:12:39.000Z</time>
      </trkpt>
      <trkpt lat="45.71127" lon="4.50984">
        <ele>559.20001220703</ele>
        <time>2013-08-16T08:12:51.000Z</time>
      </trkpt>
      <trkpt lat="45.71128" lon="4.50956">
        <ele>557.79998779297</ele>
        <time>2013-08-16T08:12:59.000Z</time>
      </trkpt>
      <trkpt lat="45.71124" lon="4.50932">
        <ele>557.20001220703</ele>
        <time>2013-08-16T08:13:04.000Z</time>
      </trkpt>
      <trkpt lat="45.71113" lon="4.50908">
        <ele>556.79998779297</ele>
        <time>2013-08-16T08:13:08.000Z</time>
      </trkpt>
      <trkpt lat="45.71089" lon="4.50876">
        <ele>554.79998779297</ele>
        <time>2013-08-16T08:13:13.000Z</time>
      </trkpt>
      <trkpt lat="45.71075" lon="4.50838">
        <ele>552.59997558594</ele>
        <time>2013-08-16T08:13:17.000Z</time>
      </trkpt>
      <trkpt lat="45.71074" lon="4.50804">
        <ele>554</ele>
        <time>2013-08-16T08:13:20.000Z</time>
      </trkpt>
      <trkpt lat="45.71077" lon="4.5078">
        <ele>554.59997558594</ele>
        <time>2013-08-16T08:13:22.000Z</time>
      </trkpt>
      <trkpt lat="45.71091" lon="4.5073">
        <ele>554.40002441406</ele>
        <time>2013-08-16T08:13:27.000Z</time>
      </trkpt>
      <trkpt lat="45.71095" lon="4.50722">
        <ele>554.40002441406</ele>
        <time>2013-08-16T08:13:28.000Z</time>
      </trkpt>
      <trkpt lat="45.71124" lon="4.5067">
        <ele>555</ele>
        <time>2013-08-16T08:13:36.000Z</time>
      </trkpt>
      <trkpt lat="45.71138" lon="4.50637">
        <ele>554</ele>
        <time>2013-08-16T08:13:42.000Z</time>
      </trkpt>
      <trkpt lat="45.71144" lon="4.506">
        <ele>554.40002441406</ele>
        <time>2013-08-16T08:13:49.000Z</time>
      </trkpt>
      <trkpt lat="45.7114" lon="4.50567">
        <ele>553.59997558594</ele>
        <time>2013-08-16T08:13:55.000Z</time>
      </trkpt>
      <trkpt lat="45.71134" lon="4.50549">
        <ele>552</ele>
        <time>2013-08-16T08:14:01.000Z</time>
      </trkpt>
      <trkpt lat="45.71133" lon="4.50545">
        <ele>551.59997558594</ele>
        <time>2013-08-16T08:14:06.000Z</time>
      </trkpt>
      <trkpt lat="45.71133" lon="4.50547">
        <ele>551.79998779297</ele>
        <time>2013-08-16T08:14:33.000Z</time>
      </trkpt>
      <trkpt lat="45.71128" lon="4.50539">
        <ele>551.40002441406</ele>
        <time>2013-08-16T08:14:37.000Z</time>
      </trkpt>
      <trkpt lat="45.71111" lon="4.50508">
        <ele>549.40002441406</ele>
        <time>2013-08-16T08:14:42.000Z</time>
      </trkpt>
      <trkpt lat="45.71087" lon="4.50467">
        <ele>546</ele>
        <time>2013-08-16T08:14:47.000Z</time>
      </trkpt>
      <trkpt lat="45.71058" lon="4.50424">
        <ele>545</ele>
        <time>2013-08-16T08:14:53.000Z</time>
      </trkpt>
      <trkpt lat="45.71029" lon="4.50379">
        <ele>545.79998779297</ele>
        <time>2013-08-16T08:15:00.000Z</time>
      </trkpt>
      <trkpt lat="45.71018" lon="4.5035">
        <ele>545.59997558594</ele>
        <time>2013-08-16T08:15:04.000Z</time>
      </trkpt>
      <trkpt lat="45.71016" lon="4.50306">
        <ele>542.79998779297</ele>
        <time>2013-08-16T08:15:10.000Z</time>
      </trkpt>
      <trkpt lat="45.71027" lon="4.50277">
        <ele>538.20001220703</ele>
        <time>2013-08-16T08:15:14.000Z</time>
      </trkpt>
      <trkpt lat="45.71037" lon="4.50257">
        <ele>534.40002441406</ele>
        <time>2013-08-16T08:15:17.000Z</time>
      </trkpt>
      <trkpt lat="45.71046" lon="4.50216">
        <ele>530.59997558594</ele>
        <time>2013-08-16T08:15:22.000Z</time>
      </trkpt>
      <trkpt lat="45.7104" lon="4.50177">
        <ele>530.20001220703</ele>
        <time>2013-08-16T08:15:27.000Z</time>
      </trkpt>
      <trkpt lat="45.71023" lon="4.50153">
        <ele>529.79998779297</ele>
        <time>2013-08-16T08:15:31.000Z</time>
      </trkpt>
      <trkpt lat="45.71018" lon="4.50148">
        <ele>529.79998779297</ele>
        <time>2013-08-16T08:15:32.000Z</time>
      </trkpt>
      <trkpt lat="45.70958" lon="4.50101">
        <ele>530.20001220703</ele>
        <time>2013-08-16T08:15:42.000Z</time>
      </trkpt>
      <trkpt lat="45.7093" lon="4.50068">
        <ele>529.20001220703</ele>
        <time>2013-08-16T08:15:48.000Z</time>
      </trkpt>
      <trkpt lat="45.70886" lon="4.50015">
        <ele>525.59997558594</ele>
        <time>2013-08-16T08:15:58.000Z</time>
      </trkpt>
      <trkpt lat="45.70841" lon="4.49963">
        <ele>524</ele>
        <time>2013-08-16T08:16:08.000Z</time>
      </trkpt>
      <trkpt lat="45.70815" lon="4.49928">
        <ele>526.40002441406</ele>
        <time>2013-08-16T08:16:14.000Z</time>
      </trkpt>
      <trkpt lat="45.70811" lon="4.49898">
        <ele>527.79998779297</ele>
        <time>2013-08-16T08:16:18.000Z</time>
      </trkpt>
      <trkpt lat="45.70822" lon="4.4988">
        <ele>526.59997558594</ele>
        <time>2013-08-16T08:16:21.000Z</time>
      </trkpt>
      <trkpt lat="45.70827" lon="4.49876">
        <ele>525.59997558594</ele>
        <time>2013-08-16T08:16:22.000Z</time>
      </trkpt>
      <trkpt lat="45.70871" lon="4.49847">
        <ele>520.59997558594</ele>
        <time>2013-08-16T08:16:30.000Z</time>
      </trkpt>
      <trkpt lat="45.70906" lon="4.49822">
        <ele>516.79998779297</ele>
        <time>2013-08-16T08:16:36.000Z</time>
      </trkpt>
      <trkpt lat="45.70919" lon="4.49815">
        <ele>515.59997558594</ele>
        <time>2013-08-16T08:16:38.000Z</time>
      </trkpt>
      <trkpt lat="45.70944" lon="4.49807">
        <ele>514</ele>
        <time>2013-08-16T08:16:42.000Z</time>
      </trkpt>
      <trkpt lat="45.70999" lon="4.49806">
        <ele>508.60000610352</ele>
        <time>2013-08-16T08:16:50.000Z</time>
      </trkpt>
      <trkpt lat="45.71012" lon="4.49805">
        <ele>506.79998779297</ele>
        <time>2013-08-16T08:16:52.000Z</time>
      </trkpt>
      <trkpt lat="45.7104" lon="4.49799">
        <ele>503</ele>
        <time>2013-08-16T08:16:57.000Z</time>
      </trkpt>
      <trkpt lat="45.71055" lon="4.49789">
        <ele>501.60000610352</ele>
        <time>2013-08-16T08:17:00.000Z</time>
      </trkpt>
      <trkpt lat="45.7109" lon="4.49749">
        <ele>499.39999389648</ele>
        <time>2013-08-16T08:17:07.000Z</time>
      </trkpt>
      <trkpt lat="45.71106" lon="4.49723">
        <ele>497</ele>
        <time>2013-08-16T08:17:11.000Z</time>
      </trkpt>
      <trkpt lat="45.71118" lon="4.49694">
        <ele>496</ele>
        <time>2013-08-16T08:17:15.000Z</time>
      </trkpt>
      <trkpt lat="45.71129" lon="4.4964">
        <ele>494.39999389648</ele>
        <time>2013-08-16T08:17:22.000Z</time>
      </trkpt>
      <trkpt lat="45.71127" lon="4.49602">
        <ele>494</ele>
        <time>2013-08-16T08:17:26.000Z</time>
      </trkpt>
      <trkpt lat="45.71109" lon="4.49544">
        <ele>494.20001220703</ele>
        <time>2013-08-16T08:17:33.000Z</time>
      </trkpt>
      <trkpt lat="45.711" lon="4.49522">
        <ele>494.20001220703</ele>
        <time>2013-08-16T08:17:36.000Z</time>
      </trkpt>
      <trkpt lat="45.71097" lon="4.49509">
        <ele>494</ele>
        <time>2013-08-16T08:17:38.000Z</time>
      </trkpt>
      <trkpt lat="45.71089" lon="4.49488">
        <ele>494</ele>
        <time>2013-08-16T08:17:41.000Z</time>
      </trkpt>
      <trkpt lat="45.71079" lon="4.49455">
        <ele>493.39999389648</ele>
        <time>2013-08-16T08:17:47.000Z</time>
      </trkpt>
      <trkpt lat="45.71076" lon="4.49436">
        <ele>492.60000610352</ele>
        <time>2013-08-16T08:17:52.000Z</time>
      </trkpt>
      <trkpt lat="45.71076" lon="4.49401">
        <ele>491.20001220703</ele>
        <time>2013-08-16T08:17:57.000Z</time>
      </trkpt>
      <trkpt lat="45.71085" lon="4.49346">
        <ele>489.39999389648</ele>
        <time>2013-08-16T08:18:04.000Z</time>
      </trkpt>
      <trkpt lat="45.71088" lon="4.4933">
        <ele>489</ele>
        <time>2013-08-16T08:18:06.000Z</time>
      </trkpt>
      <trkpt lat="45.71091" lon="4.49315">
        <ele>488.20001220703</ele>
        <time>2013-08-16T08:18:08.000Z</time>
      </trkpt>
      <trkpt lat="45.71089" lon="4.49259">
        <ele>485</ele>
        <time>2013-08-16T08:18:15.000Z</time>
      </trkpt>
      <trkpt lat="45.71078" lon="4.4923">
        <ele>483</ele>
        <time>2013-08-16T08:18:20.000Z</time>
      </trkpt>
      <trkpt lat="45.71059" lon="4.49225">
        <ele>481.39999389648</ele>
        <time>2013-08-16T08:18:24.000Z</time>
      </trkpt>
      <trkpt lat="45.71054" lon="4.49226">
        <ele>481.20001220703</ele>
        <time>2013-08-16T08:18:25.000Z</time>
      </trkpt>
      <trkpt lat="45.71044" lon="4.49228">
        <ele>480.60000610352</ele>
        <time>2013-08-16T08:18:27.000Z</time>
      </trkpt>
      <trkpt lat="45.7103" lon="4.4923">
        <ele>479.60000610352</ele>
        <time>2013-08-16T08:18:30.000Z</time>
      </trkpt>
      <trkpt lat="45.70988" lon="4.49238">
        <ele>478.20001220703</ele>
        <time>2013-08-16T08:18:39.000Z</time>
      </trkpt>
      <trkpt lat="45.70972" lon="4.49244">
        <ele>478.60000610352</ele>
        <time>2013-08-16T08:18:43.000Z</time>
      </trkpt>
      <trkpt lat="45.70945" lon="4.49252">
        <ele>479</ele>
        <time>2013-08-16T08:18:50.000Z</time>
      </trkpt>
      <trkpt lat="45.70929" lon="4.49228">
        <ele>478.60000610352</ele>
        <time>2013-08-16T08:18:55.000Z</time>
      </trkpt>
      <trkpt lat="45.70922" lon="4.49187">
        <ele>478.60000610352</ele>
        <time>2013-08-16T08:19:01.000Z</time>
      </trkpt>
      <trkpt lat="45.70925" lon="4.49172">
        <ele>478.39999389648</ele>
        <time>2013-08-16T08:19:03.000Z</time>
      </trkpt>
      <trkpt lat="45.70934" lon="4.49122">
        <ele>476.79998779297</ele>
        <time>2013-08-16T08:19:11.000Z</time>
      </trkpt>
      <trkpt lat="45.70941" lon="4.49077">
        <ele>474.79998779297</ele>
        <time>2013-08-16T08:19:18.000Z</time>
      </trkpt>
      <trkpt lat="45.70948" lon="4.49045">
        <ele>473.60000610352</ele>
        <time>2013-08-16T08:19:24.000Z</time>
      </trkpt>
      <trkpt lat="45.70949" lon="4.49039">
        <ele>473.39999389648</ele>
        <time>2013-08-16T08:19:25.000Z</time>
      </trkpt>
      <trkpt lat="45.70974" lon="4.48969">
        <ele>468.79998779297</ele>
        <time>2013-08-16T08:19:39.000Z</time>
      </trkpt>
      <trkpt lat="45.70982" lon="4.48932">
        <ele>467.39999389648</ele>
        <time>2013-08-16T08:19:46.000Z</time>
      </trkpt>
      <trkpt lat="45.70994" lon="4.48871">
        <ele>468.20001220703</ele>
        <time>2013-08-16T08:19:56.000Z</time>
      </trkpt>
      <trkpt lat="45.71009" lon="4.48821">
        <ele>468.20001220703</ele>
        <time>2013-08-16T08:20:04.000Z</time>
      </trkpt>
      <trkpt lat="45.71025" lon="4.48767">
        <ele>466.39999389648</ele>
        <time>2013-08-16T08:20:13.000Z</time>
      </trkpt>
      <trkpt lat="45.71046" lon="4.48713">
        <ele>464.20001220703</ele>
        <time>2013-08-16T08:20:21.000Z</time>
      </trkpt>
      <trkpt lat="45.7107" lon="4.48665">
        <ele>464.20001220703</ele>
        <time>2013-08-16T08:20:28.000Z</time>
      </trkpt>
      <trkpt lat="45.71089" lon="4.48626">
        <ele>463.60000610352</ele>
        <time>2013-08-16T08:20:34.000Z</time>
      </trkpt>
      <trkpt lat="45.71109" lon="4.48592">
        <ele>460.60000610352</ele>
        <time>2013-08-16T08:20:40.000Z</time>
      </trkpt>
      <trkpt lat="45.71121" lon="4.48568">
        <ele>458</ele>
        <time>2013-08-16T08:20:44.000Z</time>
      </trkpt>
      <trkpt lat="45.71125" lon="4.48538">
        <ele>456.20001220703</ele>
        <time>2013-08-16T08:20:48.000Z</time>
      </trkpt>
      <trkpt lat="45.71115" lon="4.48507">
        <ele>456.79998779297</ele>
        <time>2013-08-16T08:20:52.000Z</time>
      </trkpt>
      <trkpt lat="45.71085" lon="4.48487">
        <ele>458</ele>
        <time>2013-08-16T08:20:58.000Z</time>
      </trkpt>
      <trkpt lat="45.71059" lon="4.48484">
        <ele>455.79998779297</ele>
        <time>2013-08-16T08:21:02.000Z</time>
      </trkpt>
      <trkpt lat="45.71018" lon="4.48495">
        <ele>454.60000610352</ele>
        <time>2013-08-16T08:21:08.000Z</time>
      </trkpt>
      <trkpt lat="45.70973" lon="4.4851">
        <ele>452.79998779297</ele>
        <time>2013-08-16T08:21:15.000Z</time>
      </trkpt>
      <trkpt lat="45.70931" lon="4.48525">
        <ele>451.39999389648</ele>
        <time>2013-08-16T08:21:21.000Z</time>
      </trkpt>
      <trkpt lat="45.70906" lon="4.48534">
        <ele>451.20001220703</ele>
        <time>2013-08-16T08:21:25.000Z</time>
      </trkpt>
      <trkpt lat="45.70883" lon="4.48531">
        <ele>450.79998779297</ele>
        <time>2013-08-16T08:21:29.000Z</time>
      </trkpt>
      <trkpt lat="45.70878" lon="4.48525">
        <ele>450.20001220703</ele>
        <time>2013-08-16T08:21:30.000Z</time>
      </trkpt>
      <trkpt lat="45.70855" lon="4.48471">
        <ele>447.60000610352</ele>
        <time>2013-08-16T08:21:37.000Z</time>
      </trkpt>
      <trkpt lat="45.70845" lon="4.48421">
        <ele>446.60000610352</ele>
        <time>2013-08-16T08:21:43.000Z</time>
      </trkpt>
      <trkpt lat="45.70829" lon="4.48352">
        <ele>443.20001220703</ele>
        <time>2013-08-16T08:21:51.000Z</time>
      </trkpt>
      <trkpt lat="45.70824" lon="4.48335">
        <ele>442.39999389648</ele>
        <time>2013-08-16T08:21:53.000Z</time>
      </trkpt>
      <trkpt lat="45.70803" lon="4.48278">
        <ele>440.60000610352</ele>
        <time>2013-08-16T08:22:00.000Z</time>
      </trkpt>
      <trkpt lat="45.70794" lon="4.48251">
        <ele>440.20001220703</ele>
        <time>2013-08-16T08:22:03.000Z</time>
      </trkpt>
      <trkpt lat="45.70792" lon="4.48207">
        <ele>442.39999389648</ele>
        <time>2013-08-16T08:22:08.000Z</time>
      </trkpt>
      <trkpt lat="45.70793" lon="4.482">
        <ele>442.60000610352</ele>
        <time>2013-08-16T08:22:09.000Z</time>
      </trkpt>
      <trkpt lat="45.70803" lon="4.48151">
        <ele>444</ele>
        <time>2013-08-16T08:22:17.000Z</time>
      </trkpt>
      <trkpt lat="45.70804" lon="4.48145">
        <ele>444.20001220703</ele>
        <time>2013-08-16T08:22:18.000Z</time>
      </trkpt>
      <trkpt lat="45.70802" lon="4.48098">
        <ele>446</ele>
        <time>2013-08-16T08:22:26.000Z</time>
      </trkpt>
      <trkpt lat="45.70795" lon="4.48059">
        <ele>447.39999389648</ele>
        <time>2013-08-16T08:22:33.000Z</time>
      </trkpt>
      <trkpt lat="45.70784" lon="4.48028">
        <ele>448.60000610352</ele>
        <time>2013-08-16T08:22:40.000Z</time>
      </trkpt>
      <trkpt lat="45.70767" lon="4.47992">
        <ele>450</ele>
        <time>2013-08-16T08:22:48.000Z</time>
      </trkpt>
      <trkpt lat="45.70756" lon="4.47951">
        <ele>451</ele>
        <time>2013-08-16T08:22:56.000Z</time>
      </trkpt>
      <trkpt lat="45.70755" lon="4.4794">
        <ele>451.20001220703</ele>
        <time>2013-08-16T08:22:58.000Z</time>
      </trkpt>
      <trkpt lat="45.70753" lon="4.47868">
        <ele>450.39999389648</ele>
        <time>2013-08-16T08:23:10.000Z</time>
      </trkpt>
      <trkpt lat="45.70755" lon="4.47819">
        <ele>449.20001220703</ele>
        <time>2013-08-16T08:23:18.000Z</time>
      </trkpt>
      <trkpt lat="45.70759" lon="4.47782">
        <ele>448.39999389648</ele>
        <time>2013-08-16T08:23:25.000Z</time>
      </trkpt>
      <trkpt lat="45.70767" lon="4.47761">
        <ele>447.60000610352</ele>
        <time>2013-08-16T08:23:30.000Z</time>
      </trkpt>
      <trkpt lat="45.70767" lon="4.47745">
        <ele>447.20001220703</ele>
        <time>2013-08-16T08:23:34.000Z</time>
      </trkpt>
      <trkpt lat="45.70763" lon="4.47733">
        <ele>447.20001220703</ele>
        <time>2013-08-16T08:23:39.000Z</time>
      </trkpt>
      <trkpt lat="45.70763" lon="4.47732">
        <ele>447.20001220703</ele>
        <time>2013-08-16T08:23:43.000Z</time>
      </trkpt>
      <trkpt lat="45.70764" lon="4.47711">
        <ele>446.60000610352</ele>
        <time>2013-08-16T08:23:50.000Z</time>
      </trkpt>
      <trkpt lat="45.70769" lon="4.47686">
        <ele>445.60000610352</ele>
        <time>2013-08-16T08:23:55.000Z</time>
      </trkpt>
      <trkpt lat="45.70778" lon="4.47644">
        <ele>443.79998779297</ele>
        <time>2013-08-16T08:24:02.000Z</time>
      </trkpt>
      <trkpt lat="45.70785" lon="4.47611">
        <ele>442.20001220703</ele>
        <time>2013-08-16T08:24:08.000Z</time>
      </trkpt>
      <trkpt lat="45.70795" lon="4.47569">
        <ele>440.39999389648</ele>
        <time>2013-08-16T08:24:15.000Z</time>
      </trkpt>
      <trkpt lat="45.70806" lon="4.4755">
        <ele>439.20001220703</ele>
        <time>2013-08-16T08:24:20.000Z</time>
      </trkpt>
      <trkpt lat="45.70811" lon="4.47534">
        <ele>438.60000610352</ele>
        <time>2013-08-16T08:24:24.000Z</time>
      </trkpt>
      <trkpt lat="45.70804" lon="4.4752">
        <ele>438.60000610352</ele>
        <time>2013-08-16T08:24:28.000Z</time>
      </trkpt>
      <trkpt lat="45.7079" lon="4.47514">
        <ele>438.79998779297</ele>
        <time>2013-08-16T08:24:32.000Z</time>
      </trkpt>
      <trkpt lat="45.70777" lon="4.47496">
        <ele>438.79998779297</ele>
        <time>2013-08-16T08:24:37.000Z</time>
      </trkpt>
      <trkpt lat="45.70759" lon="4.47464">
        <ele>438</ele>
        <time>2013-08-16T08:24:44.000Z</time>
      </trkpt>
      <trkpt lat="45.70738" lon="4.47426">
        <ele>437.20001220703</ele>
        <time>2013-08-16T08:24:50.000Z</time>
      </trkpt>
      <trkpt lat="45.7072" lon="4.47381">
        <ele>438.20001220703</ele>
        <time>2013-08-16T08:24:56.000Z</time>
      </trkpt>
      <trkpt lat="45.70718" lon="4.47374">
        <ele>438.39999389648</ele>
        <time>2013-08-16T08:24:57.000Z</time>
      </trkpt>
      <trkpt lat="45.70707" lon="4.47325">
        <ele>439.39999389648</ele>
        <time>2013-08-16T08:25:04.000Z</time>
      </trkpt>
      <trkpt lat="45.70695" lon="4.47295">
        <ele>440</ele>
        <time>2013-08-16T08:25:09.000Z</time>
      </trkpt>
      <trkpt lat="45.70677" lon="4.47269">
        <ele>440.20001220703</ele>
        <time>2013-08-16T08:25:15.000Z</time>
      </trkpt>
      <trkpt lat="45.70663" lon="4.47249">
        <ele>439.79998779297</ele>
        <time>2013-08-16T08:25:20.000Z</time>
      </trkpt>
      <trkpt lat="45.70637" lon="4.47218">
        <ele>438.39999389648</ele>
        <time>2013-08-16T08:25:27.000Z</time>
      </trkpt>
      <trkpt lat="45.70599" lon="4.47193">
        <ele>436.39999389648</ele>
        <time>2013-08-16T08:25:35.000Z</time>
      </trkpt>
      <trkpt lat="45.70554" lon="4.47167">
        <ele>434.20001220703</ele>
        <time>2013-08-16T08:25:44.000Z</time>
      </trkpt>
      <trkpt lat="45.70527" lon="4.47149">
        <ele>433.60000610352</ele>
        <time>2013-08-16T08:25:50.000Z</time>
      </trkpt>
      <trkpt lat="45.70496" lon="4.47129">
        <ele>433.20001220703</ele>
        <time>2013-08-16T08:25:57.000Z</time>
      </trkpt>
      <trkpt lat="45.70483" lon="4.47114">
        <ele>433.20001220703</ele>
        <time>2013-08-16T08:26:01.000Z</time>
      </trkpt>
      <trkpt lat="45.70464" lon="4.47094">
        <ele>433</ele>
        <time>2013-08-16T08:26:07.000Z</time>
      </trkpt>
      <trkpt lat="45.70445" lon="4.47092">
        <ele>433.79998779297</ele>
        <time>2013-08-16T08:26:12.000Z</time>
      </trkpt>
      <trkpt lat="45.70422" lon="4.47077">
        <ele>434.20001220703</ele>
        <time>2013-08-16T08:26:18.000Z</time>
      </trkpt>
      <trkpt lat="45.70385" lon="4.47051">
        <ele>433.79998779297</ele>
        <time>2013-08-16T08:26:27.000Z</time>
      </trkpt>
      <trkpt lat="45.70345" lon="4.47024">
        <ele>433</ele>
        <time>2013-08-16T08:26:36.000Z</time>
      </trkpt>
      <trkpt lat="45.70302" lon="4.46995">
        <ele>432.39999389648</ele>
        <time>2013-08-16T08:26:45.000Z</time>
      </trkpt>
      <trkpt lat="45.70256" lon="4.46964">
        <ele>432.79998779297</ele>
        <time>2013-08-16T08:26:55.000Z</time>
      </trkpt>
      <trkpt lat="45.70215" lon="4.46936">
        <ele>433.20001220703</ele>
        <time>2013-08-16T08:27:04.000Z</time>
      </trkpt>
      <trkpt lat="45.70169" lon="4.46904">
        <ele>433</ele>
        <time>2013-08-16T08:27:14.000Z</time>
      </trkpt>
      <trkpt lat="45.70138" lon="4.46889">
        <ele>432.60000610352</ele>
        <time>2013-08-16T08:27:21.000Z</time>
      </trkpt>
      <trkpt lat="45.70104" lon="4.46884">
        <ele>432.39999389648</ele>
        <time>2013-08-16T08:27:28.000Z</time>
      </trkpt>
      <trkpt lat="45.7006" lon="4.46879">
        <ele>433.60000610352</ele>
        <time>2013-08-16T08:27:37.000Z</time>
      </trkpt>
      <trkpt lat="45.70029" lon="4.46876">
        <ele>435</ele>
        <time>2013-08-16T08:27:44.000Z</time>
      </trkpt>
      <trkpt lat="45.69995" lon="4.46874">
        <ele>436.60000610352</ele>
        <time>2013-08-16T08:27:53.000Z</time>
      </trkpt>
      <trkpt lat="45.69946" lon="4.46872">
        <ele>439.39999389648</ele>
        <time>2013-08-16T08:28:05.000Z</time>
      </trkpt>
      <trkpt lat="45.69907" lon="4.4687">
        <ele>441.79998779297</ele>
        <time>2013-08-16T08:28:15.000Z</time>
      </trkpt>
      <trkpt lat="45.69886" lon="4.46868">
        <ele>443.79998779297</ele>
        <time>2013-08-16T08:28:21.000Z</time>
      </trkpt>
      <trkpt lat="45.69864" lon="4.4686">
        <ele>445</ele>
        <time>2013-08-16T08:28:28.000Z</time>
      </trkpt>
      <trkpt lat="45.69857" lon="4.46856">
        <ele>445.20001220703</ele>
        <time>2013-08-16T08:28:30.000Z</time>
      </trkpt>
      <trkpt lat="45.69839" lon="4.46844">
        <ele>445.60000610352</ele>
        <time>2013-08-16T08:28:34.000Z</time>
      </trkpt>
      <trkpt lat="45.69816" lon="4.46821">
        <ele>446.79998779297</ele>
        <time>2013-08-16T08:28:38.000Z</time>
      </trkpt>
      <trkpt lat="45.69784" lon="4.46765">
        <ele>446.79998779297</ele>
        <time>2013-08-16T08:28:45.000Z</time>
      </trkpt>
      <trkpt lat="45.69759" lon="4.46719">
        <ele>447</ele>
        <time>2013-08-16T08:28:51.000Z</time>
      </trkpt>
      <trkpt lat="45.69721" lon="4.46687">
        <ele>449</ele>
        <time>2013-08-16T08:28:58.000Z</time>
      </trkpt>
      <trkpt lat="45.69681" lon="4.46656">
        <ele>450.79998779297</ele>
        <time>2013-08-16T08:29:06.000Z</time>
      </trkpt>
      <trkpt lat="45.69647" lon="4.46632">
        <ele>452.79998779297</ele>
        <time>2013-08-16T08:29:14.000Z</time>
      </trkpt>
      <trkpt lat="45.69607" lon="4.46616">
        <ele>456</ele>
        <time>2013-08-16T08:29:23.000Z</time>
      </trkpt>
      <trkpt lat="45.69568" lon="4.46611">
        <ele>460.39999389648</ele>
        <time>2013-08-16T08:29:31.000Z</time>
      </trkpt>
      <trkpt lat="45.69554" lon="4.46605">
        <ele>461.79998779297</ele>
        <time>2013-08-16T08:29:34.000Z</time>
      </trkpt>
      <trkpt lat="45.69533" lon="4.46577">
        <ele>462.60000610352</ele>
        <time>2013-08-16T08:29:40.000Z</time>
      </trkpt>
      <trkpt lat="45.6953" lon="4.46565">
        <ele>462.20001220703</ele>
        <time>2013-08-16T08:29:42.000Z</time>
      </trkpt>
      <trkpt lat="45.6952" lon="4.46519">
        <ele>459.79998779297</ele>
        <time>2013-08-16T08:29:49.000Z</time>
      </trkpt>
      <trkpt lat="45.69502" lon="4.46485">
        <ele>458.79998779297</ele>
        <time>2013-08-16T08:29:55.000Z</time>
      </trkpt>
      <trkpt lat="45.69461" lon="4.46444">
        <ele>463.79998779297</ele>
        <time>2013-08-16T08:30:05.000Z</time>
      </trkpt>
      <trkpt lat="45.69426" lon="4.4641">
        <ele>466.60000610352</ele>
        <time>2013-08-16T08:30:14.000Z</time>
      </trkpt>
      <trkpt lat="45.694" lon="4.46384">
        <ele>468.60000610352</ele>
        <time>2013-08-16T08:30:21.000Z</time>
      </trkpt>
      <trkpt lat="45.69373" lon="4.46359">
        <ele>470</ele>
        <time>2013-08-16T08:30:28.000Z</time>
      </trkpt>
      <trkpt lat="45.69339" lon="4.46327">
        <ele>471</ele>
        <time>2013-08-16T08:30:37.000Z</time>
      </trkpt>
      <trkpt lat="45.69307" lon="4.46302">
        <ele>475.39999389648</ele>
        <time>2013-08-16T08:30:45.000Z</time>
      </trkpt>
      <trkpt lat="45.69283" lon="4.4629">
        <ele>478.60000610352</ele>
        <time>2013-08-16T08:30:51.000Z</time>
      </trkpt>
      <trkpt lat="45.6927" lon="4.46267">
        <ele>479.79998779297</ele>
        <time>2013-08-16T08:30:56.000Z</time>
      </trkpt>
      <trkpt lat="45.69275" lon="4.46244">
        <ele>478.39999389648</ele>
        <time>2013-08-16T08:31:00.000Z</time>
      </trkpt>
      <trkpt lat="45.6929" lon="4.46229">
        <ele>476.39999389648</ele>
        <time>2013-08-16T08:31:04.000Z</time>
      </trkpt>
      <trkpt lat="45.69298" lon="4.46225">
        <ele>475.39999389648</ele>
        <time>2013-08-16T08:31:06.000Z</time>
      </trkpt>
      <trkpt lat="45.69315" lon="4.46205">
        <ele>473.60000610352</ele>
        <time>2013-08-16T08:31:11.000Z</time>
      </trkpt>
      <trkpt lat="45.69316" lon="4.46179">
        <ele>473.79998779297</ele>
        <time>2013-08-16T08:31:15.000Z</time>
      </trkpt>
      <trkpt lat="45.69304" lon="4.46157">
        <ele>475</ele>
        <time>2013-08-16T08:31:19.000Z</time>
      </trkpt>
      <trkpt lat="45.693" lon="4.46153">
        <ele>475.20001220703</ele>
        <time>2013-08-16T08:31:20.000Z</time>
      </trkpt>
      <trkpt lat="45.69257" lon="4.46122">
        <ele>479.20001220703</ele>
        <time>2013-08-16T08:31:30.000Z</time>
      </trkpt>
      <trkpt lat="45.69233" lon="4.4609">
        <ele>482</ele>
        <time>2013-08-16T08:31:37.000Z</time>
      </trkpt>
      <trkpt lat="45.69208" lon="4.46049">
        <ele>483.20001220703</ele>
        <time>2013-08-16T08:31:45.000Z</time>
      </trkpt>
      <trkpt lat="45.69181" lon="4.45999">
        <ele>483</ele>
        <time>2013-08-16T08:31:54.000Z</time>
      </trkpt>
      <trkpt lat="45.69157" lon="4.45959">
        <ele>483.79998779297</ele>
        <time>2013-08-16T08:32:02.000Z</time>
      </trkpt>
      <trkpt lat="45.69128" lon="4.45926">
        <ele>486</ele>
        <time>2013-08-16T08:32:10.000Z</time>
      </trkpt>
      <trkpt lat="45.69093" lon="4.45894">
        <ele>487.60000610352</ele>
        <time>2013-08-16T08:32:19.000Z</time>
      </trkpt>
      <trkpt lat="45.69058" lon="4.45865">
        <ele>485.79998779297</ele>
        <time>2013-08-16T08:32:28.000Z</time>
      </trkpt>
      <trkpt lat="45.69029" lon="4.4586">
        <ele>486.79998779297</ele>
        <time>2013-08-16T08:32:34.000Z</time>
      </trkpt>
      <trkpt lat="45.69025" lon="4.45861">
        <ele>487.39999389648</ele>
        <time>2013-08-16T08:32:35.000Z</time>
      </trkpt>
      <trkpt lat="45.68998" lon="4.45868">
        <ele>490.39999389648</ele>
        <time>2013-08-16T08:32:41.000Z</time>
      </trkpt>
      <trkpt lat="45.68989" lon="4.45872">
        <ele>491.60000610352</ele>
        <time>2013-08-16T08:32:43.000Z</time>
      </trkpt>
      <trkpt lat="45.68956" lon="4.45881">
        <ele>495.39999389648</ele>
        <time>2013-08-16T08:32:51.000Z</time>
      </trkpt>
      <trkpt lat="45.68916" lon="4.4589">
        <ele>499</ele>
        <time>2013-08-16T08:33:00.000Z</time>
      </trkpt>
      <trkpt lat="45.68883" lon="4.45895">
        <ele>501.20001220703</ele>
        <time>2013-08-16T08:33:07.000Z</time>
      </trkpt>
      <trkpt lat="45.68866" lon="4.45902">
        <ele>502.20001220703</ele>
        <time>2013-08-16T08:33:11.000Z</time>
      </trkpt>
      <trkpt lat="45.68851" lon="4.45914">
        <ele>502.60000610352</ele>
        <time>2013-08-16T08:33:15.000Z</time>
      </trkpt>
      <trkpt lat="45.68843" lon="4.45919">
        <ele>503.20001220703</ele>
        <time>2013-08-16T08:33:17.000Z</time>
      </trkpt>
      <trkpt lat="45.68834" lon="4.45922">
        <ele>503.79998779297</ele>
        <time>2013-08-16T08:33:19.000Z</time>
      </trkpt>
      <trkpt lat="45.68812" lon="4.45917">
        <ele>506.79998779297</ele>
        <time>2013-08-16T08:33:24.000Z</time>
      </trkpt>
      <trkpt lat="45.68803" lon="4.45898">
        <ele>508.79998779297</ele>
        <time>2013-08-16T08:33:28.000Z</time>
      </trkpt>
      <trkpt lat="45.68803" lon="4.4587">
        <ele>509.60000610352</ele>
        <time>2013-08-16T08:33:33.000Z</time>
      </trkpt>
      <trkpt lat="45.68815" lon="4.45848">
        <ele>508</ele>
        <time>2013-08-16T08:33:38.000Z</time>
      </trkpt>
      <trkpt lat="45.68821" lon="4.45844">
        <ele>507</ele>
        <time>2013-08-16T08:33:40.000Z</time>
      </trkpt>
      <trkpt lat="45.68829" lon="4.45831">
        <ele>505.79998779297</ele>
        <time>2013-08-16T08:33:46.000Z</time>
      </trkpt>
      <trkpt lat="45.68826" lon="4.4583">
        <ele>506.60000610352</ele>
        <time>2013-08-16T08:33:49.000Z</time>
      </trkpt>
      <trkpt lat="45.68825" lon="4.45842">
        <ele>506.39999389648</ele>
        <time>2013-08-16T08:33:53.000Z</time>
      </trkpt>
      <trkpt lat="45.68827" lon="4.45845">
        <ele>505.79998779297</ele>
        <time>2013-08-16T08:33:56.000Z</time>
      </trkpt>
      <trkpt lat="45.6883" lon="4.45841">
        <ele>505.20001220703</ele>
        <time>2013-08-16T08:35:09.000Z</time>
      </trkpt>
      <trkpt lat="45.68833" lon="4.45839">
        <ele>504.79998779297</ele>
        <time>2013-08-16T08:41:55.000Z</time>
      </trkpt>
      <trkpt lat="45.68835" lon="4.45823">
        <ele>505.20001220703</ele>
        <time>2013-08-16T08:42:02.000Z</time>
      </trkpt>
      <trkpt lat="45.68842" lon="4.45793">
        <ele>505.79998779297</ele>
        <time>2013-08-16T08:42:10.000Z</time>
      </trkpt>
      <trkpt lat="45.68845" lon="4.45752">
        <ele>507.39999389648</ele>
        <time>2013-08-16T08:42:18.000Z</time>
      </trkpt>
      <trkpt lat="45.68841" lon="4.45707">
        <ele>507.20001220703</ele>
        <time>2013-08-16T08:42:27.000Z</time>
      </trkpt>
      <trkpt lat="45.68831" lon="4.45672">
        <ele>507.60000610352</ele>
        <time>2013-08-16T08:42:35.000Z</time>
      </trkpt>
      <trkpt lat="45.68814" lon="4.45644">
        <ele>509</ele>
        <time>2013-08-16T08:42:43.000Z</time>
      </trkpt>
      <trkpt lat="45.6879" lon="4.45619">
        <ele>511.39999389648</ele>
        <time>2013-08-16T08:42:52.000Z</time>
      </trkpt>
      <trkpt lat="45.68774" lon="4.45601">
        <ele>512.59997558594</ele>
        <time>2013-08-16T08:42:58.000Z</time>
      </trkpt>
      <trkpt lat="45.68753" lon="4.45572">
        <ele>512.79998779297</ele>
        <time>2013-08-16T08:43:07.000Z</time>
      </trkpt>
      <trkpt lat="45.68739" lon="4.45543">
        <ele>512.40002441406</ele>
        <time>2013-08-16T08:43:14.000Z</time>
      </trkpt>
      <trkpt lat="45.68718" lon="4.45497">
        <ele>510.60000610352</ele>
        <time>2013-08-16T08:43:25.000Z</time>
      </trkpt>
      <trkpt lat="45.68695" lon="4.45464">
        <ele>512.59997558594</ele>
        <time>2013-08-16T08:43:35.000Z</time>
      </trkpt>
      <trkpt lat="45.68668" lon="4.45435">
        <ele>516.20001220703</ele>
        <time>2013-08-16T08:43:46.000Z</time>
      </trkpt>
      <trkpt lat="45.68646" lon="4.45413">
        <ele>518.20001220703</ele>
        <time>2013-08-16T08:43:55.000Z</time>
      </trkpt>
      <trkpt lat="45.68625" lon="4.45391">
        <ele>519.20001220703</ele>
        <time>2013-08-16T08:44:04.000Z</time>
      </trkpt>
      <trkpt lat="45.68602" lon="4.45371">
        <ele>520.40002441406</ele>
        <time>2013-08-16T08:44:13.000Z</time>
      </trkpt>
      <trkpt lat="45.68579" lon="4.45351">
        <ele>521.59997558594</ele>
        <time>2013-08-16T08:44:22.000Z</time>
      </trkpt>
      <trkpt lat="45.6855" lon="4.45322">
        <ele>523.59997558594</ele>
        <time>2013-08-16T08:44:34.000Z</time>
      </trkpt>
      <trkpt lat="45.68529" lon="4.4529">
        <ele>524</ele>
        <time>2013-08-16T08:44:44.000Z</time>
      </trkpt>
      <trkpt lat="45.6851" lon="4.45255">
        <ele>523.59997558594</ele>
        <time>2013-08-16T08:44:55.000Z</time>
      </trkpt>
      <trkpt lat="45.68486" lon="4.45231">
        <ele>524.20001220703</ele>
        <time>2013-08-16T08:45:05.000Z</time>
      </trkpt>
      <trkpt lat="45.68458" lon="4.45215">
        <ele>524.79998779297</ele>
        <time>2013-08-16T08:45:15.000Z</time>
      </trkpt>
      <trkpt lat="45.68426" lon="4.45207">
        <ele>526.79998779297</ele>
        <time>2013-08-16T08:45:26.000Z</time>
      </trkpt>
      <trkpt lat="45.68397" lon="4.45202">
        <ele>528.40002441406</ele>
        <time>2013-08-16T08:45:36.000Z</time>
      </trkpt>
      <trkpt lat="45.68363" lon="4.45202">
        <ele>530.79998779297</ele>
        <time>2013-08-16T08:45:48.000Z</time>
      </trkpt>
      <trkpt lat="45.6834" lon="4.45203">
        <ele>532.79998779297</ele>
        <time>2013-08-16T08:45:56.000Z</time>
      </trkpt>
      <trkpt lat="45.68313" lon="4.45205">
        <ele>534.79998779297</ele>
        <time>2013-08-16T08:46:06.000Z</time>
      </trkpt>
      <trkpt lat="45.68286" lon="4.45207">
        <ele>536.79998779297</ele>
        <time>2013-08-16T08:46:16.000Z</time>
      </trkpt>
      <trkpt lat="45.68259" lon="4.4521">
        <ele>538.79998779297</ele>
        <time>2013-08-16T08:46:26.000Z</time>
      </trkpt>
      <trkpt lat="45.68239" lon="4.45211">
        <ele>539.79998779297</ele>
        <time>2013-08-16T08:46:34.000Z</time>
      </trkpt>
      <trkpt lat="45.68218" lon="4.45212">
        <ele>540.59997558594</ele>
        <time>2013-08-16T08:46:42.000Z</time>
      </trkpt>
      <trkpt lat="45.68195" lon="4.45215">
        <ele>541.79998779297</ele>
        <time>2013-08-16T08:46:51.000Z</time>
      </trkpt>
      <trkpt lat="45.68167" lon="4.45218">
        <ele>543.20001220703</ele>
        <time>2013-08-16T08:47:01.000Z</time>
      </trkpt>
      <trkpt lat="45.68139" lon="4.45226">
        <ele>547.40002441406</ele>
        <time>2013-08-16T08:47:10.000Z</time>
      </trkpt>
      <trkpt lat="45.68115" lon="4.4523">
        <ele>550.20001220703</ele>
        <time>2013-08-16T08:47:19.000Z</time>
      </trkpt>
      <trkpt lat="45.68104" lon="4.45223">
        <ele>551.20001220703</ele>
        <time>2013-08-16T08:47:24.000Z</time>
      </trkpt>
      <trkpt lat="45.68098" lon="4.45203">
        <ele>551.59997558594</ele>
        <time>2013-08-16T08:47:29.000Z</time>
      </trkpt>
      <trkpt lat="45.68103" lon="4.45181">
        <ele>550.40002441406</ele>
        <time>2013-08-16T08:47:34.000Z</time>
      </trkpt>
      <trkpt lat="45.68116" lon="4.45145">
        <ele>548</ele>
        <time>2013-08-16T08:47:44.000Z</time>
      </trkpt>
      <trkpt lat="45.68121" lon="4.45108">
        <ele>548.79998779297</ele>
        <time>2013-08-16T08:47:53.000Z</time>
      </trkpt>
      <trkpt lat="45.6813" lon="4.45072">
        <ele>548</ele>
        <time>2013-08-16T08:48:02.000Z</time>
      </trkpt>
      <trkpt lat="45.6814" lon="4.45039">
        <ele>546.79998779297</ele>
        <time>2013-08-16T08:48:11.000Z</time>
      </trkpt>
      <trkpt lat="45.68141" lon="4.45007">
        <ele>548.59997558594</ele>
        <time>2013-08-16T08:48:19.000Z</time>
      </trkpt>
      <trkpt lat="45.68138" lon="4.44959">
        <ele>555</ele>
        <time>2013-08-16T08:48:31.000Z</time>
      </trkpt>
      <trkpt lat="45.68144" lon="4.4494">
        <ele>555.79998779297</ele>
        <time>2013-08-16T08:48:36.000Z</time>
      </trkpt>
      <trkpt lat="45.68159" lon="4.4493">
        <ele>554.20001220703</ele>
        <time>2013-08-16T08:48:42.000Z</time>
      </trkpt>
      <trkpt lat="45.68182" lon="4.4493">
        <ele>551.20001220703</ele>
        <time>2013-08-16T08:48:50.000Z</time>
      </trkpt>
      <trkpt lat="45.682" lon="4.44927">
        <ele>549.79998779297</ele>
        <time>2013-08-16T08:48:57.000Z</time>
      </trkpt>
      <trkpt lat="45.68218" lon="4.44914">
        <ele>549.59997558594</ele>
        <time>2013-08-16T08:49:05.000Z</time>
      </trkpt>
      <trkpt lat="45.6823" lon="4.44893">
        <ele>550.40002441406</ele>
        <time>2013-08-16T08:49:12.000Z</time>
      </trkpt>
      <trkpt lat="45.68243" lon="4.44858">
        <ele>551.79998779297</ele>
        <time>2013-08-16T08:49:22.000Z</time>
      </trkpt>
      <trkpt lat="45.68248" lon="4.44826">
        <ele>552.79998779297</ele>
        <time>2013-08-16T08:49:30.000Z</time>
      </trkpt>
      <trkpt lat="45.68243" lon="4.44795">
        <ele>552</ele>
        <time>2013-08-16T08:49:38.000Z</time>
      </trkpt>
      <trkpt lat="45.68231" lon="4.44773">
        <ele>553</ele>
        <time>2013-08-16T08:49:45.000Z</time>
      </trkpt>
      <trkpt lat="45.68209" lon="4.44746">
        <ele>555.79998779297</ele>
        <time>2013-08-16T08:49:55.000Z</time>
      </trkpt>
      <trkpt lat="45.68196" lon="4.4473">
        <ele>556.59997558594</ele>
        <time>2013-08-16T08:50:00.000Z</time>
      </trkpt>
      <trkpt lat="45.68185" lon="4.44719">
        <ele>557.59997558594</ele>
        <time>2013-08-16T08:50:05.000Z</time>
      </trkpt>
      <trkpt lat="45.68173" lon="4.44701">
        <ele>558.20001220703</ele>
        <time>2013-08-16T08:50:11.000Z</time>
      </trkpt>
      <trkpt lat="45.68162" lon="4.44688">
        <ele>559</ele>
        <time>2013-08-16T08:50:16.000Z</time>
      </trkpt>
      <trkpt lat="45.68142" lon="4.44664">
        <ele>559.79998779297</ele>
        <time>2013-08-16T08:50:25.000Z</time>
      </trkpt>
      <trkpt lat="45.68116" lon="4.44638">
        <ele>561</ele>
        <time>2013-08-16T08:50:36.000Z</time>
      </trkpt>
      <trkpt lat="45.68091" lon="4.44616">
        <ele>563.59997558594</ele>
        <time>2013-08-16T08:50:46.000Z</time>
      </trkpt>
      <trkpt lat="45.68072" lon="4.44606">
        <ele>564.40002441406</ele>
        <time>2013-08-16T08:50:53.000Z</time>
      </trkpt>
      <trkpt lat="45.68052" lon="4.44604">
        <ele>564.79998779297</ele>
        <time>2013-08-16T08:51:00.000Z</time>
      </trkpt>
      <trkpt lat="45.68027" lon="4.4461">
        <ele>566.20001220703</ele>
        <time>2013-08-16T08:51:09.000Z</time>
      </trkpt>
      <trkpt lat="45.68005" lon="4.44623">
        <ele>568.59997558594</ele>
        <time>2013-08-16T08:51:17.000Z</time>
      </trkpt>
      <trkpt lat="45.67981" lon="4.44652">
        <ele>571</ele>
        <time>2013-08-16T08:51:27.000Z</time>
      </trkpt>
      <trkpt lat="45.67962" lon="4.44686">
        <ele>573.79998779297</ele>
        <time>2013-08-16T08:51:37.000Z</time>
      </trkpt>
      <trkpt lat="45.67945" lon="4.44699">
        <ele>574.59997558594</ele>
        <time>2013-08-16T08:51:44.000Z</time>
      </trkpt>
      <trkpt lat="45.67924" lon="4.44702">
        <ele>574.20001220703</ele>
        <time>2013-08-16T08:51:52.000Z</time>
      </trkpt>
      <trkpt lat="45.67895" lon="4.44701">
        <ele>575.79998779297</ele>
        <time>2013-08-16T08:52:02.000Z</time>
      </trkpt>
      <trkpt lat="45.67863" lon="4.447">
        <ele>578.59997558594</ele>
        <time>2013-08-16T08:52:13.000Z</time>
      </trkpt>
      <trkpt lat="45.67841" lon="4.44693">
        <ele>579.59997558594</ele>
        <time>2013-08-16T08:52:21.000Z</time>
      </trkpt>
      <trkpt lat="45.67827" lon="4.44676">
        <ele>579.20001220703</ele>
        <time>2013-08-16T08:52:27.000Z</time>
      </trkpt>
      <trkpt lat="45.67809" lon="4.44643">
        <ele>579.79998779297</ele>
        <time>2013-08-16T08:52:36.000Z</time>
      </trkpt>
      <trkpt lat="45.67799" lon="4.44607">
        <ele>577.79998779297</ele>
        <time>2013-08-16T08:52:44.000Z</time>
      </trkpt>
      <trkpt lat="45.67788" lon="4.44565">
        <ele>574.59997558594</ele>
        <time>2013-08-16T08:52:53.000Z</time>
      </trkpt>
      <trkpt lat="45.6777" lon="4.44534">
        <ele>574</ele>
        <time>2013-08-16T08:53:01.000Z</time>
      </trkpt>
      <trkpt lat="45.67739" lon="4.44506">
        <ele>575.20001220703</ele>
        <time>2013-08-16T08:53:11.000Z</time>
      </trkpt>
      <trkpt lat="45.67705" lon="4.44493">
        <ele>577</ele>
        <time>2013-08-16T08:53:21.000Z</time>
      </trkpt>
      <trkpt lat="45.67662" lon="4.44488">
        <ele>580.40002441406</ele>
        <time>2013-08-16T08:53:33.000Z</time>
      </trkpt>
      <trkpt lat="45.67629" lon="4.44489">
        <ele>579.20001220703</ele>
        <time>2013-08-16T08:53:42.000Z</time>
      </trkpt>
      <trkpt lat="45.67609" lon="4.44498">
        <ele>579.79998779297</ele>
        <time>2013-08-16T08:53:48.000Z</time>
      </trkpt>
      <trkpt lat="45.67595" lon="4.44515">
        <ele>582.79998779297</ele>
        <time>2013-08-16T08:53:54.000Z</time>
      </trkpt>
      <trkpt lat="45.67581" lon="4.44544">
        <ele>588.79998779297</ele>
        <time>2013-08-16T08:54:01.000Z</time>
      </trkpt>
      <trkpt lat="45.67568" lon="4.44562">
        <ele>594.40002441406</ele>
        <time>2013-08-16T08:54:06.000Z</time>
      </trkpt>
      <trkpt lat="45.6755" lon="4.44562">
        <ele>596.79998779297</ele>
        <time>2013-08-16T08:54:11.000Z</time>
      </trkpt>
      <trkpt lat="45.6753" lon="4.44542">
        <ele>594.59997558594</ele>
        <time>2013-08-16T08:54:18.000Z</time>
      </trkpt>
      <trkpt lat="45.67514" lon="4.44521">
        <ele>591.20001220703</ele>
        <time>2013-08-16T08:54:24.000Z</time>
      </trkpt>
      <trkpt lat="45.67494" lon="4.44499">
        <ele>587.20001220703</ele>
        <time>2013-08-16T08:54:31.000Z</time>
      </trkpt>
      <trkpt lat="45.67466" lon="4.44481">
        <ele>583.79998779297</ele>
        <time>2013-08-16T08:54:39.000Z</time>
      </trkpt>
      <trkpt lat="45.67439" lon="4.44479">
        <ele>584.59997558594</ele>
        <time>2013-08-16T08:54:46.000Z</time>
      </trkpt>
      <trkpt lat="45.67411" lon="4.44489">
        <ele>588.59997558594</ele>
        <time>2013-08-16T08:54:53.000Z</time>
      </trkpt>
      <trkpt lat="45.67385" lon="4.44513">
        <ele>594.79998779297</ele>
        <time>2013-08-16T08:55:01.000Z</time>
      </trkpt>
      <trkpt lat="45.67362" lon="4.44545">
        <ele>601.40002441406</ele>
        <time>2013-08-16T08:55:09.000Z</time>
      </trkpt>
      <trkpt lat="45.67346" lon="4.44561">
        <ele>603.79998779297</ele>
        <time>2013-08-16T08:55:14.000Z</time>
      </trkpt>
      <trkpt lat="45.67318" lon="4.44582">
        <ele>609.40002441406</ele>
        <time>2013-08-16T08:55:22.000Z</time>
      </trkpt>
      <trkpt lat="45.67314" lon="4.44584">
        <ele>610.59997558594</ele>
        <time>2013-08-16T08:55:23.000Z</time>
      </trkpt>
      <trkpt lat="45.67293" lon="4.44587">
        <ele>615</ele>
        <time>2013-08-16T08:55:29.000Z</time>
      </trkpt>
      <trkpt lat="45.67285" lon="4.44573">
        <ele>614</ele>
        <time>2013-08-16T08:55:33.000Z</time>
      </trkpt>
      <trkpt lat="45.67284" lon="4.44546">
        <ele>610.20001220703</ele>
        <time>2013-08-16T08:55:38.000Z</time>
      </trkpt>
      <trkpt lat="45.67285" lon="4.44508">
        <ele>604.59997558594</ele>
        <time>2013-08-16T08:55:45.000Z</time>
      </trkpt>
      <trkpt lat="45.67276" lon="4.44475">
        <ele>604</ele>
        <time>2013-08-16T08:55:52.000Z</time>
      </trkpt>
      <trkpt lat="45.67271" lon="4.44445">
        <ele>603</ele>
        <time>2013-08-16T08:55:58.000Z</time>
      </trkpt>
      <trkpt lat="45.67274" lon="4.44419">
        <ele>600</ele>
        <time>2013-08-16T08:56:03.000Z</time>
      </trkpt>
      <trkpt lat="45.67274" lon="4.44387">
        <ele>599</ele>
        <time>2013-08-16T08:56:09.000Z</time>
      </trkpt>
      <trkpt lat="45.67265" lon="4.44361">
        <ele>600.79998779297</ele>
        <time>2013-08-16T08:56:15.000Z</time>
      </trkpt>
      <trkpt lat="45.67248" lon="4.4433">
        <ele>604.79998779297</ele>
        <time>2013-08-16T08:56:22.000Z</time>
      </trkpt>
      <trkpt lat="45.67239" lon="4.44305">
        <ele>609</ele>
        <time>2013-08-16T08:56:27.000Z</time>
      </trkpt>
      <trkpt lat="45.67243" lon="4.44284">
        <ele>609.40002441406</ele>
        <time>2013-08-16T08:56:31.000Z</time>
      </trkpt>
      <trkpt lat="45.67259" lon="4.44259">
        <ele>607.20001220703</ele>
        <time>2013-08-16T08:56:37.000Z</time>
      </trkpt>
      <trkpt lat="45.67287" lon="4.44234">
        <ele>602.20001220703</ele>
        <time>2013-08-16T08:56:45.000Z</time>
      </trkpt>
      <trkpt lat="45.67313" lon="4.44211">
        <ele>598.20001220703</ele>
        <time>2013-08-16T08:56:53.000Z</time>
      </trkpt>
      <trkpt lat="45.67324" lon="4.44184">
        <ele>598</ele>
        <time>2013-08-16T08:56:59.000Z</time>
      </trkpt>
      <trkpt lat="45.67323" lon="4.44161">
        <ele>599</ele>
        <time>2013-08-16T08:57:03.000Z</time>
      </trkpt>
      <trkpt lat="45.67313" lon="4.44135">
        <ele>598.20001220703</ele>
        <time>2013-08-16T08:57:08.000Z</time>
      </trkpt>
      <trkpt lat="45.67283" lon="4.44098">
        <ele>600.40002441406</ele>
        <time>2013-08-16T08:57:17.000Z</time>
      </trkpt>
      <trkpt lat="45.67251" lon="4.44073">
        <ele>603.79998779297</ele>
        <time>2013-08-16T08:57:25.000Z</time>
      </trkpt>
      <trkpt lat="45.67223" lon="4.44052">
        <ele>607.40002441406</ele>
        <time>2013-08-16T08:57:32.000Z</time>
      </trkpt>
      <trkpt lat="45.67196" lon="4.44031">
        <ele>610.20001220703</ele>
        <time>2013-08-16T08:57:38.000Z</time>
      </trkpt>
      <trkpt lat="45.67178" lon="4.44016">
        <ele>612.20001220703</ele>
        <time>2013-08-16T08:57:42.000Z</time>
      </trkpt>
      <trkpt lat="45.67153" lon="4.43998">
        <ele>614.40002441406</ele>
        <time>2013-08-16T08:57:48.000Z</time>
      </trkpt>
      <trkpt lat="45.67124" lon="4.43977">
        <ele>616</ele>
        <time>2013-08-16T08:57:55.000Z</time>
      </trkpt>
      <trkpt lat="45.67103" lon="4.43954">
        <ele>616.20001220703</ele>
        <time>2013-08-16T08:58:01.000Z</time>
      </trkpt>
      <trkpt lat="45.6709" lon="4.43936">
        <ele>615.79998779297</ele>
        <time>2013-08-16T08:58:06.000Z</time>
      </trkpt>
      <trkpt lat="45.67066" lon="4.43913">
        <ele>617.40002441406</ele>
        <time>2013-08-16T08:58:13.000Z</time>
      </trkpt>
      <trkpt lat="45.67048" lon="4.43896">
        <ele>617.20001220703</ele>
        <time>2013-08-16T08:58:19.000Z</time>
      </trkpt>
      <trkpt lat="45.67026" lon="4.43879">
        <ele>618.59997558594</ele>
        <time>2013-08-16T08:58:26.000Z</time>
      </trkpt>
      <trkpt lat="45.67005" lon="4.43864">
        <ele>620.40002441406</ele>
        <time>2013-08-16T08:58:32.000Z</time>
      </trkpt>
      <trkpt lat="45.6698" lon="4.43851">
        <ele>625.20001220703</ele>
        <time>2013-08-16T08:58:39.000Z</time>
      </trkpt>
      <trkpt lat="45.66964" lon="4.43827">
        <ele>625.59997558594</ele>
        <time>2013-08-16T08:58:45.000Z</time>
      </trkpt>
      <trkpt lat="45.66947" lon="4.43799">
        <ele>624.20001220703</ele>
        <time>2013-08-16T08:58:52.000Z</time>
      </trkpt>
      <trkpt lat="45.66927" lon="4.43777">
        <ele>625.59997558594</ele>
        <time>2013-08-16T08:58:59.000Z</time>
      </trkpt>
      <trkpt lat="45.66904" lon="4.43753">
        <ele>626.20001220703</ele>
        <time>2013-08-16T08:59:07.000Z</time>
      </trkpt>
      <trkpt lat="45.66883" lon="4.43731">
        <ele>626.79998779297</ele>
        <time>2013-08-16T08:59:14.000Z</time>
      </trkpt>
      <trkpt lat="45.66863" lon="4.4371">
        <ele>627.40002441406</ele>
        <time>2013-08-16T08:59:21.000Z</time>
      </trkpt>
      <trkpt lat="45.66841" lon="4.43684">
        <ele>628.40002441406</ele>
        <time>2013-08-16T08:59:29.000Z</time>
      </trkpt>
      <trkpt lat="45.66814" lon="4.43656">
        <ele>627.20001220703</ele>
        <time>2013-08-16T08:59:38.000Z</time>
      </trkpt>
      <trkpt lat="45.66788" lon="4.43633">
        <ele>626</ele>
        <time>2013-08-16T08:59:46.000Z</time>
      </trkpt>
      <trkpt lat="45.66749" lon="4.43606">
        <ele>626.40002441406</ele>
        <time>2013-08-16T08:59:57.000Z</time>
      </trkpt>
      <trkpt lat="45.66708" lon="4.43585">
        <ele>627.20001220703</ele>
        <time>2013-08-16T09:00:08.000Z</time>
      </trkpt>
      <trkpt lat="45.66679" lon="4.43572">
        <ele>629.79998779297</ele>
        <time>2013-08-16T09:00:16.000Z</time>
      </trkpt>
      <trkpt lat="45.66651" lon="4.43552">
        <ele>635.20001220703</ele>
        <time>2013-08-16T09:00:24.000Z</time>
      </trkpt>
      <trkpt lat="45.66644" lon="4.43532">
        <ele>637</ele>
        <time>2013-08-16T09:00:28.000Z</time>
      </trkpt>
      <trkpt lat="45.66643" lon="4.43527">
        <ele>637</ele>
        <time>2013-08-16T09:00:29.000Z</time>
      </trkpt>
      <trkpt lat="45.66648" lon="4.4348">
        <ele>637</ele>
        <time>2013-08-16T09:00:37.000Z</time>
      </trkpt>
      <trkpt lat="45.66659" lon="4.43414">
        <ele>639.40002441406</ele>
        <time>2013-08-16T09:00:49.000Z</time>
      </trkpt>
      <trkpt lat="45.66666" lon="4.43372">
        <ele>642</ele>
        <time>2013-08-16T09:00:56.000Z</time>
      </trkpt>
      <trkpt lat="45.66679" lon="4.43334">
        <ele>643.79998779297</ele>
        <time>2013-08-16T09:01:03.000Z</time>
      </trkpt>
      <trkpt lat="45.66692" lon="4.433">
        <ele>642.20001220703</ele>
        <time>2013-08-16T09:01:10.000Z</time>
      </trkpt>
      <trkpt lat="45.66701" lon="4.43255">
        <ele>641.20001220703</ele>
        <time>2013-08-16T09:01:18.000Z</time>
      </trkpt>
      <trkpt lat="45.66707" lon="4.43187">
        <ele>641</ele>
        <time>2013-08-16T09:01:29.000Z</time>
      </trkpt>
      <trkpt lat="45.66707" lon="4.4318">
        <ele>641.20001220703</ele>
        <time>2013-08-16T09:01:30.000Z</time>
      </trkpt>
      <trkpt lat="45.66707" lon="4.43131">
        <ele>642</ele>
        <time>2013-08-16T09:01:38.000Z</time>
      </trkpt>
      <trkpt lat="45.66705" lon="4.43114">
        <ele>643</ele>
        <time>2013-08-16T09:01:41.000Z</time>
      </trkpt>
      <trkpt lat="45.66702" lon="4.43102">
        <ele>644.20001220703</ele>
        <time>2013-08-16T09:01:43.000Z</time>
      </trkpt>
      <trkpt lat="45.66692" lon="4.43074">
        <ele>647.59997558594</ele>
        <time>2013-08-16T09:01:48.000Z</time>
      </trkpt>
      <trkpt lat="45.66686" lon="4.43045">
        <ele>648.20001220703</ele>
        <time>2013-08-16T09:01:53.000Z</time>
      </trkpt>
      <trkpt lat="45.6668" lon="4.43003">
        <ele>647.20001220703</ele>
        <time>2013-08-16T09:02:00.000Z</time>
      </trkpt>
      <trkpt lat="45.66678" lon="4.4298">
        <ele>647.40002441406</ele>
        <time>2013-08-16T09:02:04.000Z</time>
      </trkpt>
      <trkpt lat="45.66677" lon="4.42957">
        <ele>647.40002441406</ele>
        <time>2013-08-16T09:02:08.000Z</time>
      </trkpt>
      <trkpt lat="45.66678" lon="4.42917">
        <ele>645.79998779297</ele>
        <time>2013-08-16T09:02:15.000Z</time>
      </trkpt>
      <trkpt lat="45.66681" lon="4.42871">
        <ele>642</ele>
        <time>2013-08-16T09:02:23.000Z</time>
      </trkpt>
      <trkpt lat="45.66684" lon="4.4283">
        <ele>639</ele>
        <time>2013-08-16T09:02:30.000Z</time>
      </trkpt>
      <trkpt lat="45.66679" lon="4.42803">
        <ele>637.79998779297</ele>
        <time>2013-08-16T09:02:35.000Z</time>
      </trkpt>
      <trkpt lat="45.66672" lon="4.42788">
        <ele>638.59997558594</ele>
        <time>2013-08-16T09:02:38.000Z</time>
      </trkpt>
      <trkpt lat="45.66638" lon="4.42754">
        <ele>641.20001220703</ele>
        <time>2013-08-16T09:02:47.000Z</time>
      </trkpt>
      <trkpt lat="45.66601" lon="4.4273">
        <ele>643.59997558594</ele>
        <time>2013-08-16T09:02:56.000Z</time>
      </trkpt>
      <trkpt lat="45.6657" lon="4.42708">
        <ele>645</ele>
        <time>2013-08-16T09:03:04.000Z</time>
      </trkpt>
      <trkpt lat="45.66532" lon="4.4268">
        <ele>645.40002441406</ele>
        <time>2013-08-16T09:03:14.000Z</time>
      </trkpt>
      <trkpt lat="45.66516" lon="4.42668">
        <ele>645.20001220703</ele>
        <time>2013-08-16T09:03:18.000Z</time>
      </trkpt>
      <trkpt lat="45.6648" lon="4.4264">
        <ele>643.40002441406</ele>
        <time>2013-08-16T09:03:27.000Z</time>
      </trkpt>
      <trkpt lat="45.66437" lon="4.42605">
        <ele>641.20001220703</ele>
        <time>2013-08-16T09:03:38.000Z</time>
      </trkpt>
      <trkpt lat="45.66418" lon="4.42591">
        <ele>641</ele>
        <time>2013-08-16T09:03:43.000Z</time>
      </trkpt>
      <trkpt lat="45.66378" lon="4.4258">
        <ele>645</ele>
        <time>2013-08-16T09:03:52.000Z</time>
      </trkpt>
      <trkpt lat="45.66339" lon="4.42571">
        <ele>649.40002441406</ele>
        <time>2013-08-16T09:04:01.000Z</time>
      </trkpt>
      <trkpt lat="45.6633" lon="4.42568">
        <ele>650.20001220703</ele>
        <time>2013-08-16T09:04:03.000Z</time>
      </trkpt>
      <trkpt lat="45.66313" lon="4.4255">
        <ele>650.79998779297</ele>
        <time>2013-08-16T09:04:08.000Z</time>
      </trkpt>
      <trkpt lat="45.66311" lon="4.42523">
        <ele>647.79998779297</ele>
        <time>2013-08-16T09:04:12.000Z</time>
      </trkpt>
      <trkpt lat="45.66311" lon="4.42483">
        <ele>643.59997558594</ele>
        <time>2013-08-16T09:04:18.000Z</time>
      </trkpt>
      <trkpt lat="45.66298" lon="4.42444">
        <ele>643.79998779297</ele>
        <time>2013-08-16T09:04:25.000Z</time>
      </trkpt>
      <trkpt lat="45.66276" lon="4.424">
        <ele>645.59997558594</ele>
        <time>2013-08-16T09:04:34.000Z</time>
      </trkpt>
      <trkpt lat="45.66249" lon="4.42349">
        <ele>648.79998779297</ele>
        <time>2013-08-16T09:04:45.000Z</time>
      </trkpt>
      <trkpt lat="45.66225" lon="4.42307">
        <ele>649.40002441406</ele>
        <time>2013-08-16T09:04:54.000Z</time>
      </trkpt>
      <trkpt lat="45.66198" lon="4.42259">
        <ele>649.40002441406</ele>
        <time>2013-08-16T09:05:04.000Z</time>
      </trkpt>
      <trkpt lat="45.66186" lon="4.4224">
        <ele>649.59997558594</ele>
        <time>2013-08-16T09:05:08.000Z</time>
      </trkpt>
      <trkpt lat="45.66153" lon="4.42214">
        <ele>650.59997558594</ele>
        <time>2013-08-16T09:05:16.000Z</time>
      </trkpt>
      <trkpt lat="45.6612" lon="4.4219">
        <ele>650.59997558594</ele>
        <time>2013-08-16T09:05:24.000Z</time>
      </trkpt>
      <trkpt lat="45.66087" lon="4.42167">
        <ele>650.79998779297</ele>
        <time>2013-08-16T09:05:32.000Z</time>
      </trkpt>
      <trkpt lat="45.66057" lon="4.42157">
        <ele>651.59997558594</ele>
        <time>2013-08-16T09:05:39.000Z</time>
      </trkpt>
      <trkpt lat="45.6601" lon="4.42154">
        <ele>653.40002441406</ele>
        <time>2013-08-16T09:05:50.000Z</time>
      </trkpt>
      <trkpt lat="45.65964" lon="4.42146">
        <ele>655.59997558594</ele>
        <time>2013-08-16T09:06:01.000Z</time>
      </trkpt>
      <trkpt lat="45.65922" lon="4.42139">
        <ele>657.79998779297</ele>
        <time>2013-08-16T09:06:11.000Z</time>
      </trkpt>
      <trkpt lat="45.6588" lon="4.42132">
        <ele>657.79998779297</ele>
        <time>2013-08-16T09:06:21.000Z</time>
      </trkpt>
      <trkpt lat="45.65858" lon="4.42128">
        <ele>657.79998779297</ele>
        <time>2013-08-16T09:06:27.000Z</time>
      </trkpt>
      <trkpt lat="45.65829" lon="4.42127">
        <ele>658.20001220703</ele>
        <time>2013-08-16T09:06:34.000Z</time>
      </trkpt>
      <trkpt lat="45.65803" lon="4.42129">
        <ele>659.59997558594</ele>
        <time>2013-08-16T09:06:41.000Z</time>
      </trkpt>
      <trkpt lat="45.65769" lon="4.42134">
        <ele>661.79998779297</ele>
        <time>2013-08-16T09:06:51.000Z</time>
      </trkpt>
      <trkpt lat="45.65759" lon="4.42133">
        <ele>662.20001220703</ele>
        <time>2013-08-16T09:06:54.000Z</time>
      </trkpt>
      <trkpt lat="45.65743" lon="4.42137">
        <ele>663</ele>
        <time>2013-08-16T09:07:00.000Z</time>
      </trkpt>
      <trkpt lat="45.65742" lon="4.42137">
        <ele>663</ele>
        <time>2013-08-16T09:07:04.000Z</time>
      </trkpt>
      <trkpt lat="45.65739" lon="4.42137">
        <ele>663.20001220703</ele>
        <time>2013-08-16T09:07:09.000Z</time>
      </trkpt>
      <trkpt lat="45.6574" lon="4.42141">
        <ele>663.20001220703</ele>
        <time>2013-08-16T09:08:38.000Z</time>
      </trkpt>
      <trkpt lat="45.65739" lon="4.42142">
        <ele>663.40002441406</ele>
        <time>2013-08-16T09:08:46.000Z</time>
      </trkpt>
      <trkpt lat="45.65738" lon="4.42146">
        <ele>663.40002441406</ele>
        <time>2013-08-16T09:09:45.000Z</time>
      </trkpt>
      <trkpt lat="45.65738" lon="4.42146">
        <ele>663.40002441406</ele>
        <time>2013-08-16T09:09:48.000Z</time>
      </trkpt>
      <trkpt lat="45.65735" lon="4.42148">
        <ele>663.59997558594</ele>
        <time>2013-08-16T09:10:06.000Z</time>
      </trkpt>
      <trkpt lat="45.65733" lon="4.42149">
        <ele>663.59997558594</ele>
        <time>2013-08-16T09:10:13.000Z</time>
      </trkpt>
      <trkpt lat="45.65732" lon="4.42149">
        <ele>663.59997558594</ele>
        <time>2013-08-16T09:10:56.000Z</time>
      </trkpt>
      <trkpt lat="45.65726" lon="4.42151">
        <ele>663.79998779297</ele>
        <time>2013-08-16T09:11:01.000Z</time>
      </trkpt>
      <trkpt lat="45.65711" lon="4.42154">
        <ele>664.20001220703</ele>
        <time>2013-08-16T09:11:08.000Z</time>
      </trkpt>
      <trkpt lat="45.65695" lon="4.42158">
        <ele>664.59997558594</ele>
        <time>2013-08-16T09:11:15.000Z</time>
      </trkpt>
      <trkpt lat="45.65689" lon="4.42152">
        <ele>664.59997558594</ele>
        <time>2013-08-16T09:11:19.000Z</time>
      </trkpt>
      <trkpt lat="45.65682" lon="4.4213">
        <ele>664.79998779297</ele>
        <time>2013-08-16T09:11:26.000Z</time>
      </trkpt>
      <trkpt lat="45.6567" lon="4.42095">
        <ele>665.59997558594</ele>
        <time>2013-08-16T09:11:35.000Z</time>
      </trkpt>
      <trkpt lat="45.65658" lon="4.42062">
        <ele>666.59997558594</ele>
        <time>2013-08-16T09:11:44.000Z</time>
      </trkpt>
      <trkpt lat="45.65646" lon="4.42028">
        <ele>667.59997558594</ele>
        <time>2013-08-16T09:11:53.000Z</time>
      </trkpt>
      <trkpt lat="45.65637" lon="4.41996">
        <ele>668.59997558594</ele>
        <time>2013-08-16T09:12:01.000Z</time>
      </trkpt>
      <trkpt lat="45.65633" lon="4.41964">
        <ele>668.59997558594</ele>
        <time>2013-08-16T09:12:09.000Z</time>
      </trkpt>
      <trkpt lat="45.65634" lon="4.41944">
        <ele>668.79998779297</ele>
        <time>2013-08-16T09:12:15.000Z</time>
      </trkpt>
      <trkpt lat="45.65637" lon="4.41917">
        <ele>668.79998779297</ele>
        <time>2013-08-16T09:12:21.000Z</time>
      </trkpt>
      <trkpt lat="45.6564" lon="4.41879">
        <ele>667.59997558594</ele>
        <time>2013-08-16T09:12:28.000Z</time>
      </trkpt>
      <trkpt lat="45.65642" lon="4.41835">
        <ele>666</ele>
        <time>2013-08-16T09:12:35.000Z</time>
      </trkpt>
      <trkpt lat="45.65642" lon="4.41793">
        <ele>663.20001220703</ele>
        <time>2013-08-16T09:12:42.000Z</time>
      </trkpt>
      <trkpt lat="45.65642" lon="4.41786">
        <ele>662.59997558594</ele>
        <time>2013-08-16T09:12:43.000Z</time>
      </trkpt>
      <trkpt lat="45.65629" lon="4.41749">
        <ele>660.20001220703</ele>
        <time>2013-08-16T09:12:49.000Z</time>
      </trkpt>
      <trkpt lat="45.65608" lon="4.41713">
        <ele>657.79998779297</ele>
        <time>2013-08-16T09:12:55.000Z</time>
      </trkpt>
      <trkpt lat="45.65582" lon="4.41674">
        <ele>656.40002441406</ele>
        <time>2013-08-16T09:13:01.000Z</time>
      </trkpt>
      <trkpt lat="45.65544" lon="4.41615">
        <ele>655</ele>
        <time>2013-08-16T09:13:09.000Z</time>
      </trkpt>
      <trkpt lat="45.65521" lon="4.4158">
        <ele>656</ele>
        <time>2013-08-16T09:13:15.000Z</time>
      </trkpt>
      <trkpt lat="45.65499" lon="4.41545">
        <ele>657.79998779297</ele>
        <time>2013-08-16T09:13:22.000Z</time>
      </trkpt>
      <trkpt lat="45.65488" lon="4.4153">
        <ele>658.20001220703</ele>
        <time>2013-08-16T09:13:25.000Z</time>
      </trkpt>
      <trkpt lat="45.65466" lon="4.41496">
        <ele>658.79998779297</ele>
        <time>2013-08-16T09:13:32.000Z</time>
      </trkpt>
      <trkpt lat="45.65442" lon="4.41457">
        <ele>657</ele>
        <time>2013-08-16T09:13:40.000Z</time>
      </trkpt>
      <trkpt lat="45.65408" lon="4.41402">
        <ele>653.40002441406</ele>
        <time>2013-08-16T09:13:49.000Z</time>
      </trkpt>
      <trkpt lat="45.65376" lon="4.41354">
        <ele>650</ele>
        <time>2013-08-16T09:13:56.000Z</time>
      </trkpt>
      <trkpt lat="45.65336" lon="4.41291">
        <ele>648.79998779297</ele>
        <time>2013-08-16T09:14:04.000Z</time>
      </trkpt>
      <trkpt lat="45.65305" lon="4.41242">
        <ele>649.40002441406</ele>
        <time>2013-08-16T09:14:11.000Z</time>
      </trkpt>
      <trkpt lat="45.65275" lon="4.41195">
        <ele>651.40002441406</ele>
        <time>2013-08-16T09:14:19.000Z</time>
      </trkpt>
      <trkpt lat="45.65248" lon="4.41153">
        <ele>654</ele>
        <time>2013-08-16T09:14:27.000Z</time>
      </trkpt>
      <trkpt lat="45.65209" lon="4.41093">
        <ele>652.20001220703</ele>
        <time>2013-08-16T09:14:38.000Z</time>
      </trkpt>
      <trkpt lat="45.65175" lon="4.4104">
        <ele>652.20001220703</ele>
        <time>2013-08-16T09:14:47.000Z</time>
      </trkpt>
      <trkpt lat="45.65142" lon="4.40988">
        <ele>652.59997558594</ele>
        <time>2013-08-16T09:14:56.000Z</time>
      </trkpt>
      <trkpt lat="45.65103" lon="4.40928">
        <ele>655</ele>
        <time>2013-08-16T09:15:07.000Z</time>
      </trkpt>
      <trkpt lat="45.65077" lon="4.40887">
        <ele>657</ele>
        <time>2013-08-16T09:15:15.000Z</time>
      </trkpt>
      <trkpt lat="45.65052" lon="4.40848">
        <ele>659.20001220703</ele>
        <time>2013-08-16T09:15:22.000Z</time>
      </trkpt>
      <trkpt lat="45.65023" lon="4.40805">
        <ele>661.20001220703</ele>
        <time>2013-08-16T09:15:29.000Z</time>
      </trkpt>
      <trkpt lat="45.65005" lon="4.40777">
        <ele>662.40002441406</ele>
        <time>2013-08-16T09:15:35.000Z</time>
      </trkpt>
      <trkpt lat="45.64976" lon="4.40731">
        <ele>662.40002441406</ele>
        <time>2013-08-16T09:15:46.000Z</time>
      </trkpt>
      <trkpt lat="45.64946" lon="4.40684">
        <ele>661</ele>
        <time>2013-08-16T09:15:57.000Z</time>
      </trkpt>
      <trkpt lat="45.64913" lon="4.40633">
        <ele>660.20001220703</ele>
        <time>2013-08-16T09:16:08.000Z</time>
      </trkpt>
      <trkpt lat="45.64874" lon="4.40572">
        <ele>661</ele>
        <time>2013-08-16T09:16:20.000Z</time>
      </trkpt>
      <trkpt lat="45.64832" lon="4.40509">
        <ele>661.79998779297</ele>
        <time>2013-08-16T09:16:31.000Z</time>
      </trkpt>
      <trkpt lat="45.64801" lon="4.40466">
        <ele>657.59997558594</ele>
        <time>2013-08-16T09:16:37.000Z</time>
      </trkpt>
      <trkpt lat="45.64763" lon="4.40415">
        <ele>652.59997558594</ele>
        <time>2013-08-16T09:16:43.000Z</time>
      </trkpt>
      <trkpt lat="45.64692" lon="4.40318">
        <ele>646.40002441406</ele>
        <time>2013-08-16T09:16:53.000Z</time>
      </trkpt>
      <trkpt lat="45.64586" lon="4.40174">
        <ele>641.20001220703</ele>
        <time>2013-08-16T09:17:08.000Z</time>
      </trkpt>
      <trkpt lat="45.64522" lon="4.40084">
        <ele>635.40002441406</ele>
        <time>2013-08-16T09:17:17.000Z</time>
      </trkpt>
      <trkpt lat="45.64458" lon="4.39998">
        <ele>628</ele>
        <time>2013-08-16T09:17:25.000Z</time>
      </trkpt>
      <trkpt lat="45.64374" lon="4.39878">
        <ele>623.79998779297</ele>
        <time>2013-08-16T09:17:36.000Z</time>
      </trkpt>
      <trkpt lat="45.64321" lon="4.39807">
        <ele>623.79998779297</ele>
        <time>2013-08-16T09:17:43.000Z</time>
      </trkpt>
      <trkpt lat="45.6429" lon="4.39768">
        <ele>625.79998779297</ele>
        <time>2013-08-16T09:17:48.000Z</time>
      </trkpt>
      <trkpt lat="45.64242" lon="4.39704">
        <ele>629.79998779297</ele>
        <time>2013-08-16T09:17:57.000Z</time>
      </trkpt>
      <trkpt lat="45.64218" lon="4.39672">
        <ele>630.79998779297</ele>
        <time>2013-08-16T09:18:03.000Z</time>
      </trkpt>
      <trkpt lat="45.64178" lon="4.39617">
        <ele>630</ele>
        <time>2013-08-16T09:18:14.000Z</time>
      </trkpt>
      <trkpt lat="45.64144" lon="4.39571">
        <ele>628</ele>
        <time>2013-08-16T09:18:22.000Z</time>
      </trkpt>
      <trkpt lat="45.64106" lon="4.3952">
        <ele>626</ele>
        <time>2013-08-16T09:18:30.000Z</time>
      </trkpt>
      <trkpt lat="45.64059" lon="4.3946">
        <ele>622.79998779297</ele>
        <time>2013-08-16T09:18:39.000Z</time>
      </trkpt>
      <trkpt lat="45.6404" lon="4.39434">
        <ele>622</ele>
        <time>2013-08-16T09:18:44.000Z</time>
      </trkpt>
      <trkpt lat="45.64031" lon="4.39421">
        <ele>621.59997558594</ele>
        <time>2013-08-16T09:18:48.000Z</time>
      </trkpt>
      <trkpt lat="45.64018" lon="4.39405">
        <ele>621.40002441406</ele>
        <time>2013-08-16T09:18:53.000Z</time>
      </trkpt>
      <trkpt lat="45.63996" lon="4.39375">
        <ele>621</ele>
        <time>2013-08-16T09:18:59.000Z</time>
      </trkpt>
      <trkpt lat="45.63967" lon="4.39332">
        <ele>621</ele>
        <time>2013-08-16T09:19:06.000Z</time>
      </trkpt>
      <trkpt lat="45.6393" lon="4.39284">
        <ele>620.59997558594</ele>
        <time>2013-08-16T09:19:14.000Z</time>
      </trkpt>
      <trkpt lat="45.63904" lon="4.3925">
        <ele>620.59997558594</ele>
        <time>2013-08-16T09:19:20.000Z</time>
      </trkpt>
      <trkpt lat="45.63899" lon="4.39241">
        <ele>620.59997558594</ele>
        <time>2013-08-16T09:19:22.000Z</time>
      </trkpt>
      <trkpt lat="45.6389" lon="4.3925">
        <ele>621.20001220703</ele>
        <time>2013-08-16T09:19:26.000Z</time>
      </trkpt>
      <trkpt lat="45.63882" lon="4.39265">
        <ele>622</ele>
        <time>2013-08-16T09:19:31.000Z</time>
      </trkpt>
      <trkpt lat="45.63876" lon="4.39263">
        <ele>622.20001220703</ele>
        <time>2013-08-16T09:19:34.000Z</time>
      </trkpt>
      <trkpt lat="45.63862" lon="4.39236">
        <ele>622.40002441406</ele>
        <time>2013-08-16T09:19:41.000Z</time>
      </trkpt>
      <trkpt lat="45.63854" lon="4.39243">
        <ele>622.79998779297</ele>
        <time>2013-08-16T09:19:45.000Z</time>
      </trkpt>
      <trkpt lat="45.63853" lon="4.39247">
        <ele>623</ele>
        <time>2013-08-16T09:19:46.000Z</time>
      </trkpt>
      <trkpt lat="45.6385" lon="4.39257">
        <ele>623.20001220703</ele>
        <time>2013-08-16T09:19:48.000Z</time>
      </trkpt>
      <trkpt lat="45.63838" lon="4.39292">
        <ele>624.59997558594</ele>
        <time>2013-08-16T09:19:55.000Z</time>
      </trkpt>
      <trkpt lat="45.63832" lon="4.39316">
        <ele>625.59997558594</ele>
        <time>2013-08-16T09:20:01.000Z</time>
      </trkpt>
      <trkpt lat="45.63831" lon="4.39317">
        <ele>625.59997558594</ele>
        <time>2013-08-16T09:20:02.000Z</time>
      </trkpt>
      <trkpt lat="45.63819" lon="4.39307">
        <ele>625.59997558594</ele>
        <time>2013-08-16T09:20:09.000Z</time>
      </trkpt>
      <trkpt lat="45.63807" lon="4.39294">
        <ele>625.59997558594</ele>
        <time>2013-08-16T09:20:14.000Z</time>
      </trkpt>
      <trkpt lat="45.63795" lon="4.39282">
        <ele>625.59997558594</ele>
        <time>2013-08-16T09:20:19.000Z</time>
      </trkpt>
      <trkpt lat="45.63785" lon="4.39274">
        <ele>625.59997558594</ele>
        <time>2013-08-16T09:20:24.000Z</time>
      </trkpt>
      <trkpt lat="45.63776" lon="4.39259">
        <ele>625.40002441406</ele>
        <time>2013-08-16T09:20:30.000Z</time>
      </trkpt>
      <trkpt lat="45.6377" lon="4.39255">
        <ele>625.59997558594</ele>
        <time>2013-08-16T09:20:35.000Z</time>
      </trkpt>
      <trkpt lat="45.63758" lon="4.39267">
        <ele>626</ele>
        <time>2013-08-16T09:20:43.000Z</time>
      </trkpt>
      <trkpt lat="45.63755" lon="4.39274">
        <ele>626.40002441406</ele>
        <time>2013-08-16T09:20:46.000Z</time>
      </trkpt>
      <trkpt lat="45.63742" lon="4.39296">
        <ele>626.79998779297</ele>
        <time>2013-08-16T09:20:52.000Z</time>
      </trkpt>
      <trkpt lat="45.63727" lon="4.39336">
        <ele>627</ele>
        <time>2013-08-16T09:20:59.000Z</time>
      </trkpt>
      <trkpt lat="45.63706" lon="4.39396">
        <ele>627.20001220703</ele>
        <time>2013-08-16T09:21:08.000Z</time>
      </trkpt>
      <trkpt lat="45.63685" lon="4.39457">
        <ele>627.20001220703</ele>
        <time>2013-08-16T09:21:16.000Z</time>
      </trkpt>
      <trkpt lat="45.63662" lon="4.39519">
        <ele>626.20001220703</ele>
        <time>2013-08-16T09:21:24.000Z</time>
      </trkpt>
      <trkpt lat="45.63645" lon="4.39562">
        <ele>624.59997558594</ele>
        <time>2013-08-16T09:21:31.000Z</time>
      </trkpt>
      <trkpt lat="45.63632" lon="4.39571">
        <ele>624</ele>
        <time>2013-08-16T09:21:35.000Z</time>
      </trkpt>
      <trkpt lat="45.63605" lon="4.39588">
        <ele>622.59997558594</ele>
        <time>2013-08-16T09:21:41.000Z</time>
      </trkpt>
      <trkpt lat="45.63583" lon="4.39598">
        <ele>621.59997558594</ele>
        <time>2013-08-16T09:21:45.000Z</time>
      </trkpt>
      <trkpt lat="45.63532" lon="4.39612">
        <ele>619</ele>
        <time>2013-08-16T09:21:52.000Z</time>
      </trkpt>
      <trkpt lat="45.63494" lon="4.39629">
        <ele>616.79998779297</ele>
        <time>2013-08-16T09:21:57.000Z</time>
      </trkpt>
      <trkpt lat="45.63464" lon="4.39643">
        <ele>614.20001220703</ele>
        <time>2013-08-16T09:22:02.000Z</time>
      </trkpt>
      <trkpt lat="45.63453" lon="4.39646">
        <ele>613.20001220703</ele>
        <time>2013-08-16T09:22:06.000Z</time>
      </trkpt>
      <trkpt lat="45.6345" lon="4.39647">
        <ele>613</ele>
        <time>2013-08-16T09:22:10.000Z</time>
      </trkpt>
      <trkpt lat="45.63433" lon="4.39652">
        <ele>611.40002441406</ele>
        <time>2013-08-16T09:22:16.000Z</time>
      </trkpt>
      <trkpt lat="45.63407" lon="4.39657">
        <ele>609.20001220703</ele>
        <time>2013-08-16T09:22:21.000Z</time>
      </trkpt>
      <trkpt lat="45.63377" lon="4.39662">
        <ele>606.20001220703</ele>
        <time>2013-08-16T09:22:26.000Z</time>
      </trkpt>
      <trkpt lat="45.63361" lon="4.39666">
        <ele>604.59997558594</ele>
        <time>2013-08-16T09:22:29.000Z</time>
      </trkpt>
      <trkpt lat="45.6334" lon="4.39666">
        <ele>602.59997558594</ele>
        <time>2013-08-16T09:22:33.000Z</time>
      </trkpt>
      <trkpt lat="45.63318" lon="4.39671">
        <ele>600.59997558594</ele>
        <time>2013-08-16T09:22:37.000Z</time>
      </trkpt>
      <trkpt lat="45.63297" lon="4.39663">
        <ele>599</ele>
        <time>2013-08-16T09:22:42.000Z</time>
      </trkpt>
      <trkpt lat="45.63287" lon="4.39652">
        <ele>598.59997558594</ele>
        <time>2013-08-16T09:22:46.000Z</time>
      </trkpt>
      <trkpt lat="45.63283" lon="4.39652">
        <ele>598.40002441406</ele>
        <time>2013-08-16T09:22:52.000Z</time>
      </trkpt>
      <trkpt lat="45.63283" lon="4.39652">
        <ele>598.40002441406</ele>
        <time>2013-08-16T09:22:54.000Z</time>
      </trkpt>
    </trkseg>
  </trk>
</gpx>